ftp/pub/palmer/observations_modified/2019/July/original_files/AR190714_BASE.txt
Download
Sample DateTime Unit Id WS Avg 2min WD Avg 2min WGS 10min WGD 10min Air Temp Rel Humidity Dew Point Pyranometer Quantum Air Pressure Snow Level Rainfall PW Current Visibility CBase 1 CBase 2 CBase 3 Vert Vis
2019/07/14 00:00:00 BASE 1.82 55 3.09 41 -6.6 100 -6.6 0 0 1011.4 NA 0.0000 9999 0 0 0 0
2019/07/14 00:01:00 BASE 2.17 46 2.68 43 -6.5 100 -6.5 0 0 1011.4 NA 0.0000 9999 0 0 0 0
2019/07/14 00:02:00 BASE 2.19 45 2.31 46 -6.6 100 -6.6 0 1 1011.4 NA 0.0000 9999 0 0 0 0
2019/07/14 00:03:00 BASE 2.17 43 2.31 46 -6.6 100 -6.6 0 0 1011.4 NA 0.0000 9999 0 0 0 0
2019/07/14 00:04:00 BASE 2.28 39 2.52 34 -6.7 100 -6.7 0 0 1011.4 NA 0.0000 9999 0 0 0 0
2019/07/14 00:05:00 BASE 2.49 35 2.88 32 -6.7 100 -6.7 0 0 1011.4 NA 0.0000 9999 0 0 0 0
2019/07/14 00:06:00 BASE 2.57 35 2.88 32 -6.8 100 -6.8 0 0 1011.4 NA 0.0000 9999 0 0 0 0
2019/07/14 00:07:00 BASE 2.57 38 2.88 32 -6.8 100 -6.8 0 0 1011.4 NA 0.0000 9999 0 0 0 0
2019/07/14 00:08:00 BASE 2.49 39 2.88 32 -6.8 100 -6.8 0 0 1011.4 NA 0.0000 9999 0 0 0 0
2019/07/14 00:09:00 BASE 2.48 39 2.88 32 -6.9 100 -6.9 0 0 1011.4 NA 0.0000 9999 0 0 0 0
2019/07/14 00:10:00 BASE 2.58 40 2.88 37 -6.9 100 -6.9 0 0 1011.4 NA 0.0000 9999 0 0 0 0
2019/07/14 00:11:00 BASE 2.68 38 2.88 39 -6.9 100 -6.9 0 0 1011.4 NA 0.0000 9999 0 0 0 0
2019/07/14 00:12:00 BASE 2.83 32 3.14 27 -6.9 100 -6.9 0 0 1011.4 NA 0.0000 9999 0 0 0 0
2019/07/14 00:13:00 BASE 2.99 31 3.34 29 -6.9 100 -6.9 0 0 1011.4 NA 0.0000 9999 0 0 0 0
2019/07/14 00:14:00 BASE 3.19 31 3.45 32 -6.9 100 -6.9 0 1 1011.4 NA 0.0000 9999 0 0 0 0
2019/07/14 00:15:00 BASE 3.24 29 3.45 32 -6.9 100 -6.9 0 0 1011.4 NA 0.0000 9999 0 0 0 0
2019/07/14 00:16:00 BASE 3.13 30 3.55 26 -6.9 100 -6.9 0 0 1011.4 NA 0.0000 9999 0 0 0 0
2019/07/14 00:17:00 BASE 2.91 33 3.55 26 -6.9 100 -6.9 0 0 1011.3 NA 0.0000 9999 0 0 0 0
2019/07/14 00:18:00 BASE 2.73 35 3.55 26 -6.9 100 -6.9 0 2 1011.3 NA 0.0000 9999 0 0 0 0
2019/07/14 00:19:00 BASE 2.58 36 3.55 26 -6.9 100 -6.9 0 0 1011.3 NA 0.0000 9999 0 0 0 0
2019/07/14 00:20:00 BASE 2.46 35 3.55 26 -6.9 100 -6.9 0 0 1011.3 NA 0.0000 9999 0 0 0 0
2019/07/14 00:21:00 BASE 2.44 34 3.55 26 -6.9 100 -6.9 0 0 1011.3 NA 0.0000 9999 0 0 0 0
2019/07/14 00:22:00 BASE 2.48 33 3.55 26 -6.9 100 -6.9 0 0 1011.3 NA 0.0000 9999 820 0 0 0
2019/07/14 00:23:00 BASE 2.46 33 3.55 26 -6.9 100 -6.9 0 1 1011.3 NA 0.0000 9999 790 0 0 0
2019/07/14 00:24:00 BASE 2.37 36 3.55 26 -6.9 100 -6.9 0 0 1011.3 NA 0.0000 9999 820 0 0 0
2019/07/14 00:25:00 BASE 2.34 38 3.55 26 -6.8 100 -6.8 0 0 1011.3 NA 0.0000 9999 850 0 0 0
2019/07/14 00:26:00 BASE 2.39 34 2.98 39 -6.8 100 -6.8 0 3 1011.3 NA 0.0000 9999 0 0 0 790
2019/07/14 00:27:00 BASE 2.36 35 2.83 34 -6.8 100 -6.8 0 3 1011.2 NA 0.0000 9999 790 0 0 0
2019/07/14 00:28:00 BASE 2.33 38 2.62 34 -6.9 100 -6.9 0 2 1011.1 NA 0.0000 9999 0 0 0 0
2019/07/14 00:29:00 BASE 2.38 37 2.62 34 -6.9 100 -6.9 0 3 1011.1 NA 0.0000 9999 0 0 0 0
2019/07/14 00:30:00 BASE 2.51 34 2.78 32 -6.9 100 -6.9 0 0 1011.1 NA 0.0000 9999 0 0 0 0
2019/07/14 00:31:00 BASE 2.61 33 2.78 32 -7.0 100 -7.0 0 3 1011.1 NA 0.0000 9999 0 0 0 0
2019/07/14 00:32:00 BASE 2.57 35 2.78 32 -7.0 100 -7.0 0 3 1011.1 NA 0.0000 9999 0 0 0 0
2019/07/14 00:33:00 BASE 2.58 38 2.93 35 -7.1 100 -7.1 0 3 1011.1 NA 0.0000 9999 0 0 0 0
2019/07/14 00:34:00 BASE 2.79 37 2.98 32 -7.1 100 -7.1 0 2 1011.1 NA 0.0000 9999 0 0 0 0
2019/07/14 00:35:00 BASE 2.96 34 3.09 34 -7.1 100 -7.1 0 3 1011.1 NA 0.0000 9999 0 0 0 0
2019/07/14 00:36:00 BASE 2.95 34 3.09 34 -7.1 100 -7.1 0 3 1011.1 NA 0.0000 9999 0 0 0 0
2019/07/14 00:37:00 BASE 2.87 34 3.09 34 -7.1 100 -7.1 0 3 1011.1 NA 0.0000 9999 0 0 0 0
2019/07/14 00:38:00 BASE 2.80 32 3.09 34 -7.1 100 -7.1 0 0 1011.1 NA 0.0000 9999 0 0 0 0
2019/07/14 00:39:00 BASE 2.71 35 3.09 34 -7.2 100 -7.2 0 0 1011.1 NA 0.0000 9999 0 0 0 0
2019/07/14 00:40:00 BASE 2.57 40 3.09 34 -7.2 100 -7.2 0 0 1011.0 NA 0.0000 9999 0 0 0 0
2019/07/14 00:41:00 BASE 2.41 44 3.09 34 -7.2 100 -7.2 0 3 1010.9 NA 0.0000 9999 0 0 0 0
2019/07/14 00:42:00 BASE 2.24 46 3.09 34 -7.2 100 -7.2 0 2 1010.9 NA 0.0000 9999 0 0 0 0
2019/07/14 00:43:00 BASE 2.27 43 3.09 34 -7.1 100 -7.1 0 2 1010.9 NA 0.0000 9999 0 0 0 0
2019/07/14 00:44:00 BASE 2.31 44 3.09 34 -7.1 100 -7.1 0 0 1010.9 NA 0.0000 9999 0 0 0 0
2019/07/14 00:45:00 BASE 2.23 43 3.04 26 -7.1 100 -7.1 0 0 1010.9 NA 0.0000 9999 0 0 0 0
2019/07/14 00:46:00 BASE 2.09 42 3.04 26 -7.1 100 -7.1 0 1 1010.9 NA 0.0000 9999 0 0 0 0
2019/07/14 00:47:00 BASE 1.95 43 3.04 26 -7.0 100 -7.0 0 0 1010.9 NA 0.0000 9999 0 0 0 0
2019/07/14 00:48:00 BASE 1.81 39 2.73 41 -7.0 100 -7.0 0 1 1010.9 NA 0.0000 9999 0 0 0 0
2019/07/14 00:49:00 BASE 1.46 30 2.68 41 -6.9 100 -6.9 0 0 1010.9 NA 0.0000 9999 0 0 0 0
2019/07/14 00:50:00 BASE 1.45 31 2.57 46 -6.9 100 -6.9 0 0 1010.9 NA 0.0000 9999 0 0 0 0
2019/07/14 00:51:00 BASE 1.89 41 2.52 39 -6.9 100 -6.9 0 2 1010.9 NA 0.0000 9999 0 0 0 0
2019/07/14 00:52:00 BASE 2.15 43 2.52 39 -6.8 100 -6.8 0 1 1010.9 NA 0.0000 9999 0 0 0 0
2019/07/14 00:53:00 BASE 2.31 39 2.73 32 -6.8 100 -6.8 0 0 1010.9 NA 0.0000 9999 0 0 0 0
2019/07/14 00:54:00 BASE 2.57 34 2.88 31 -6.8 100 -6.8 0 0 1010.9 NA 0.0000 9999 0 0 0 0
2019/07/14 00:55:00 BASE 2.76 32 2.88 33 -6.8 100 -6.8 0 0 1010.9 NA 0.0000 9999 0 0 0 0
2019/07/14 00:56:00 BASE 2.85 33 2.98 32 -6.8 100 -6.8 0 0 1010.9 NA 0.0000 9999 0 0 0 0
2019/07/14 00:57:00 BASE 2.84 33 2.98 32 -6.8 100 -6.8 0 0 1010.9 NA 0.0000 9999 0 0 0 0
2019/07/14 00:58:00 BASE 2.81 32 3.14 29 -6.9 100 -6.9 0 1 1010.9 NA 0.0000 9999 0 0 0 0
2019/07/14 00:59:00 BASE 2.73 31 3.14 29 -6.9 100 -6.9 0 0 1010.9 NA 0.0000 9999 0 0 0 0
2019/07/14 01:00:00 BASE 2.75 31 3.14 29 -7.0 100 -7.0 0 0 1010.9 NA 0.0000 9999 0 0 0 0
2019/07/14 01:01:00 BASE 2.77 35 3.14 29 -7.1 100 -7.1 0 0 1010.9 NA 0.0000 9999 0 0 0 0
2019/07/14 01:02:00 BASE 2.61 39 3.14 29 -7.1 100 -7.1 0 1 1010.9 NA 0.0000 9999 0 0 0 0
2019/07/14 01:03:00 BASE 2.59 39 3.14 29 -7.1 100 -7.1 0 0 1010.9 NA 0.0000 9999 0 0 0 0
2019/07/14 01:04:00 BASE 2.64 40 3.14 29 -7.1 100 -7.1 0 0 1010.9 NA 0.0000 9999 0 0 0 0
2019/07/14 01:05:00 BASE 2.64 42 3.14 29 -7.1 100 -7.1 0 0 1010.9 NA 0.0000 9999 1380 0 0 0
2019/07/14 01:06:00 BASE 2.67 47 3.14 29 -7.1 100 -7.1 0 0 1010.9 NA 0.0000 9999 1380 0 0 0
2019/07/14 01:07:00 BASE 2.58 49 3.14 29 -7.1 100 -7.1 0 0 1010.9 NA 0.0000 9999 1350 0 0 0
2019/07/14 01:08:00 BASE 2.33 43 3.09 28 -7.1 100 -7.1 0 0 1010.9 NA 0.0000 9999 1310 0 0 0
2019/07/14 01:09:00 BASE 2.34 40 3.09 28 -7.1 100 -7.1 0 0 1010.9 NA 0.0000 9999 1280 0 0 0
2019/07/14 01:10:00 BASE 2.33 41 2.88 49 -7.1 100 -7.1 0 0 1010.9 NA 0.0000 9999 1250 0 0 0
2019/07/14 01:11:00 BASE 2.20 41 2.88 49 -7.1 100 -7.1 0 0 1010.9 NA 0.0000 9999 1250 0 0 0
2019/07/14 01:12:00 BASE 2.18 40 2.88 49 -7.1 100 -7.1 0 0 1010.9 NA 0.0000 9999 1250 0 0 0
2019/07/14 01:13:00 BASE 2.26 40 2.88 49 -7.0 100 -7.0 0 0 1010.9 NA 0.0000 9999 1280 0 0 0
2019/07/14 01:14:00 BASE 2.53 39 2.93 37 -7.0 100 -7.0 0 0 1010.9 NA 0.0000 9999 0 0 0 0
2019/07/14 01:15:00 BASE 2.81 37 2.98 38 -7.0 100 -7.0 0 0 1010.9 NA 0.0000 9999 0 0 0 0
2019/07/14 01:16:00 BASE 2.90 36 3.04 39 -7.0 100 -7.0 0 0 1010.9 NA 0.0000 9999 0 0 0 0
2019/07/14 01:17:00 BASE 2.76 38 3.04 39 -7.0 100 -7.0 0 0 1010.9 NA 0.0000 9999 0 0 0 0
2019/07/14 01:18:00 BASE 2.69 36 3.04 39 -7.0 100 -7.0 0 0 1010.9 NA 0.0000 9999 0 0 0 0
2019/07/14 01:19:00 BASE 2.79 35 3.04 39 -7.1 100 -7.1 0 0 1010.9 NA 0.0000 9999 0 0 0 0
2019/07/14 01:20:00 BASE 2.84 37 3.04 39 -7.1 100 -7.1 0 0 1010.9 NA 0.0000 9999 0 0 0 0
2019/07/14 01:21:00 BASE 2.80 39 3.04 39 -7.1 100 -7.1 0 0 1010.9 NA 0.0000 9999 0 0 0 0
2019/07/14 01:22:00 BASE 2.70 41 3.04 39 -7.1 100 -7.1 0 0 1010.9 NA 0.0000 9999 0 0 0 0
2019/07/14 01:23:00 BASE 2.68 43 3.04 39 -7.1 100 -7.1 0 0 1010.9 NA 0.0000 9999 0 0 0 0
2019/07/14 01:24:00 BASE 2.64 43 3.04 39 -7.1 100 -7.1 0 0 1010.9 NA 0.0000 9999 0 0 0 0
2019/07/14 01:25:00 BASE 2.38 43 3.04 39 -7.1 100 -7.1 0 0 1010.9 NA 0.0000 9999 0 0 0 0
2019/07/14 01:26:00 BASE 2.32 45 2.98 36 -7.1 100 -7.1 0 0 1010.9 NA 0.0000 9999 0 0 0 0
2019/07/14 01:27:00 BASE 2.16 49 2.98 36 -7.1 100 -7.1 0 0 1010.9 NA 0.0000 9999 0 0 0 0
2019/07/14 01:28:00 BASE 1.89 49 2.98 36 -7.1 100 -7.1 0 0 1010.9 NA 0.0000 9999 0 0 0 0
2019/07/14 01:29:00 BASE 2.06 47 2.93 46 -7.1 100 -7.1 0 0 1010.9 NA 0.0000 9999 0 0 0 0
2019/07/14 01:30:00 BASE 2.26 47 2.93 46 -7.0 100 -7.0 0 0 1010.9 NA 0.0000 9999 0 0 0 0
2019/07/14 01:31:00 BASE 2.30 45 2.93 46 -7.0 100 -7.0 0 0 1010.9 NA 0.0000 9999 0 0 0 0
2019/07/14 01:32:00 BASE 2.37 44 2.93 46 -7.0 100 -7.0 0 0 1010.9 NA 0.0000 9999 0 0 0 0
2019/07/14 01:33:00 BASE 2.35 44 2.68 41 -7.0 100 -7.0 0 0 1010.9 NA 0.0000 9999 0 0 0 0
2019/07/14 01:34:00 BASE 2.15 45 2.52 43 -7.1 100 -7.1 0 2 1010.9 NA 0.0000 9999 0 0 0 0
2019/07/14 01:35:00 BASE 2.03 44 2.52 43 -7.1 100 -7.1 0 0 1010.9 NA 0.0000 9999 0 0 0 0
2019/07/14 01:36:00 BASE 2.08 42 2.52 43 -7.1 100 -7.1 0 2 1010.8 NA 0.0000 9999 0 0 0 0
2019/07/14 01:37:00 BASE 2.11 40 2.52 43 -7.1 100 -7.1 0 0 1010.8 NA 0.0000 9999 0 0 0 0
2019/07/14 01:38:00 BASE 2.18 40 2.52 43 -7.1 100 -7.1 0 0 1010.8 NA 0.0000 9999 0 0 0 0
2019/07/14 01:39:00 BASE 2.15 42 2.52 43 -7.1 100 -7.1 0 0 1010.8 NA 0.0000 9999 0 0 0 0
2019/07/14 01:40:00 BASE 2.01 45 2.52 43 -7.1 100 -7.1 0 0 1010.8 NA 0.0000 9999 0 0 0 0
2019/07/14 01:41:00 BASE 2.19 46 2.68 48 -7.2 100 -7.2 0 2 1010.8 NA 0.0000 9999 0 0 0 0
2019/07/14 01:42:00 BASE 2.46 47 2.78 48 -7.2 100 -7.2 0 0 1010.8 NA 0.0000 9999 0 0 0 0
2019/07/14 01:43:00 BASE 2.47 47 2.78 48 -7.2 100 -7.2 0 3 1010.8 NA 0.0000 9999 0 0 0 0
2019/07/14 01:44:00 BASE 2.36 47 2.78 48 -7.2 100 -7.2 0 0 1010.8 NA 0.0000 9999 0 0 0 0
2019/07/14 01:45:00 BASE 2.29 47 2.78 48 -7.2 100 -7.2 0 2 1010.8 NA 0.0000 9999 0 0 0 0
2019/07/14 01:46:00 BASE 2.16 51 2.78 48 -7.2 100 -7.2 0 0 1010.8 NA 0.0000 9999 0 0 0 0
2019/07/14 01:47:00 BASE 1.97 57 2.78 48 -7.2 100 -7.2 0 2 1010.8 NA 0.0000 9999 0 0 0 0
2019/07/14 01:48:00 BASE 1.90 62 2.78 48 -7.2 100 -7.2 0 0 1010.8 NA 0.0000 9999 0 0 0 0
2019/07/14 01:49:00 BASE 2.03 60 2.78 48 -7.2 100 -7.2 0 0 1010.8 NA 0.0000 9999 0 0 0 0
2019/07/14 01:50:00 BASE 2.28 55 2.78 48 -7.2 100 -7.2 0 0 1010.8 NA 0.0000 9999 0 0 0 0
2019/07/14 01:51:00 BASE 2.30 55 2.78 48 -7.2 100 -7.2 0 0 1010.8 NA 0.0000 9999 0 0 0 0
2019/07/14 01:52:00 BASE 2.34 55 2.62 52 -7.2 100 -7.2 0 1 1010.8 NA 0.0000 9999 0 0 0 0
2019/07/14 01:53:00 BASE 2.57 53 2.78 55 -7.2 100 -7.2 0 1 1010.8 NA 0.0000 9999 0 0 0 0
2019/07/14 01:54:00 BASE 2.69 51 3.04 47 -7.2 100 -7.2 0 1 1010.8 NA 0.0000 9999 0 0 0 0
2019/07/14 01:55:00 BASE 2.86 48 3.09 43 -7.2 100 -7.2 0 0 1010.8 NA 0.0000 9999 0 0 0 0
2019/07/14 01:56:00 BASE 3.03 44 3.14 45 -7.2 100 -7.2 0 0 1010.8 NA 0.0000 9999 0 0 0 0
2019/07/14 01:57:00 BASE 3.02 42 3.14 43 -7.2 100 -7.2 0 0 1010.8 NA 0.0000 9999 0 0 0 0
2019/07/14 01:58:00 BASE 3.01 44 3.24 47 -7.2 100 -7.2 0 2 1010.8 NA 0.0000 9999 0 0 0 0
2019/07/14 01:59:00 BASE 2.77 45 3.24 47 -7.2 100 -7.2 0 1 1010.8 NA 0.0000 9999 0 0 0 0
2019/07/14 02:00:00 BASE 2.44 42 3.24 47 -7.2 100 -7.2 0 0 1010.8 NA 0.0000 9999 0 0 0 0
2019/07/14 02:01:00 BASE 2.28 39 3.24 47 -7.1 100 -7.1 0 0 1010.8 NA 0.0000 9999 0 0 0 0
2019/07/14 02:02:00 BASE 2.16 40 3.24 47 -7.2 100 -7.2 0 0 1010.8 NA 0.0000 9999 0 0 0 0
2019/07/14 02:03:00 BASE 2.10 52 3.24 47 -7.2 100 -7.2 0 3 1010.8 NA 0.0000 9999 0 0 0 0
2019/07/14 02:04:00 BASE 1.93 61 3.24 47 -7.1 100 -7.1 0 2 1010.8 NA 0.0000 9999 0 0 0 0
2019/07/14 02:05:00 BASE 1.91 57 3.24 47 -7.1 100 -7.1 0 0 1010.8 NA 0.0000 9999 0 0 0 0
2019/07/14 02:06:00 BASE 2.20 45 3.24 47 -7.2 100 -7.2 0 3 1010.8 NA 0.0000 9999 0 0 0 0
2019/07/14 02:07:00 BASE 2.42 36 3.24 47 -7.2 100 -7.2 0 2 1010.8 NA 0.0000 9999 0 0 0 0
2019/07/14 02:08:00 BASE 2.51 37 2.78 40 -7.2 100 -7.2 0 2 1010.8 NA 0.0000 9999 0 0 0 0
2019/07/14 02:09:00 BASE 2.29 43 2.78 40 -7.3 100 -7.3 0 3 1010.8 NA 0.0000 9999 0 0 0 0
2019/07/14 02:10:00 BASE 1.90 50 2.78 40 -7.3 100 -7.3 0 3 1010.8 NA 0.0000 9999 0 0 0 0
2019/07/14 02:11:00 BASE 1.71 58 2.78 40 -7.4 100 -7.4 0 3 1010.8 NA 0.0000 9999 0 0 0 0
2019/07/14 02:12:00 BASE 1.70 65 2.78 40 -7.3 100 -7.3 0 0 1010.9 NA 0.0000 9999 0 0 0 0
2019/07/14 02:13:00 BASE 1.77 58 2.78 40 -7.3 100 -7.3 0 3 1010.9 NA 0.0000 9999 0 0 0 0
2019/07/14 02:14:00 BASE 1.79 44 2.78 40 -7.3 100 -7.3 0 3 1010.9 NA 0.0000 9999 0 0 0 0
2019/07/14 02:15:00 BASE 1.83 41 2.78 40 -7.3 100 -7.3 0 0 1010.8 NA 0.0000 9999 0 0 0 0
2019/07/14 02:16:00 BASE 1.83 43 2.78 40 -7.3 100 -7.3 0 1 1010.8 NA 0.0000 9999 0 0 0 0
2019/07/14 02:17:00 BASE 1.59 46 2.78 40 -7.3 100 -7.3 0 1 1010.8 NA 0.0000 9999 0 0 0 0
2019/07/14 02:18:00 BASE 1.41 46 2.42 41 -7.3 100 -7.3 0 0 1010.8 NA 0.0000 9999 0 0 0 0
2019/07/14 02:19:00 BASE 1.57 36 2.01 63 -7.3 100 -7.3 0 2 1010.9 NA 0.0000 9999 0 0 0 0
2019/07/14 02:20:00 BASE 1.84 30 2.21 33 -7.2 100 -7.2 0 1 1010.9 NA 0.0000 9999 0 0 0 0
2019/07/14 02:21:00 BASE 1.87 32 2.21 33 -7.2 100 -7.2 0 0 1010.9 NA 0.0000 9999 0 0 0 0
2019/07/14 02:22:00 BASE 1.68 37 2.21 33 -7.2 100 -7.2 0 1 1010.9 NA 0.0000 9999 0 0 0 0
2019/07/14 02:23:00 BASE 1.71 44 2.21 33 -7.2 100 -7.2 0 0 1010.9 NA 0.0000 9999 0 0 0 0
2019/07/14 02:24:00 BASE 1.97 46 2.21 44 -7.2 100 -7.2 0 0 1010.9 NA 0.0000 9999 0 0 0 0
2019/07/14 02:25:00 BASE 2.06 46 2.21 44 -7.2 100 -7.2 0 0 1010.9 NA 0.0000 9999 0 0 0 0
2019/07/14 02:26:00 BASE 1.91 48 2.21 44 -7.2 100 -7.2 0 2 1010.9 NA 0.0000 9999 0 0 0 0
2019/07/14 02:27:00 BASE 1.85 48 2.21 44 -7.2 100 -7.2 0 2 1010.9 NA 0.0000 9999 0 0 0 0
2019/07/14 02:28:00 BASE 1.91 49 2.21 44 -7.3 100 -7.3 0 1 1010.9 NA 0.0000 9999 0 0 0 0
2019/07/14 02:29:00 BASE 1.79 52 2.21 44 -7.2 100 -7.2 0 0 1010.9 NA 0.0000 9999 0 0 0 0
2019/07/14 02:30:00 BASE 1.77 55 2.21 44 -7.2 100 -7.2 0 1 1010.9 NA 0.0000 9999 0 0 0 0
2019/07/14 02:31:00 BASE 1.99 54 2.26 49 -7.2 100 -7.2 0 0 1010.9 NA 0.0000 9999 0 0 0 0
2019/07/14 02:32:00 BASE 2.19 49 2.31 43 -7.2 100 -7.2 0 3 1010.9 NA 0.0000 9999 0 0 0 0
2019/07/14 02:33:00 BASE 2.26 42 2.31 39 -7.2 100 -7.2 0 2 1010.9 NA 0.0000 9999 0 0 0 0
2019/07/14 02:34:00 BASE 2.13 41 2.31 39 -7.2 100 -7.2 0 2 1010.9 NA 0.0000 9999 0 0 0 0
2019/07/14 02:35:00 BASE 2.01 41 2.31 39 -7.2 100 -7.2 0 2 1010.9 NA 0.0000 9999 0 0 0 0
2019/07/14 02:36:00 BASE 2.00 40 2.31 39 -7.2 100 -7.2 0 2 1010.9 NA 0.0000 9999 0 0 0 0
2019/07/14 02:37:00 BASE 2.05 38 2.42 31 -7.2 100 -7.2 0 1 1010.9 NA 0.0000 9999 0 0 0 0
2019/07/14 02:38:00 BASE 2.24 32 2.47 31 -7.2 100 -7.2 0 3 1010.9 NA 0.0000 9999 0 0 0 0
2019/07/14 02:39:00 BASE 2.25 26 2.52 24 -7.3 100 -7.3 0 2 1010.9 NA 0.0000 9999 0 0 0 0
2019/07/14 02:40:00 BASE 2.18 29 2.52 24 -7.4 100 -7.4 0 0 1010.9 NA 0.0000 9999 0 0 0 0
2019/07/14 02:41:00 BASE 2.15 32 2.52 24 -7.4 100 -7.4 0 0 1010.9 NA 0.0000 9999 0 0 0 0
2019/07/14 02:42:00 BASE 2.28 26 2.57 18 -7.5 100 -7.5 0 2 1010.9 NA 0.0000 9999 0 0 0 0
2019/07/14 02:43:00 BASE 2.52 21 2.73 17 -7.5 100 -7.5 0 3 1010.9 NA 0.0000 9999 14700 0 0 0
2019/07/14 02:44:00 BASE 2.53 22 2.73 17 -7.5 100 -7.5 0 0 1010.9 NA 0.0000 9999 0 0 0 0
2019/07/14 02:45:00 BASE 2.56 25 2.93 27 -7.5 100 -7.5 0 1 1010.9 NA 0.0000 9999 0 0 0 0
2019/07/14 02:46:00 BASE 2.46 24 2.93 27 -7.5 100 -7.5 0 2 1010.9 NA 0.0000 9999 0 0 0 0
2019/07/14 02:47:00 BASE 2.39 21 2.93 20 -7.5 100 -7.5 0 2 1010.9 NA 0.0000 9999 0 0 0 0
2019/07/14 02:48:00 BASE 2.43 24 2.93 20 -7.5 100 -7.5 0 0 1010.9 NA 0.0000 9999 0 0 0 0
2019/07/14 02:49:00 BASE 2.52 26 2.93 20 -7.5 100 -7.5 0 0 1010.9 NA 0.0000 9999 0 0 0 0
2019/07/14 02:50:00 BASE 2.59 26 2.93 20 -7.5 100 -7.5 0 2 1010.9 NA 0.0000 9999 0 0 0 0
2019/07/14 02:51:00 BASE 2.71 26 3.55 23 -7.5 100 -7.5 0 1 1010.9 NA 0.0000 9999 0 0 0 0
2019/07/14 02:52:00 BASE 3.06 23 3.76 24 -7.5 100 -7.5 0 0 1010.9 NA 0.0000 9999 0 0 0 0
2019/07/14 02:53:00 BASE 2.77 23 3.76 24 -7.5 100 -7.5 0 0 1010.9 NA 0.0000 9999 0 0 0 0
2019/07/14 02:54:00 BASE 2.52 23 3.76 24 -7.5 100 -7.5 0 0 1010.9 NA 0.0000 9999 0 0 0 0
2019/07/14 02:55:00 BASE 2.55 22 3.76 24 -7.4 100 -7.4 0 0 1010.9 NA 0.0000 9999 0 0 0 0
2019/07/14 02:56:00 BASE 2.47 25 3.76 24 -7.4 100 -7.4 0 2 1010.9 NA 0.0000 9999 0 0 0 0
2019/07/14 02:57:00 BASE 2.42 28 3.76 24 -7.4 100 -7.4 0 0 1010.9 NA 0.0000 9999 0 0 0 0
2019/07/14 02:58:00 BASE 2.16 36 3.76 24 -7.4 100 -7.4 0 1 1010.9 NA 0.0000 9999 0 0 0 0
2019/07/14 02:59:00 BASE 2.02 40 3.76 24 -7.4 100 -7.4 0 1 1010.9 NA 0.0000 9999 0 0 0 0
2019/07/14 03:00:00 BASE 2.00 37 3.76 24 -7.4 100 -7.4 0 1 1010.9 NA 0.0000 9999 0 0 0 0
2019/07/14 03:01:00 BASE 1.94 36 3.76 24 -7.4 100 -7.4 0 0 1010.9 NA 0.0000 9999 0 0 0 0
2019/07/14 03:02:00 BASE 1.97 40 3.09 17 -7.4 100 -7.4 0 0 1010.9 NA 0.0000 9999 0 0 0 0
2019/07/14 03:03:00 BASE 2.01 45 3.09 17 -7.3 100 -7.3 0 0 1010.9 NA 0.0000 9999 0 0 0 0
2019/07/14 03:04:00 BASE 2.08 47 3.09 17 -7.3 100 -7.3 0 0 1010.9 NA 0.0000 9999 0 0 0 0
2019/07/14 03:05:00 BASE 2.17 47 2.73 23 -7.3 100 -7.3 0 0 1010.9 NA 0.0000 9999 0 0 0 0
2019/07/14 03:06:00 BASE 2.16 50 2.62 32 -7.3 100 -7.3 0 0 1010.9 NA 0.0000 9999 0 0 0 0
2019/07/14 03:07:00 BASE 2.18 56 2.31 59 -7.3 100 -7.3 0 0 1010.9 NA 0.0000 9999 0 0 0 0
2019/07/14 03:08:00 BASE 2.12 59 2.31 59 -7.3 100 -7.3 0 0 1010.9 NA 0.0000 9999 0 0 0 0
2019/07/14 03:09:00 BASE 2.08 58 2.31 59 -7.3 100 -7.3 0 0 1010.9 NA 0.0000 9999 0 0 0 0
2019/07/14 03:10:00 BASE 2.16 56 2.31 59 -7.3 100 -7.3 0 0 1010.9 NA 0.0000 9999 0 0 0 0
2019/07/14 03:11:00 BASE 2.19 55 2.37 57 -7.3 100 -7.3 0 0 1010.9 NA 0.0000 9999 0 0 0 0
2019/07/14 03:12:00 BASE 2.20 53 2.37 57 -7.3 100 -7.3 0 2 1010.9 NA 0.0000 9999 0 0 0 0
2019/07/14 03:13:00 BASE 2.11 56 2.37 57 -7.3 100 -7.3 0 0 1010.9 NA 0.0000 9999 0 0 0 0
2019/07/14 03:14:00 BASE 2.12 62 2.37 57 -7.3 100 -7.3 0 1 1010.9 NA 0.0000 9999 0 0 0 0
2019/07/14 03:15:00 BASE 2.34 66 2.57 68 -7.3 100 -7.3 0 2 1010.9 NA 0.0000 9999 0 0 0 0
2019/07/14 03:16:00 BASE 2.50 67 2.62 66 -7.3 100 -7.3 0 0 1010.9 NA 0.0000 9999 430 0 0 0
2019/07/14 03:17:00 BASE 2.45 66 2.62 65 -7.3 100 -7.3 0 2 1010.9 NA 0.0000 9999 390 0 0 0
2019/07/14 03:18:00 BASE 2.36 63 2.62 65 -7.3 100 -7.3 0 0 1010.9 NA 0.0000 9999 390 0 0 0
2019/07/14 03:19:00 BASE 2.38 54 2.62 48 -7.3 100 -7.3 0 1 1010.9 NA 0.0000 9999 360 0 0 0
2019/07/14 03:20:00 BASE 2.65 49 3.09 47 -7.3 100 -7.3 0 1 1010.9 NA 0.0000 9999 0 0 0 0
2019/07/14 03:21:00 BASE 2.90 48 3.09 47 -7.4 100 -7.4 0 1 1010.9 NA 0.0000 9999 0 0 0 0
2019/07/14 03:22:00 BASE 2.81 51 3.09 47 -7.4 100 -7.4 0 1 1010.9 NA 0.0000 9999 0 0 0 0
2019/07/14 03:23:00 BASE 2.66 53 3.09 47 -7.4 100 -7.4 0 0 1010.9 NA 0.0000 9999 0 0 0 0
2019/07/14 03:24:00 BASE 2.60 53 3.09 47 -7.5 100 -7.5 0 0 1010.9 NA 0.0000 9999 0 0 0 0
2019/07/14 03:25:00 BASE 2.67 52 3.09 47 -7.5 100 -7.5 0 0 1010.9 NA 0.0000 9999 0 0 0 0
2019/07/14 03:26:00 BASE 2.79 53 3.09 59 -7.5 100 -7.5 0 0 1010.9 NA 0.0000 9999 0 0 0 0
2019/07/14 03:27:00 BASE 2.80 58 3.09 59 -7.5 100 -7.5 0 1 1010.9 NA 0.0000 9999 0 0 0 0
2019/07/14 03:28:00 BASE 2.75 60 3.09 59 -7.5 100 -7.5 0 1 1010.9 NA 0.0000 9999 0 0 0 0
2019/07/14 03:29:00 BASE 2.78 60 3.09 59 -7.5 100 -7.5 0 0 1010.9 NA 0.0000 9999 0 0 0 0
2019/07/14 03:30:00 BASE 2.67 60 3.09 59 -7.5 100 -7.5 0 0 1010.9 NA 0.0000 9999 0 0 0 0
2019/07/14 03:31:00 BASE 2.48 61 3.09 59 -7.5 100 -7.5 0 1 1010.9 NA 0.0000 9999 0 0 0 0
2019/07/14 03:32:00 BASE 2.44 60 3.09 59 -7.4 100 -7.4 0 1 1010.9 NA 0.0000 9999 0 0 0 0
2019/07/14 03:33:00 BASE 2.61 56 3.09 59 -7.4 100 -7.4 0 0 1010.9 NA 0.0000 9999 0 0 0 0
2019/07/14 03:34:00 BASE 2.83 53 3.09 53 -7.4 100 -7.4 0 0 1010.9 NA 0.0000 9999 0 0 0 0
2019/07/14 03:35:00 BASE 2.95 55 3.19 54 -7.3 100 -7.3 0 1 1010.9 NA 0.0000 9999 0 0 0 0
2019/07/14 03:36:00 BASE 2.95 59 3.19 54 -7.3 100 -7.3 0 2 1010.8 NA 0.0000 9999 0 0 0 0
2019/07/14 03:37:00 BASE 2.82 64 3.19 54 -7.3 100 -7.3 0 1 1010.8 NA 0.0000 9999 0 0 0 0
2019/07/14 03:38:00 BASE 2.59 71 3.19 54 -7.3 100 -7.3 0 1 1010.8 NA 0.0000 9999 0 0 0 0
2019/07/14 03:39:00 BASE 2.51 75 3.19 54 -7.2 100 -7.2 0 0 1010.8 NA 0.0000 9999 0 0 0 0
2019/07/14 03:40:00 BASE 2.70 73 3.19 54 -7.2 100 -7.2 0 0 1010.8 NA 0.0000 9999 0 0 0 0
2019/07/14 03:41:00 BASE 2.86 68 3.19 54 -7.2 100 -7.2 0 0 1010.8 NA 0.0000 9999 0 0 0 0
2019/07/14 03:42:00 BASE 2.91 68 3.19 54 -7.2 100 -7.2 0 1 1010.8 NA 0.0000 9999 0 0 0 0
2019/07/14 03:43:00 BASE 2.88 67 3.19 54 -7.2 100 -7.2 0 2 1010.8 NA 0.0000 9999 0 0 0 0
2019/07/14 03:44:00 BASE 2.80 61 3.19 54 -7.2 100 -7.2 0 3 1010.8 NA 0.0000 9999 0 0 0 0
2019/07/14 03:45:00 BASE 2.71 57 3.04 66 -7.2 100 -7.2 0 2 1010.9 NA 0.0000 9999 0 0 0 0
2019/07/14 03:46:00 BASE 2.65 56 3.04 66 -7.2 100 -7.2 0 2 1010.9 NA 0.0000 9999 0 0 0 0
2019/07/14 03:47:00 BASE 2.51 57 3.04 66 -7.2 100 -7.2 0 2 1010.9 NA 0.0000 9999 0 0 0 0
2019/07/14 03:48:00 BASE 2.31 56 3.04 66 -7.2 100 -7.2 0 2 1010.9 NA 0.0000 9999 0 0 0 0
2019/07/14 03:49:00 BASE 2.17 55 3.04 66 -7.2 100 -7.2 0 2 1010.8 NA 0.0000 9999 0 0 0 0
2019/07/14 03:50:00 BASE 2.14 57 3.04 66 -7.3 100 -7.3 0 2 1010.8 NA 0.0000 9999 0 0 0 0
2019/07/14 03:51:00 BASE 2.26 64 2.93 61 -7.3 100 -7.3 0 2 1010.8 NA 0.0000 9999 0 0 0 0
2019/07/14 03:52:00 BASE 2.31 70 2.93 61 -7.3 100 -7.3 0 0 1010.8 NA 0.0000 9999 0 0 0 0
2019/07/14 03:53:00 BASE 2.19 64 2.83 58 -7.3 100 -7.3 0 0 1010.8 NA 0.0000 9999 0 0 0 0
2019/07/14 03:54:00 BASE 2.04 59 2.78 55 -7.3 100 -7.3 0 2 1010.8 NA 0.0000 9999 0 0 0 0
2019/07/14 03:55:00 BASE 1.99 65 2.68 62 -7.3 100 -7.3 0 2 1010.8 NA 0.0000 9999 0 0 0 0
2019/07/14 03:56:00 BASE 1.94 73 2.62 62 -7.2 100 -7.2 0 3 1010.8 NA 0.0000 9999 0 0 0 0
2019/07/14 03:57:00 BASE 1.85 78 2.47 74 -7.2 100 -7.2 0 3 1010.7 NA 0.0000 9999 0 0 0 0
2019/07/14 03:58:00 BASE 1.89 82 2.47 74 -7.1 100 -7.1 0 2 1010.7 NA 0.0000 9999 0 0 0 0
2019/07/14 03:59:00 BASE 2.24 83 2.93 77 -7.0 100 -7.0 0 3 1010.7 NA 0.0000 9999 0 0 0 0
2019/07/14 04:00:00 BASE 2.49 82 2.93 77 -6.9 100 -6.9 0 0 1010.7 NA 0.0000 9999 0 0 0 0
2019/07/14 04:01:00 BASE 2.68 88 3.19 111 -6.8 100 -6.8 0 0 1010.7 NA 0.0000 9999 0 0 0 0
2019/07/14 04:02:00 BASE 2.84 99 3.19 111 -6.8 100 -6.8 0 2 1010.7 NA 0.0000 9999 0 0 0 0
2019/07/14 04:03:00 BASE 2.69 105 3.19 111 -6.8 100 -6.8 0 3 1010.7 NA 0.0000 9999 0 0 0 0
2019/07/14 04:04:00 BASE 2.71 106 3.40 113 -6.8 100 -6.8 0 0 1010.7 NA 0.0000 9999 0 0 0 0
2019/07/14 04:05:00 BASE 2.91 106 3.40 113 -6.8 100 -6.8 0 3 1010.7 NA 0.0000 9999 0 0 0 0
2019/07/14 04:06:00 BASE 2.78 104 3.40 113 -6.9 100 -6.9 0 3 1010.7 NA 0.0000 9999 0 0 0 0
2019/07/14 04:07:00 BASE 2.40 96 3.40 113 -6.9 100 -6.9 0 3 1010.7 NA 0.0000 9999 0 0 0 0
2019/07/14 04:08:00 BASE 2.38 87 3.40 113 -7.0 100 -7.0 0 3 1010.6 NA 0.0000 9999 14110 0 0 0
2019/07/14 04:09:00 BASE 2.47 81 3.40 113 -6.9 100 -6.9 0 2 1010.7 NA 0.0000 9999 14080 0 0 0
2019/07/14 04:10:00 BASE 2.33 70 3.40 113 -6.9 100 -6.9 0 0 1010.7 NA 0.0000 9999 0 0 0 0
2019/07/14 04:11:00 BASE 1.98 59 3.40 113 -6.9 100 -6.9 0 0 1010.7 NA 0.0000 9999 0 0 0 0
2019/07/14 04:12:00 BASE 1.62 53 3.40 113 -6.9 100 -6.9 0 2 1010.7 NA 0.0000 9999 0 0 0 0
2019/07/14 04:13:00 BASE 1.69 52 3.40 113 -6.9 100 -6.9 0 1 1010.7 NA 0.0000 9999 0 0 0 0
2019/07/14 04:14:00 BASE 1.63 54 3.24 104 -6.9 100 -6.9 0 0 1010.7 NA 0.0000 9999 0 0 0 0
2019/07/14 04:15:00 BASE 1.38 61 3.19 94 -6.9 100 -6.9 0 1 1010.6 NA 0.0000 9999 0 0 0 0
2019/07/14 04:16:00 BASE 1.21 71 3.19 94 -6.9 100 -6.9 0 2 1010.6 NA 0.0000 9999 0 0 0 0
2019/07/14 04:17:00 BASE 1.20 73 3.19 94 -6.9 100 -6.9 0 2 1010.6 NA 0.0000 9999 0 0 0 0
2019/07/14 04:18:00 BASE 1.15 70 3.19 94 -6.9 100 -6.9 0 0 1010.6 NA 0.0000 9999 0 0 0 0
2019/07/14 04:19:00 BASE 1.07 66 2.42 61 -6.9 100 -6.9 0 1 1010.6 NA 0.0000 9999 0 0 0 0
2019/07/14 04:20:00 BASE 1.47 62 3.04 66 -6.8 100 -6.8 0 0 1010.6 NA 0.0000 9999 0 0 0 0
2019/07/14 04:21:00 BASE 1.97 64 3.04 66 -6.9 100 -6.9 0 0 1010.7 NA 0.0000 9999 14140 0 0 0
2019/07/14 04:22:00 BASE 1.89 67 3.04 66 -6.9 100 -6.9 0 0 1010.7 NA 0.0000 9999 0 0 0 0
2019/07/14 04:23:00 BASE 1.55 71 3.04 66 -6.8 100 -6.8 0 0 1010.7 NA 0.0000 9999 14110 0 0 0
2019/07/14 04:24:00 BASE 1.42 71 3.04 66 -6.9 100 -6.9 0 0 1010.7 NA 0.0000 9999 14170 0 0 0
2019/07/14 04:25:00 BASE 1.54 78 3.04 66 -6.9 100 -6.9 0 2 1010.7 NA 0.0000 9999 14140 0 0 0
2019/07/14 04:26:00 BASE 0.94 77 3.04 66 -6.9 100 -6.9 0 0 1010.7 NA 0.0000 9999 14140 0 0 0
2019/07/14 04:27:00 BASE 0.68 68 3.04 66 -6.9 100 -6.9 0 0 1010.7 NA 0.0000 9999 0 0 0 0
2019/07/14 04:28:00 BASE 1.19 65 3.04 66 -6.9 100 -6.9 0 0 1010.7 NA 0.0000 9999 0 0 0 0
2019/07/14 04:29:00 BASE 1.01 56 3.04 66 -6.9 100 -6.9 0 0 1010.7 NA 0.0000 9999 0 0 0 0
2019/07/14 04:30:00 BASE 1.22 47 2.42 64 -7.0 100 -7.0 0 0 1010.7 NA 0.0000 9999 0 0 0 0
2019/07/14 04:31:00 BASE 1.70 47 2.06 93 -7.0 100 -7.0 0 0 1010.7 NA 0.0000 9999 0 0 0 0
2019/07/14 04:32:00 BASE 1.89 47 2.52 55 -7.1 100 -7.1 0 2 1010.7 NA 0.0000 9999 0 0 0 0
2019/07/14 04:33:00 BASE 1.80 47 2.52 55 -7.2 100 -7.2 0 0 1010.7 NA 0.0000 9999 13710 0 0 0
2019/07/14 04:34:00 BASE 1.70 52 2.52 55 -7.2 100 -7.2 0 0 1010.7 NA 0.0000 9999 13680 0 0 0
2019/07/14 04:35:00 BASE 1.87 55 2.52 59 -7.2 100 -7.2 0 0 1010.8 NA 0.0000 9999 13680 0 0 0
2019/07/14 04:36:00 BASE 2.06 56 2.73 67 -7.1 100 -7.1 0 3 1010.8 NA 0.0000 9999 13650 0 0 0
2019/07/14 04:37:00 BASE 2.24 58 2.73 67 -7.0 100 -7.0 0 0 1010.8 NA 0.0000 9999 0 0 0 0
2019/07/14 04:38:00 BASE 2.57 58 3.14 60 -7.0 100 -7.0 0 0 1010.7 NA 0.0000 9999 0 0 0 0
2019/07/14 04:39:00 BASE 2.71 57 3.14 60 -7.0 100 -7.0 0 0 1010.7 NA 0.0000 9999 0 0 0 0
2019/07/14 04:40:00 BASE 2.29 53 3.14 60 -7.0 100 -7.0 0 1 1010.8 NA 0.0000 9999 0 0 0 0
2019/07/14 04:41:00 BASE 2.28 51 3.14 60 -7.0 100 -7.0 0 0 1010.8 NA 0.0000 9999 0 0 0 0
2019/07/14 04:42:00 BASE 2.63 55 3.14 60 -7.1 100 -7.1 0 0 1010.8 NA 0.0000 9999 0 0 0 0
2019/07/14 04:43:00 BASE 2.29 56 3.14 60 -7.1 100 -7.1 0 3 1010.8 NA 0.0000 9999 0 0 0 0
2019/07/14 04:44:00 BASE 1.80 44 3.14 60 -7.2 100 -7.2 0 0 1010.8 NA 0.0000 9999 0 0 0 0
2019/07/14 04:45:00 BASE 1.57 31 3.14 60 -7.2 100 -7.2 0 0 1010.8 NA 0.0000 9999 0 0 0 0
2019/07/14 04:46:00 BASE 1.43 29 3.14 60 -7.3 100 -7.3 0 0 1010.8 NA 0.0000 9999 0 0 0 0
2019/07/14 04:47:00 BASE 1.47 32 3.14 60 -7.3 100 -7.3 0 3 1010.8 NA 0.0000 9999 0 0 0 0
2019/07/14 04:48:00 BASE 1.41 36 2.98 51 -7.4 100 -7.4 0 0 1010.8 NA 0.0000 9999 0 0 0 0
2019/07/14 04:49:00 BASE 1.35 37 2.98 51 -7.4 100 -7.4 0 0 1010.8 NA 0.0000 9999 0 0 0 0
2019/07/14 04:50:00 BASE 0.99 35 2.98 51 -7.5 100 -7.5 0 0 1010.8 NA 0.0000 9999 0 0 0 0
2019/07/14 04:51:00 BASE 1.06 27 2.98 51 -7.5 100 -7.5 0 0 1010.7 NA 0.0000 9999 0 0 0 0
2019/07/14 04:52:00 BASE 1.51 19 2.31 60 -7.5 100 -7.5 0 3 1010.7 NA 0.0000 9999 0 0 0 0
2019/07/14 04:53:00 BASE 1.59 17 1.85 16 -7.5 100 -7.5 0 0 1010.7 NA 0.0000 9999 0 0 0 0
2019/07/14 04:54:00 BASE 1.64 17 1.85 16 -7.6 100 -7.6 0 0 1010.7 NA 0.0000 9999 0 0 0 0
2019/07/14 04:55:00 BASE 1.54 16 1.85 16 -7.6 100 -7.6 0 0 1010.7 NA 0.0000 9999 0 0 0 0
2019/07/14 04:56:00 BASE 1.28 14 1.85 16 -7.6 100 -7.6 0 0 1010.7 NA 0.0000 9999 0 0 0 0
2019/07/14 04:57:00 BASE 1.25 22 1.85 16 -7.6 100 -7.6 0 3 1010.7 NA 0.0000 9999 0 0 0 0
2019/07/14 04:58:00 BASE 1.61 27 2.11 19 -7.6 100 -7.6 0 2 1010.7 NA 0.0000 9999 0 0 0 0
2019/07/14 04:59:00 BASE 1.92 22 2.11 19 -7.6 100 -7.6 0 0 1010.7 NA 0.0000 9999 0 0 0 0
2019/07/14 05:00:00 BASE 1.82 20 2.11 19 -7.7 100 -7.7 0 0 1010.6 NA 0.0000 9999 0 0 0 0
2019/07/14 05:01:00 BASE 1.49 18 2.11 19 -7.7 100 -7.7 0 0 1010.6 NA 0.0000 9999 0 0 0 0
2019/07/14 05:02:00 BASE 1.40 14 2.11 19 -7.7 100 -7.7 0 0 1010.6 NA 0.0000 9999 0 0 0 0
2019/07/14 05:03:00 BASE 1.41 11 2.11 19 -7.6 100 -7.6 0 2 1010.6 NA 0.0000 9999 0 0 0 0
2019/07/14 05:04:00 BASE 1.05 8 2.11 19 -7.6 100 -7.6 0 0 1010.6 NA 0.0000 9999 0 0 0 0
2019/07/14 05:05:00 BASE 0.88 15 2.11 19 -7.6 100 -7.6 0 0 1010.6 NA 0.0000 9999 0 0 0 0
2019/07/14 05:06:00 BASE 1.05 25 2.11 19 -7.6 100 -7.6 0 0 1010.6 NA 0.0000 9999 0 0 0 0
2019/07/14 05:07:00 BASE 0.54 21 2.11 19 -7.6 100 -7.6 0 0 1010.6 NA 0.0000 9999 0 0 0 0
2019/07/14 05:08:00 BASE 0.00 8 2.11 19 -7.6 100 -7.6 0 0 1010.6 NA 0.0000 9999 0 0 0 0
2019/07/14 05:09:00 BASE 0.00 359 1.85 19 -7.5 100 -7.5 0 0 1010.6 NA 0.0000 9999 0 0 0 0
2019/07/14 05:10:00 BASE 0.00 352 1.49 11 -7.5 100 -7.5 0 0 1010.5 NA 0.0000 9999 0 0 0 0
2019/07/14 05:11:00 BASE 0.00 347 1.49 11 -7.5 100 -7.5 0 1 1010.4 NA 0.0000 9999 0 0 0 0
2019/07/14 05:12:00 BASE 0.00 347 1.49 11 -7.4 100 -7.4 0 2 1010.4 NA 0.0000 9999 0 0 0 0
2019/07/14 05:13:00 BASE 0.00 349 1.29 29 -7.4 100 -7.4 0 0 1010.5 NA 0.0000 9999 0 0 0 0
2019/07/14 05:14:00 BASE 0.00 1 1.29 29 -7.4 100 -7.4 0 0 1010.6 NA 0.0000 9999 0 0 0 0
2019/07/14 05:15:00 BASE 0.00 25 1.29 29 -7.3 100 -7.3 0 0 1010.6 NA 0.0000 9999 0 0 0 0
2019/07/14 05:16:00 BASE 0.44 53 1.85 83 -7.3 100 -7.3 0 1 1010.6 NA 0.0000 9999 0 0 0 0
2019/07/14 05:17:00 BASE 1.71 73 3.24 77 -7.3 100 -7.3 0 0 1010.6 NA 0.0000 9999 0 0 0 0
2019/07/14 05:18:00 BASE 2.59 74 3.24 77 -7.3 100 -7.3 0 0 1010.6 NA 0.0000 9999 0 0 0 0
2019/07/14 05:19:00 BASE 2.29 69 3.24 77 -7.3 100 -7.3 0 0 1010.6 NA 0.0000 9999 0 0 0 0
2019/07/14 05:20:00 BASE 1.74 72 3.24 77 -7.4 100 -7.4 0 0 1010.6 NA 0.0000 9999 0 0 0 0
2019/07/14 05:21:00 BASE 1.62 76 3.24 77 -7.4 100 -7.4 0 0 1010.6 NA 0.0000 9999 0 0 0 0
2019/07/14 05:22:00 BASE 1.61 78 3.24 77 -7.3 100 -7.3 0 0 1010.6 NA 0.0000 9999 0 0 0 0
2019/07/14 05:23:00 BASE 1.46 80 3.24 77 -7.3 100 -7.3 0 3 1010.6 NA 0.0000 9999 0 0 0 0
2019/07/14 05:24:00 BASE 1.49 77 3.24 77 -7.3 100 -7.3 0 0 1010.6 NA 0.0000 9999 0 0 0 0
2019/07/14 05:25:00 BASE 1.26 84 3.24 77 -7.3 100 -7.3 0 0 1010.6 NA 0.0000 9999 0 0 0 0
2019/07/14 05:26:00 BASE 0.51 104 3.24 77 -7.3 100 -7.3 0 0 1010.6 NA 0.0000 9999 0 0 0 0
2019/07/14 05:27:00 BASE 0.04 110 3.04 70 -7.2 100 -7.2 0 2 1010.6 NA 0.0000 9999 0 0 0 0
2019/07/14 05:28:00 BASE 0.00 118 2.42 69 -7.2 100 -7.2 0 2 1010.6 NA 0.0000 9999 0 0 0 0
2019/07/14 05:29:00 BASE 0.00 127 2.01 77 -7.1 100 -7.1 0 0 1010.6 NA 0.0000 9999 0 0 0 0
2019/07/14 05:30:00 BASE 0.00 128 2.01 77 -7.0 100 -7.0 0 1 1010.6 NA 0.0000 9999 0 0 0 0
2019/07/14 05:31:00 BASE 0.00 128 2.01 77 -7.0 100 -7.0 0 0 1010.6 NA 0.0000 9999 0 0 0 0
2019/07/14 05:32:00 BASE 0.00 128 1.80 70 -6.9 100 -6.9 0 0 1010.6 NA 0.0000 9999 0 0 0 0
2019/07/14 05:33:00 BASE 0.00 122 1.80 70 -6.9 100 -6.9 0 0 1010.6 NA 0.0000 9999 0 0 0 0
2019/07/14 05:34:00 BASE 0.05 97 1.44 94 -6.9 100 -6.9 0 0 1010.6 NA 0.0000 9999 0 0 0 0
2019/07/14 05:35:00 BASE 0.85 68 1.75 54 -7.0 100 -7.0 0 0 1010.6 NA 0.0000 9999 0 0 0 0
2019/07/14 05:36:00 BASE 1.77 62 2.52 75 -7.0 100 -7.0 0 2 1010.6 NA 0.0000 9999 0 0 0 0
2019/07/14 05:37:00 BASE 1.92 65 2.52 75 -7.1 100 -7.1 0 0 1010.7 NA 0.0000 9999 0 0 0 0
2019/07/14 05:38:00 BASE 1.86 71 2.52 75 -7.1 100 -7.1 0 0 1010.6 NA 0.0000 9999 0 0 0 0
2019/07/14 05:39:00 BASE 1.95 81 2.68 77 -7.2 100 -7.2 0 0 1010.6 NA 0.0000 9999 0 0 0 0
2019/07/14 05:40:00 BASE 1.43 77 2.68 77 -7.2 100 -7.2 0 0 1010.6 NA 0.0000 9999 0 0 0 0
2019/07/14 05:41:00 BASE 0.38 66 2.68 77 -7.2 100 -7.2 0 0 1010.6 NA 0.0000 9999 0 0 0 0
2019/07/14 05:42:00 BASE 0.47 64 2.68 77 -7.2 100 -7.2 0 1 1010.6 NA 0.0000 9999 0 0 0 0
2019/07/14 05:43:00 BASE 1.40 66 2.68 77 -7.2 100 -7.2 0 2 1010.7 NA 0.0000 9999 0 0 0 0
2019/07/14 05:44:00 BASE 2.01 75 2.68 89 -7.2 100 -7.2 0 2 1010.7 NA 0.0000 9999 0 0 0 0
2019/07/14 05:45:00 BASE 2.19 90 2.68 89 -7.2 100 -7.2 0 0 1010.7 NA 0.0000 9999 0 0 0 0
2019/07/14 05:46:00 BASE 2.05 103 2.68 89 -7.3 100 -7.3 0 0 1010.7 NA 0.0000 9999 0 0 0 0
2019/07/14 05:47:00 BASE 1.24 106 2.68 89 -7.4 100 -7.4 0 0 1010.7 NA 0.0000 9999 0 0 0 0
2019/07/14 05:48:00 BASE 0.34 93 2.68 89 -7.5 100 -7.5 0 0 1010.7 NA 0.0000 9999 0 0 0 0
2019/07/14 05:49:00 BASE 0.04 79 2.68 89 -7.5 100 -7.5 0 1 1010.7 NA 0.0000 9999 0 0 0 0
2019/07/14 05:50:00 BASE 0.00 76 2.68 89 -7.5 100 -7.5 0 1 1010.7 NA 0.0000 9999 0 0 0 0
2019/07/14 05:51:00 BASE 0.00 75 2.68 89 -7.4 100 -7.4 0 0 1010.6 NA 0.0000 9999 0 0 0 0
2019/07/14 05:52:00 BASE 0.00 79 2.68 89 -7.3 100 -7.3 0 0 1010.6 NA 0.0000 9999 0 0 0 0
2019/07/14 05:53:00 BASE 0.00 121 2.68 89 -7.2 100 -7.2 0 0 1010.6 NA 0.0000 9999 0 0 0 0
2019/07/14 05:54:00 BASE 0.00 156 2.52 89 -7.1 100 -7.1 0 3 1010.6 NA 0.0000 9999 0 0 0 0
2019/07/14 05:55:00 BASE 0.05 135 2.31 99 -7.1 100 -7.1 0 0 1010.7 NA 0.0000 9999 0 0 0 0
2019/07/14 05:56:00 BASE 0.96 102 2.31 81 -7.1 100 -7.1 0 3 1010.7 NA 0.0000 9999 0 0 0 0
2019/07/14 05:57:00 BASE 2.10 89 2.78 83 -7.1 100 -7.2 0 0 1010.7 NA 0.0000 9999 0 0 0 0
2019/07/14 05:58:00 BASE 2.72 89 3.45 108 -7.2 100 -7.2 0 0 1010.6 NA 0.0000 9999 0 0 0 0
2019/07/14 05:59:00 BASE 3.22 97 3.65 106 -7.2 100 -7.3 0 0 1010.6 NA 0.0000 9999 0 0 0 0
2019/07/14 06:00:00 BASE 3.12 95 3.65 106 -7.2 100 -7.3 0 0 1010.6 NA 0.0000 9999 0 0 0 0
2019/07/14 06:01:00 BASE 2.87 87 3.65 106 -7.3 100 -7.3 0 3 1010.6 NA 0.0000 9999 0 0 0 0
2019/07/14 06:02:00 BASE 2.81 87 3.65 106 -7.3 100 -7.4 0 2 1010.6 NA 0.0000 9999 0 0 0 0
2019/07/14 06:03:00 BASE 2.72 84 3.65 106 -7.3 100 -7.3 0 0 1010.6 NA 0.0000 9999 0 0 0 0
2019/07/14 06:04:00 BASE 2.46 80 3.65 106 -7.4 100 -7.4 0 0 1010.5 NA 0.0000 9999 0 0 0 0
2019/07/14 06:05:00 BASE 2.36 83 3.65 106 -7.4 100 -7.4 0 0 1010.6 NA 0.0000 9999 0 0 0 0
2019/07/14 06:06:00 BASE 2.40 87 3.65 106 -7.4 100 -7.4 0 0 1010.6 NA 0.0000 9999 0 0 0 0
2019/07/14 06:07:00 BASE 2.13 83 3.65 106 -7.4 100 -7.4 0 0 1010.6 NA 0.0000 9999 0 0 0 0
2019/07/14 06:08:00 BASE 1.80 79 3.65 106 -7.3 100 -7.3 0 0 1010.6 NA 0.0000 9999 0 0 0 0
2019/07/14 06:09:00 BASE 1.67 77 3.09 86 -7.3 100 -7.3 0 1 1010.6 NA 0.0000 9999 0 0 0 0
2019/07/14 06:10:00 BASE 1.82 71 3.09 86 -7.3 100 -7.3 0 3 1010.6 NA 0.0000 9999 0 0 0 0
2019/07/14 06:11:00 BASE 1.89 65 3.04 79 -7.3 100 -7.3 0 0 1010.5 NA 0.0000 9999 0 0 0 0
2019/07/14 06:12:00 BASE 1.73 68 3.04 79 -7.3 100 -7.3 0 0 1010.4 NA 0.0000 9999 0 0 0 0
2019/07/14 06:13:00 BASE 1.59 68 2.88 81 -7.3 100 -7.3 0 0 1010.4 NA 0.0000 9999 0 0 0 0
2019/07/14 06:14:00 BASE 1.73 72 2.78 89 -7.3 100 -7.3 0 0 1010.4 NA 0.0000 9999 0 0 0 0
2019/07/14 06:15:00 BASE 1.97 75 2.57 82 -7.3 100 -7.3 0 3 1010.4 NA 0.0000 9999 0 0 0 0
2019/07/14 06:16:00 BASE 2.00 67 2.21 84 -7.3 100 -7.3 0 2 1010.4 NA 0.0000 9999 0 0 0 0
2019/07/14 06:17:00 BASE 1.88 61 2.16 83 -7.3 100 -7.3 0 2 1010.4 NA 0.0000 9999 0 0 0 0
2019/07/14 06:18:00 BASE 1.65 63 2.16 83 -7.2 100 -7.2 0 0 1010.4 NA 0.0000 9999 0 0 0 0
2019/07/14 06:19:00 BASE 1.62 81 2.16 83 -7.2 100 -7.2 0 0 1010.4 NA 0.0000 9999 0 0 0 0
2019/07/14 06:20:00 BASE 1.90 100 2.21 106 -7.2 100 -7.2 0 0 1010.3 NA 0.0000 9999 0 0 0 0
2019/07/14 06:21:00 BASE 2.05 100 2.21 106 -7.2 100 -7.2 0 0 1010.3 NA 0.0000 9999 0 0 0 0
2019/07/14 06:22:00 BASE 2.00 93 2.21 106 -7.1 100 -7.1 0 0 1010.3 NA 0.0000 9999 0 0 0 0
2019/07/14 06:23:00 BASE 1.95 95 2.21 106 -7.1 100 -7.1 0 0 1010.3 NA 0.0000 9999 0 0 0 0
2019/07/14 06:24:00 BASE 2.05 99 2.52 93 -7.1 100 -7.1 0 0 1010.3 NA 0.0000 9999 0 0 0 0
2019/07/14 06:25:00 BASE 2.39 96 3.09 90 -7.0 100 -7.0 0 0 1010.3 NA 0.0000 9999 0 0 0 0
2019/07/14 06:26:00 BASE 2.96 91 3.76 89 -6.9 100 -6.9 0 0 1010.3 NA 0.0000 9999 0 0 0 0
2019/07/14 06:27:00 BASE 3.22 90 3.76 89 -6.9 100 -6.9 0 1 1010.4 NA 0.0000 9999 0 0 0 0
2019/07/14 06:28:00 BASE 3.04 88 3.76 89 -6.8 100 -6.8 0 0 1010.4 NA 0.0000 9999 0 0 0 0
2019/07/14 06:29:00 BASE 2.91 87 3.76 89 -6.8 100 -6.8 0 0 1010.4 NA 0.0000 9999 0 0 0 0
2019/07/14 06:30:00 BASE 2.61 84 3.76 89 -6.7 100 -6.7 0 0 1010.4 NA 0.0000 9999 0 0 0 0
2019/07/14 06:31:00 BASE 2.44 84 3.76 89 -6.7 100 -6.7 0 0 1010.4 NA 0.0000 9999 0 0 0 0
2019/07/14 06:32:00 BASE 2.39 92 3.76 89 -6.6 100 -6.6 0 0 1010.4 NA 0.0000 9999 0 0 0 0
2019/07/14 06:33:00 BASE 2.60 90 3.76 89 -6.7 100 -6.7 0 0 1010.4 NA 0.0000 9999 0 0 0 0
2019/07/14 06:34:00 BASE 2.67 91 3.76 89 -6.7 100 -6.7 0 0 1010.4 NA 0.0000 9999 0 0 0 0
2019/07/14 06:35:00 BASE 2.05 90 3.76 89 -6.8 100 -6.8 0 0 1010.3 NA 0.0000 9999 0 0 0 0
2019/07/14 06:36:00 BASE 1.75 88 3.65 93 -6.9 100 -6.9 0 0 1010.3 NA 0.0000 9999 0 0 0 0
2019/07/14 06:37:00 BASE 1.90 107 3.65 93 -6.9 100 -6.9 0 0 1010.3 NA 0.0000 9999 0 0 0 0
2019/07/14 06:38:00 BASE 1.66 110 3.60 83 -6.8 100 -6.8 0 0 1010.3 NA 0.0000 9999 0 0 0 0
2019/07/14 06:39:00 BASE 1.61 107 3.60 83 -6.7 100 -6.7 0 0 1010.3 NA 0.0000 9999 0 0 0 0
2019/07/14 06:40:00 BASE 1.95 103 3.60 83 -6.7 100 -6.7 0 0 1010.3 NA 0.0000 9999 0 0 0 0
2019/07/14 06:41:00 BASE 1.79 95 3.14 88 -6.7 100 -6.7 0 1 1010.3 NA 0.0000 9999 0 0 0 0
2019/07/14 06:42:00 BASE 1.97 107 3.45 135 -6.7 100 -6.7 0 1 1010.3 NA 0.0000 9999 0 0 0 0
2019/07/14 06:43:00 BASE 3.14 119 5.09 119 -6.9 100 -6.9 0 0 1010.3 NA 0.0000 9999 0 0 0 0
2019/07/14 06:44:00 BASE 4.14 122 5.09 119 -7.0 100 -7.0 0 0 1010.3 NA 0.0000 9999 0 0 0 0
2019/07/14 06:45:00 BASE 4.35 129 5.09 119 -7.2 100 -7.2 0 0 1010.3 NA 0.0000 9999 0 0 0 0
2019/07/14 06:46:00 BASE 4.41 136 5.09 119 -7.3 100 -7.3 0 1 1010.3 NA 0.0000 9999 0 0 0 0
2019/07/14 06:47:00 BASE 4.22 135 5.09 119 -7.4 100 -7.4 0 0 1010.3 NA 0.0000 9999 0 0 0 0
2019/07/14 06:48:00 BASE 3.78 123 5.09 119 -7.3 100 -7.3 0 0 1010.3 NA 0.0000 9999 0 0 0 0
2019/07/14 06:49:00 BASE 3.86 114 5.09 119 -7.3 100 -7.3 0 2 1010.3 NA 0.0000 9999 0 0 0 0
2019/07/14 06:50:00 BASE 4.40 114 5.09 119 -7.3 100 -7.3 0 3 1010.3 NA 0.0000 9999 0 0 0 0
2019/07/14 06:51:00 BASE 4.65 113 5.09 119 -7.4 100 -7.4 0 0 1010.3 NA 0.0000 9999 0 0 0 0
2019/07/14 06:52:00 BASE 4.35 111 5.09 119 -7.4 100 -7.4 0 0 1010.3 NA 0.0000 9999 0 0 0 0
2019/07/14 06:53:00 BASE 4.10 103 5.25 90 -7.4 100 -7.4 0 0 1010.3 NA 0.0000 9999 0 0 0 0
2019/07/14 06:54:00 BASE 3.79 100 5.25 90 -7.3 100 -7.3 0 0 1010.3 NA 0.0000 9999 0 0 0 0
2019/07/14 06:55:00 BASE 3.76 97 5.25 90 -7.2 100 -7.2 0 2 1010.3 NA 0.0000 9999 0 0 0 0
2019/07/14 06:56:00 BASE 3.50 83 5.25 90 -7.1 100 -7.1 0 3 1010.3 NA 0.0000 9999 0 0 0 0
2019/07/14 06:57:00 BASE 2.61 77 5.25 90 -7.0 100 -7.0 0 3 1010.3 NA 0.0000 9999 0 0 0 0
2019/07/14 06:58:00 BASE 2.22 86 5.25 90 -6.9 100 -6.9 0 3 1010.3 NA 0.0000 9999 0 0 0 0
2019/07/14 06:59:00 BASE 1.66 88 5.25 90 -7.0 100 -7.0 0 0 1010.3 NA 0.0000 9999 0 0 0 0
2019/07/14 07:00:00 BASE 1.24 60 5.25 90 -7.0 100 -7.0 0 3 1010.3 NA 0.0000 9999 0 0 0 0
2019/07/14 07:01:00 BASE 1.77 58 5.25 90 -7.0 100 -7.0 0 2 1010.3 NA 0.0000 9999 0 0 0 0
2019/07/14 07:02:00 BASE 2.39 86 5.25 90 -7.0 100 -7.0 0 0 1010.3 NA 0.0000 9999 0 0 0 0
2019/07/14 07:03:00 BASE 2.01 90 4.68 74 -7.0 100 -7.0 0 3 1010.3 NA 0.0000 9999 0 0 0 0
2019/07/14 07:04:00 BASE 1.22 69 4.68 74 -7.1 100 -7.1 0 3 1010.3 NA 0.0000 9999 0 0 0 0
2019/07/14 07:05:00 BASE 0.67 60 3.76 101 -7.1 100 -7.1 0 3 1010.2 NA 0.0000 9999 0 0 0 0
2019/07/14 07:06:00 BASE 0.41 17 3.45 121 -7.0 100 -7.0 0 3 1010.2 NA 0.0000 9999 0 0 0 0
2019/07/14 07:07:00 BASE 0.81 35 3.45 121 -7.1 100 -7.1 0 0 1010.2 NA 0.0000 9999 0 0 0 0
2019/07/14 07:08:00 BASE 0.83 80 3.45 121 -7.1 100 -7.1 0 3 1010.2 NA 0.0000 9999 0 0 0 0
2019/07/14 07:09:00 BASE 0.56 55 3.45 121 -7.1 100 -7.1 0 2 1010.2 NA 0.0000 9999 0 0 0 0
2019/07/14 07:10:00 BASE 1.41 6 3.45 121 -7.1 100 -7.1 0 0 1010.2 NA 0.0000 9999 0 0 0 0
2019/07/14 07:11:00 BASE 2.10 357 3.45 121 -7.2 100 -7.2 0 0 1010.2 NA 0.0000 9999 0 0 0 0
2019/07/14 07:12:00 BASE 1.93 357 2.68 87 -7.3 100 -7.3 0 0 1010.2 NA 0.0000 9999 0 0 0 0
2019/07/14 07:13:00 BASE 1.89 357 2.42 1 -7.3 100 -7.3 0 1 1010.1 NA 0.0000 9999 0 0 0 0
2019/07/14 07:14:00 BASE 2.09 359 2.62 25 -7.3 100 -7.3 0 1 1010.1 NA 0.0000 9999 0 0 0 0
2019/07/14 07:15:00 BASE 2.65 21 3.70 26 -7.4 100 -7.4 0 1 1010.1 NA 0.0000 9999 0 0 0 0
2019/07/14 07:16:00 BASE 2.52 32 3.70 26 -7.5 100 -7.5 0 1 1010.1 NA 0.0000 9999 0 0 0 0
2019/07/14 07:17:00 BASE 1.57 28 3.70 26 -7.5 100 -7.5 0 2 1010.1 NA 0.0000 9999 0 0 0 0
2019/07/14 07:18:00 BASE 0.59 2 3.70 26 -7.5 100 -7.5 0 2 1010.2 NA 0.0000 9999 0 0 0 0
2019/07/14 07:19:00 BASE 0.00 359 3.70 26 -7.5 100 -7.5 0 2 1010.1 NA 0.0000 9999 0 0 0 0
2019/07/14 07:20:00 BASE 0.00 65 3.70 26 -7.4 100 -7.4 0 1 1010.1 NA 0.0000 9999 0 0 0 0
2019/07/14 07:21:00 BASE 0.05 135 3.70 26 -7.3 100 -7.3 0 0 1010.1 NA 0.0000 9999 0 0 0 0
2019/07/14 07:22:00 BASE 1.71 154 4.78 119 -7.2 100 -7.2 0 0 1010.2 NA 0.0000 9999 0 0 0 0
2019/07/14 07:23:00 BASE 4.72 127 7.92 125 -7.3 100 -7.3 0 0 1010.2 NA 0.0000 9999 0 0 0 0
2019/07/14 07:24:00 BASE 6.39 123 7.92 125 -7.3 100 -7.3 0 0 1010.1 NA 0.0000 9999 0 0 0 0
2019/07/14 07:25:00 BASE 6.55 127 7.92 125 -7.3 100 -7.3 0 0 1010.1 NA 0.0000 9999 0 0 0 0
2019/07/14 07:26:00 BASE 6.64 128 7.92 125 -7.3 100 -7.3 0 1 1010.1 NA 0.0000 9999 0 0 0 0
2019/07/14 07:27:00 BASE 6.70 128 7.92 125 -7.2 100 -7.2 0 1 1010.1 NA 0.0000 9999 0 0 0 0
2019/07/14 07:28:00 BASE 6.44 130 7.92 125 -7.1 100 -7.1 0 0 1010.1 NA 0.0000 9999 0 0 0 0
2019/07/14 07:29:00 BASE 6.93 131 8.39 131 -7.1 100 -7.1 0 1 1010.1 NA 0.0000 9999 0 0 0 0
2019/07/14 07:30:00 BASE 7.70 131 8.39 131 -7.1 100 -7.1 0 2 1010.1 NA 0.0000 9999 0 0 0 0
2019/07/14 07:31:00 BASE 7.64 131 8.39 131 -7.2 100 -7.2 0 0 1010.1 NA 0.0000 9999 0 0 0 0
2019/07/14 07:32:00 BASE 7.38 132 8.39 131 -7.3 100 -7.3 0 1 1010.1 NA 0.0000 9999 0 0 0 0
2019/07/14 07:33:00 BASE 6.90 133 8.39 131 -7.3 100 -7.3 0 1 1010.1 NA 0.0000 9999 0 0 0 0
2019/07/14 07:34:00 BASE 6.43 133 8.39 131 -7.4 100 -7.4 0 2 1010.1 NA 0.0000 9999 0 0 0 0
2019/07/14 07:35:00 BASE 6.15 131 8.39 131 -7.5 100 -7.5 0 0 1010.1 NA 0.0000 9999 0 0 0 0
2019/07/14 07:36:00 BASE 6.15 128 8.39 131 -7.5 100 -7.5 0 2 1010.1 NA 0.0000 9999 0 0 0 0
2019/07/14 07:37:00 BASE 6.38 130 8.39 131 -7.6 100 -7.6 0 2 1010.1 NA 0.0000 9999 0 0 0 0
2019/07/14 07:38:00 BASE 6.92 135 8.39 131 -7.7 100 -7.7 0 3 1010.1 NA 0.0000 9999 0 0 0 0
2019/07/14 07:39:00 BASE 7.16 132 8.28 133 -7.8 100 -7.8 0 0 1010.1 NA 0.0000 9999 0 0 0 0
2019/07/14 07:40:00 BASE 6.74 129 7.97 135 -8.0 100 -8.0 0 2 1010.0 NA 0.0000 9999 0 0 0 0
2019/07/14 07:41:00 BASE 6.50 133 7.97 135 -8.0 100 -8.0 0 3 1010.0 NA 0.0000 9999 0 0 0 0
2019/07/14 07:42:00 BASE 5.42 134 7.97 135 -8.1 100 -8.1 0 3 1010.0 NA 0.0000 9999 0 0 0 0
2019/07/14 07:43:00 BASE 4.87 130 7.97 135 -8.1 100 -8.1 0 3 1010.0 NA 0.0000 9999 0 0 0 0
2019/07/14 07:44:00 BASE 5.56 127 7.97 135 -8.1 100 -8.1 0 3 1010.0 NA 0.0000 9999 0 0 0 0
2019/07/14 07:45:00 BASE 6.03 124 7.97 135 -7.9 100 -7.9 0 3 1010.0 NA 0.0000 9999 0 0 0 0
2019/07/14 07:46:00 BASE 6.03 121 7.97 135 -7.8 100 -7.8 0 0 1009.9 NA 0.0000 9999 0 0 0 0
2019/07/14 07:47:00 BASE 5.30 114 7.97 135 -7.7 100 -7.7 0 0 1010.0 NA 0.0000 9999 0 0 0 0
2019/07/14 07:48:00 BASE 4.77 113 7.92 134 -7.5 100 -7.5 0 0 1009.9 NA 0.0000 9999 0 0 0 0
2019/07/14 07:49:00 BASE 4.47 122 7.31 127 -7.4 100 -7.4 0 0 1009.8 NA 0.0000 9999 0 0 0 0
2019/07/14 07:50:00 BASE 5.40 122 7.51 114 -7.3 100 -7.3 0 0 1009.8 NA 0.0000 9999 0 0 0 0
2019/07/14 07:51:00 BASE 6.48 122 7.61 125 -7.2 100 -7.2 0 0 1009.8 NA 0.0000 9999 0 0 0 0
2019/07/14 07:52:00 BASE 7.06 130 8.64 138 -7.2 100 -7.2 0 0 1009.8 NA 0.0000 9999 0 0 0 0
2019/07/14 07:53:00 BASE 7.30 130 8.64 138 -7.2 100 -7.2 0 0 1009.8 NA 0.0000 9999 0 0 0 0
2019/07/14 07:54:00 BASE 6.75 127 8.64 138 -7.3 100 -7.3 0 1 1009.8 NA 0.0000 9999 0 0 0 0
2019/07/14 07:55:00 BASE 6.83 129 8.64 132 -7.3 100 -7.3 0 1 1009.7 NA 0.0000 9999 0 0 0 0
2019/07/14 07:56:00 BASE 7.93 126 9.62 122 -7.3 100 -7.3 0 0 1009.7 NA 0.0000 9999 0 0 0 0
2019/07/14 07:57:00 BASE 8.73 121 9.62 122 -7.2 100 -7.2 0 0 1009.7 NA 0.0000 9999 0 0 0 0
2019/07/14 07:58:00 BASE 8.48 118 9.62 122 -7.2 100 -7.2 0 0 1009.7 NA 0.0000 9999 0 0 0 0
2019/07/14 07:59:00 BASE 7.83 116 9.62 122 -7.2 100 -7.2 0 0 1009.7 NA 0.0000 9999 0 0 0 0
2019/07/14 08:00:00 BASE 7.63 116 9.62 122 -7.2 100 -7.2 0 0 1009.7 NA 0.0000 9999 0 0 0 0
2019/07/14 08:01:00 BASE 8.04 115 9.62 122 -7.2 100 -7.2 0 0 1009.7 NA 0.0000 9999 0 0 0 0
2019/07/14 08:02:00 BASE 8.68 113 9.98 114 -7.2 100 -7.2 0 0 1009.7 NA 0.0000 9999 0 0 0 0
2019/07/14 08:03:00 BASE 8.87 115 9.98 114 -7.2 100 -7.2 0 0 1009.7 NA 0.0000 9999 0 0 0 0
2019/07/14 08:04:00 BASE 8.48 116 9.98 114 -7.2 100 -7.2 0 2 1009.7 NA 0.0000 9999 0 0 0 0
2019/07/14 08:05:00 BASE 8.39 118 9.98 114 -7.1 100 -7.1 0 2 1009.7 NA 0.0000 9999 0 0 0 0
2019/07/14 08:06:00 BASE 8.04 118 9.98 114 -7.1 100 -7.1 0 3 1009.7 NA 0.0000 9999 0 0 0 0
2019/07/14 08:07:00 BASE 8.07 117 9.98 114 -7.0 100 -7.0 0 3 1009.7 NA 0.0000 9999 0 0 0 0
2019/07/14 08:08:00 BASE 8.22 117 9.98 114 -7.0 100 -7.0 0 0 1009.7 NA 0.0000 9999 0 0 0 0
2019/07/14 08:09:00 BASE 7.90 117 9.98 114 -7.0 100 -7.0 0 2 1009.7 NA 0.0000 9999 0 0 0 0
2019/07/14 08:10:00 BASE 7.27 119 9.98 114 -7.0 100 -7.0 0 2 1009.7 NA 0.0000 9999 0 0 0 0
2019/07/14 08:11:00 BASE 7.35 121 9.98 114 -6.9 100 -6.9 0 3 1009.7 NA 0.0000 9999 0 0 0 0
2019/07/14 08:12:00 BASE 7.92 125 9.21 120 -6.9 100 -6.9 0 0 1009.7 NA 0.0000 9999 0 0 0 0
2019/07/14 08:13:00 BASE 7.32 126 9.21 120 -6.9 100 -6.9 0 0 1009.7 NA 0.0000 9999 0 0 0 0
2019/07/14 08:14:00 BASE 6.98 126 9.21 120 -6.8 100 -6.8 0 2 1009.7 NA 0.0000 9999 0 0 0 0
2019/07/14 08:15:00 BASE 7.46 124 9.21 120 -6.8 100 -6.8 0 0 1009.7 NA 0.0000 9999 7610 0 0 0
2019/07/14 08:16:00 BASE 7.31 125 9.21 120 -6.8 100 -6.8 0 0 1009.7 NA 0.0000 9999 0 0 0 0
2019/07/14 08:17:00 BASE 7.11 125 9.11 124 -6.7 100 -6.7 0 2 1009.7 NA 0.0000 9999 0 0 0 0
2019/07/14 08:18:00 BASE 7.03 122 9.11 124 -6.7 100 -6.7 0 3 1009.7 NA 0.0000 9999 0 0 0 0
2019/07/14 08:19:00 BASE 7.20 115 9.11 124 -6.7 100 -6.7 0 3 1009.7 NA 0.0000 9999 21980 0 0 0
2019/07/14 08:20:00 BASE 7.89 113 9.11 124 -6.6 100 -6.6 0 3 1009.7 NA 0.0000 9999 0 0 0 0
2019/07/14 08:21:00 BASE 7.82 112 9.11 124 -6.6 100 -6.6 0 3 1009.7 NA 0.0000 9999 0 0 0 0
2019/07/14 08:22:00 BASE 7.28 111 8.44 113 -6.6 100 -6.6 0 3 1009.7 NA 0.0000 9999 0 0 0 0
2019/07/14 08:23:00 BASE 7.06 110 8.44 113 -6.7 99 -6.7 0 0 1009.7 NA 0.0000 9999 0 0 0 0
2019/07/14 08:24:00 BASE 7.23 110 8.44 113 -6.8 99 -7.0 0 3 1009.7 NA 0.0000 9999 0 0 0 0
2019/07/14 08:25:00 BASE 7.62 110 8.44 113 -6.9 98 -7.2 0 3 1009.7 NA 0.0000 9999 0 0 0 0
2019/07/14 08:26:00 BASE 7.89 106 8.44 113 -7.1 98 -7.4 0 0 1009.7 NA 0.0000 9999 7640 0 0 0
2019/07/14 08:27:00 BASE 7.72 102 8.44 113 -7.2 97 -7.6 0 3 1009.7 NA 0.0000 9999 7580 0 0 0
2019/07/14 08:28:00 BASE 7.04 102 8.44 113 -7.2 97 -7.6 0 3 1009.7 NA 0.0000 9999 7640 0 0 0
2019/07/14 08:29:00 BASE 5.89 99 8.44 113 -7.1 97 -7.5 0 2 1009.7 NA 0.0000 9999 7580 0 0 0
2019/07/14 08:30:00 BASE 4.98 94 8.39 103 -7.1 97 -7.5 0 2 1009.7 NA 0.0000 9999 0 0 0 0
2019/07/14 08:31:00 BASE 4.95 92 8.39 103 -7.0 96 -7.5 0 0 1009.7 NA 0.0000 9999 0 0 0 0
2019/07/14 08:32:00 BASE 5.41 96 8.39 103 -7.0 96 -7.5 0 3 1009.7 NA 0.0000 9999 0 0 0 0
2019/07/14 08:33:00 BASE 5.73 100 8.39 103 -7.1 96 -7.6 0 3 1009.7 NA 0.0000 9999 0 0 0 0
2019/07/14 08:34:00 BASE 5.57 92 8.39 103 -7.2 96 -7.7 0 0 1009.7 NA 0.0000 9999 0 0 0 0
2019/07/14 08:35:00 BASE 4.96 87 8.39 103 -7.3 96 -7.8 0 3 1009.7 NA 0.0000 9999 0 0 0 0
2019/07/14 08:36:00 BASE 4.32 90 7.92 102 -7.4 96 -8.0 0 3 1009.7 NA 0.0000 9999 0 0 0 0
2019/07/14 08:37:00 BASE 4.41 88 7.25 99 -7.5 96 -8.1 0 3 1009.7 NA 0.0000 9999 0 0 0 0
2019/07/14 08:38:00 BASE 4.40 89 6.17 97 -7.4 96 -7.9 0 3 1009.7 NA 0.0000 9999 0 0 0 0
2019/07/14 08:39:00 BASE 4.39 97 6.17 97 -7.3 97 -7.8 0 2 1009.6 NA 0.0000 9999 0 0 0 0
2019/07/14 08:40:00 BASE 2.90 120 6.17 97 -7.2 97 -7.7 0 3 1009.6 NA 0.0000 9999 0 0 0 0
2019/07/14 08:41:00 BASE 0.60 172 6.17 97 -7.1 97 -7.5 0 3 1009.6 NA 0.0000 9999 0 0 0 0
2019/07/14 08:42:00 BASE 0.29 241 6.17 97 -7.1 98 -7.4 0 0 1009.6 NA 0.0000 9999 0 0 0 0
2019/07/14 08:43:00 BASE 0.25 275 6.17 97 -7.1 98 -7.4 0 3 1009.6 NA 0.0000 9999 0 0 0 0
2019/07/14 08:44:00 BASE 0.28 339 5.14 109 -7.1 98 -7.4 0 3 1009.6 NA 0.0000 9999 0 0 0 0
2019/07/14 08:45:00 BASE 0.56 49 5.14 109 -6.9 98 -7.2 0 0 1009.6 NA 0.0000 9999 0 0 0 0
2019/07/14 08:46:00 BASE 1.22 136 5.14 109 -6.7 98 -6.9 0 2 1009.6 NA 0.0000 9999 0 0 0 0
2019/07/14 08:47:00 BASE 1.12 192 5.14 109 -6.4 99 -6.6 0 2 1009.6 NA 0.0000 9999 0 0 0 0
2019/07/14 08:48:00 BASE 0.56 229 5.14 109 -6.2 99 -6.4 0 0 1009.6 NA 0.0000 9999 0 0 0 0
2019/07/14 08:49:00 BASE 0.99 227 3.34 112 -6.1 98 -6.3 0 2 1009.6 NA 0.0000 9999 0 0 0 0
2019/07/14 08:50:00 BASE 0.71 219 3.34 112 -6.1 98 -6.4 0 0 1009.6 NA 0.0000 9999 0 0 0 0
2019/07/14 08:51:00 BASE 0.09 200 3.34 112 -6.2 98 -6.5 0 0 1009.5 NA 0.0000 9999 0 0 0 0
2019/07/14 08:52:00 BASE 0.14 188 3.34 112 -6.3 97 -6.7 0 0 1009.5 NA 0.0000 9999 0 0 0 0
2019/07/14 08:53:00 BASE 0.71 216 3.34 112 -6.4 97 -6.8 0 0 1009.5 NA 0.0000 9999 0 0 0 0
2019/07/14 08:54:00 BASE 1.27 232 3.34 112 -6.4 97 -6.8 0 2 1009.5 NA 0.0000 9999 0 0 0 0
2019/07/14 08:55:00 BASE 1.81 206 3.34 112 -6.4 97 -6.8 0 0 1009.5 NA 0.0000 9999 0 0 0 0
2019/07/14 08:56:00 BASE 1.99 175 3.04 168 -6.3 97 -6.7 0 0 1009.5 NA 0.0000 9999 0 0 0 0
2019/07/14 08:57:00 BASE 1.31 190 3.04 168 -6.3 97 -6.7 0 0 1009.4 NA 0.0000 9999 0 0 0 0
2019/07/14 08:58:00 BASE 0.83 230 3.04 168 -6.2 97 -6.6 0 0 1009.4 NA 0.0000 9999 0 0 0 0
2019/07/14 08:59:00 BASE 0.64 189 3.04 168 -6.2 97 -6.6 0 0 1009.4 NA 0.0000 9999 0 0 0 0
2019/07/14 09:00:00 BASE 0.63 158 3.04 168 -6.3 97 -6.7 0 1 1009.4 NA 0.0000 9999 0 0 0 0
2019/07/14 09:01:00 BASE 0.78 171 3.04 168 -6.4 97 -6.8 0 0 1009.4 NA 0.0000 9999 0 0 0 0
2019/07/14 09:02:00 BASE 0.45 166 3.04 168 -6.4 97 -6.9 0 0 1009.4 NA 0.0000 9999 0 0 0 0
2019/07/14 09:03:00 BASE 1.14 158 3.04 168 -6.5 97 -6.9 0 3 1009.4 NA 0.0000 9999 0 0 0 0
2019/07/14 09:04:00 BASE 2.34 141 3.55 143 -6.5 97 -7.0 0 0 1009.4 NA 0.0000 9999 0 0 0 0
2019/07/14 09:05:00 BASE 2.34 139 3.86 128 -6.5 97 -6.9 0 0 1009.4 NA 0.0000 9999 0 0 0 0
2019/07/14 09:06:00 BASE 1.85 140 3.86 128 -6.5 97 -6.9 0 0 1009.4 NA 0.0000 9999 0 0 0 0
2019/07/14 09:07:00 BASE 2.21 134 4.32 135 -6.6 97 -7.0 0 0 1009.4 NA 0.0000 9999 0 0 0 0
2019/07/14 09:08:00 BASE 3.47 133 4.94 143 -6.7 96 -7.1 0 2 1009.4 NA 0.0000 9999 0 0 0 0
2019/07/14 09:09:00 BASE 4.56 134 5.50 132 -6.8 96 -7.3 0 0 1009.4 NA 0.0000 9999 0 0 0 0
2019/07/14 09:10:00 BASE 5.17 136 5.50 137 -7.0 96 -7.5 0 0 1009.4 NA 0.0000 9999 0 0 0 0
2019/07/14 09:11:00 BASE 5.16 137 5.50 137 -7.1 97 -7.5 0 0 1009.4 NA 0.0000 9999 0 0 0 0
2019/07/14 09:12:00 BASE 4.83 139 5.50 137 -7.1 97 -7.5 0 0 1009.4 NA 0.0000 9999 0 0 0 0
2019/07/14 09:13:00 BASE 4.54 139 5.50 137 -7.2 97 -7.5 0 3 1009.4 NA 0.0000 9999 0 0 0 0
2019/07/14 09:14:00 BASE 4.40 136 5.50 137 -7.1 98 -7.4 0 0 1009.3 NA 0.0000 9999 0 0 0 0
2019/07/14 09:15:00 BASE 4.36 135 5.50 137 -7.1 98 -7.3 0 0 1009.3 NA 0.0000 9999 0 0 0 0
2019/07/14 09:16:00 BASE 4.37 138 5.50 137 -7.1 99 -7.3 0 3 1009.3 NA 0.0000 9999 0 0 0 0
2019/07/14 09:17:00 BASE 4.36 142 5.50 137 -7.1 99 -7.3 0 0 1009.3 NA 0.0000 9999 0 0 0 0
2019/07/14 09:18:00 BASE 4.21 141 5.50 137 -7.1 99 -7.2 0 0 1009.3 NA 0.0000 9999 0 0 0 0
2019/07/14 09:19:00 BASE 3.91 137 5.50 137 -7.1 99 -7.2 0 0 1009.2 NA 0.0000 9999 0 0 0 0
2019/07/14 09:20:00 BASE 3.78 135 5.25 140 -7.2 100 -7.2 0 1 1009.2 NA 0.0000 9999 0 0 0 0
2019/07/14 09:21:00 BASE 3.87 134 5.14 144 -7.1 100 -7.2 0 1 1009.3 NA 0.0000 9999 0 0 0 0
2019/07/14 09:22:00 BASE 4.00 135 4.99 143 -7.1 100 -7.1 0 0 1009.3 NA 0.0000 9999 0 0 0 0
2019/07/14 09:23:00 BASE 3.98 137 4.99 143 -7.0 100 -7.0 0 0 1009.3 NA 0.0000 9999 0 0 0 0
2019/07/14 09:24:00 BASE 3.84 137 4.99 143 -7.0 100 -7.0 0 0 1009.3 NA 0.0000 9999 0 0 0 0
2019/07/14 09:25:00 BASE 3.72 135 4.84 144 -6.9 100 -6.9 0 2 1009.3 NA 0.0000 9999 0 0 0 0
2019/07/14 09:26:00 BASE 3.68 134 4.84 144 -6.9 100 -6.9 0 0 1009.2 NA 0.0000 9999 0 0 0 0
2019/07/14 09:27:00 BASE 3.65 135 4.32 137 -7.0 100 -7.0 0 0 1009.2 NA 0.0000 9999 0 0 0 0
2019/07/14 09:28:00 BASE 3.72 134 4.32 137 -7.0 100 -7.0 0 0 1009.2 NA 0.0000 9999 0 0 0 0
2019/07/14 09:29:00 BASE 3.94 134 4.37 139 -7.0 100 -7.0 0 0 1009.2 NA 0.0000 9999 0 0 0 0
2019/07/14 09:30:00 BASE 4.12 136 4.42 142 -7.0 100 -7.0 0 0 1009.2 NA 0.0000 9999 0 0 0 0
2019/07/14 09:31:00 BASE 4.22 138 4.58 137 -7.0 100 -7.0 0 3 1009.2 NA 0.0000 9999 0 0 0 0
2019/07/14 09:32:00 BASE 4.22 138 4.58 137 -7.0 100 -7.0 0 0 1009.2 NA 0.0000 9999 0 0 0 0
2019/07/14 09:33:00 BASE 4.24 138 4.63 136 -7.0 100 -7.0 0 0 1009.2 NA 0.0000 9999 0 0 0 0
2019/07/14 09:34:00 BASE 4.29 140 4.63 136 -7.1 100 -7.1 0 2 1009.2 NA 0.0000 9999 0 0 0 0
2019/07/14 09:35:00 BASE 4.12 141 4.63 136 -7.0 100 -7.0 0 0 1009.2 NA 0.0000 9999 0 0 0 0
2019/07/14 09:36:00 BASE 4.09 140 4.63 136 -7.0 100 -7.0 0 0 1009.1 NA 0.0000 9999 0 0 0 0
2019/07/14 09:37:00 BASE 4.26 141 4.63 136 -7.0 100 -7.0 0 2 1009.1 NA 0.0000 9999 0 0 0 0
2019/07/14 09:38:00 BASE 4.28 142 4.63 136 -6.9 100 -6.9 0 0 1009.1 NA 0.0000 9999 0 0 0 0
2019/07/14 09:39:00 BASE 4.12 142 4.63 136 -6.9 100 -6.9 0 0 1009.1 NA 0.0000 9999 0 0 0 0
2019/07/14 09:40:00 BASE 3.98 139 4.63 136 -6.9 100 -6.9 0 0 1009.1 NA 0.0000 9999 0 0 0 0
2019/07/14 09:41:00 BASE 4.09 138 4.63 136 -6.9 100 -6.9 0 0 1009.1 NA 0.0000 9999 0 0 0 0
2019/07/14 09:42:00 BASE 4.31 141 4.63 144 -7.0 100 -7.0 0 1 1009.1 NA 0.0000 9999 0 0 0 0
2019/07/14 09:43:00 BASE 4.26 139 4.63 144 -6.9 100 -6.9 0 0 1009.1 NA 0.0000 9999 0 0 0 0
2019/07/14 09:44:00 BASE 4.08 135 4.63 144 -6.9 100 -6.9 0 0 1009.1 NA 0.0000 9999 0 0 0 0
2019/07/14 09:45:00 BASE 3.96 132 4.63 144 -6.8 100 -6.8 0 0 1009.1 NA 0.0000 9999 0 0 0 0
2019/07/14 09:46:00 BASE 3.75 132 4.63 144 -6.7 100 -6.7 0 0 1009.1 NA 0.0000 9999 0 0 0 0
2019/07/14 09:47:00 BASE 3.25 128 4.63 144 -6.5 100 -6.5 0 0 1009.1 NA 0.0000 9999 0 0 0 0
2019/07/14 09:48:00 BASE 2.63 124 4.63 144 -6.4 100 -6.4 0 0 1009.1 NA 0.0000 9999 0 0 0 0
2019/07/14 09:49:00 BASE 2.19 122 4.63 144 -6.3 100 -6.3 0 0 1009.1 NA 0.0000 9999 0 0 0 0
2019/07/14 09:50:00 BASE 1.84 118 4.63 144 -6.2 100 -6.2 0 2 1009.1 NA 0.0000 9999 0 0 0 0
2019/07/14 09:51:00 BASE 1.76 109 4.63 144 -6.2 100 -6.2 0 0 1009.1 NA 0.0000 9999 0 0 0 0
2019/07/14 09:52:00 BASE 1.89 98 4.32 132 -6.1 100 -6.1 0 0 1009.1 NA 0.0000 9999 0 0 0 0
2019/07/14 09:53:00 BASE 1.84 99 4.32 132 -6.1 100 -6.1 0 2 1009.1 NA 0.0000 9999 0 0 0 0
2019/07/14 09:54:00 BASE 2.02 104 4.12 136 -6.1 100 -6.1 0 0 1009.1 NA 0.0000 9999 0 0 0 0
2019/07/14 09:55:00 BASE 2.18 109 4.12 136 -6.1 100 -6.1 0 0 1009.1 NA 0.0000 9999 0 0 0 0
2019/07/14 09:56:00 BASE 2.16 123 3.19 131 -6.0 100 -6.0 0 1 1009.1 NA 0.0000 9999 0 0 0 0
2019/07/14 09:57:00 BASE 2.06 129 2.88 89 -5.9 100 -5.9 0 0 1009.1 NA 0.0000 9999 0 0 0 0
2019/07/14 09:58:00 BASE 1.99 95 3.14 55 -6.0 100 -6.0 0 0 1009.1 NA 0.0000 9999 0 0 0 0
2019/07/14 09:59:00 BASE 2.29 49 3.14 55 -6.1 100 -6.1 0 3 1009.1 NA 0.0000 9999 0 0 0 0
2019/07/14 10:00:00 BASE 2.38 33 3.14 55 -6.2 100 -6.2 0 0 1009.1 NA 0.0000 9999 0 0 0 0
2019/07/14 10:01:00 BASE 2.38 26 3.14 55 -6.3 100 -6.3 0 0 1009.1 NA 0.0000 9999 0 0 0 0
2019/07/14 10:02:00 BASE 2.53 14 3.14 55 -6.4 100 -6.4 0 2 1009.1 NA 0.0000 9999 0 0 0 0
2019/07/14 10:03:00 BASE 2.47 357 3.14 55 -6.5 100 -6.5 0 2 1009.1 NA 0.0000 9999 0 0 0 0
2019/07/14 10:04:01 BASE 2.25 344 3.14 55 -6.5 100 -6.5 0 0 1009.1 NA 0.0000 9999 0 0 0 0
2019/07/14 10:05:01 BASE 1.91 337 3.14 55 -6.5 100 -6.5 0 0 1009.1 NA 0.0000 9999 0 0 0 0
2019/07/14 10:06:01 BASE 1.96 336 3.14 55 -6.5 100 -6.5 0 0 1009.1 NA 0.0000 9999 0 0 0 0
2019/07/14 10:07:01 BASE 2.46 335 3.14 55 -6.6 100 -6.6 0 0 1009.1 NA 0.0000 9999 0 0 0 0
2019/07/14 10:08:01 BASE 3.15 341 4.27 335 -6.5 100 -6.5 0 3 1009.1 NA 0.0000 9999 0 0 0 0
2019/07/14 10:09:01 BASE 4.46 345 6.17 343 -6.5 100 -6.5 0 2 1009.1 NA 0.0000 9999 0 0 0 0
2019/07/14 10:10:01 BASE 5.21 343 6.17 343 -6.6 100 -6.6 0 0 1009.1 NA 0.0000 9999 0 0 0 0
2019/07/14 10:11:01 BASE 4.86 344 6.17 343 -6.6 100 -6.6 0 0 1009.1 NA 0.0000 9999 0 0 0 0
2019/07/14 10:12:01 BASE 5.07 344 6.17 343 -6.7 100 -6.7 0 0 1009.1 NA 0.0000 9999 0 0 0 0
2019/07/14 10:13:01 BASE 5.53 341 6.74 340 -6.7 100 -6.7 0 3 1009.1 NA 0.0000 9999 0 0 0 0
2019/07/14 10:14:01 BASE 6.29 341 7.41 341 -6.7 100 -6.7 0 3 1009.1 NA 0.0000 9999 0 0 0 0
2019/07/14 10:15:01 BASE 7.03 342 7.41 341 -6.7 100 -6.7 0 0 1009.1 NA 0.0000 9999 0 0 0 0
2019/07/14 10:16:01 BASE 7.25 343 7.87 341 -6.7 100 -6.7 0 0 1009.1 NA 0.0000 9999 0 0 0 0
2019/07/14 10:17:01 BASE 7.26 343 7.87 341 -6.7 100 -6.7 0 0 1009.0 NA 0.0000 9999 21360 0 0 0
2019/07/14 10:18:01 BASE 7.04 345 7.87 341 -6.7 100 -6.7 0 0 1009.0 NA 0.0000 9999 21330 0 0 0
2019/07/14 10:19:01 BASE 6.96 346 7.87 341 -6.6 100 -6.6 0 0 1009.0 NA 0.0000 9999 0 0 0 0
2019/07/14 10:20:01 BASE 6.50 344 7.87 341 -6.5 99 -6.6 0 0 1009.0 NA 0.0000 9999 0 0 0 0
2019/07/14 10:21:01 BASE 5.74 342 7.87 341 -6.5 99 -6.6 0 0 1009.0 NA 0.0000 9999 0 0 0 0
2019/07/14 10:22:01 BASE 5.38 348 7.87 341 -6.4 98 -6.6 0 0 1009.0 NA 0.0000 9999 0 0 0 0
2019/07/14 10:23:01 BASE 5.08 357 7.87 341 -6.4 98 -6.7 0 0 1009.0 NA 0.0000 9999 0 0 0 0
2019/07/14 10:24:01 BASE 4.34 10 7.87 341 -6.4 97 -6.8 0 0 1009.0 NA 0.0000 9999 0 0 0 0
2019/07/14 10:25:01 BASE 3.86 22 7.87 341 -6.5 96 -7.0 0 0 1009.0 NA 0.0000 9999 0 0 0 0
2019/07/14 10:26:01 BASE 3.66 28 7.51 346 -6.6 96 -7.1 0 0 1009.0 NA 0.0000 9999 0 0 0 0
2019/07/14 10:27:01 BASE 3.59 30 7.25 345 -6.7 96 -7.3 0 0 1009.0 NA 0.0000 9999 20670 21360 0 0
2019/07/14 10:28:01 BASE 3.41 27 7.15 350 -6.8 96 -7.4 0 0 1009.0 NA 0.0000 9999 0 0 0 0
2019/07/14 10:29:01 BASE 3.11 20 6.48 341 -6.9 96 -7.4 0 0 1009.0 NA 0.0000 9999 0 0 0 0
2019/07/14 10:30:01 BASE 3.22 17 6.12 353 -6.9 96 -7.4 0 0 1009.0 NA 0.0000 9999 0 0 0 0
2019/07/14 10:31:01 BASE 3.03 20 6.12 353 -6.8 97 -7.3 0 0 1009.0 NA 0.0000 9999 0 0 0 0
2019/07/14 10:32:01 BASE 2.51 12 5.61 349 -6.8 97 -7.2 0 0 1009.0 NA 0.0000 9999 0 0 0 0
2019/07/14 10:33:01 BASE 2.68 355 4.58 352 -6.7 97 -7.1 0 0 1009.0 NA 0.0000 9999 0 0 0 0
2019/07/14 10:34:01 BASE 3.13 348 4.48 26 -6.6 97 -7.1 0 0 1009.0 NA 0.0000 9999 0 0 0 0
2019/07/14 10:35:01 BASE 3.20 349 4.42 23 -6.6 96 -7.1 0 0 1009.0 NA 0.0000 9999 0 0 0 0
2019/07/14 10:36:01 BASE 3.22 346 4.42 23 -6.5 96 -7.0 0 0 1009.0 NA 0.0000 9999 0 0 0 0
2019/07/14 10:37:01 BASE 3.12 341 4.32 348 -6.5 96 -7.0 0 0 1009.0 NA 0.0000 9999 0 0 0 0
2019/07/14 10:38:01 BASE 3.07 337 4.32 348 -6.4 95 -7.0 0 0 1008.9 NA 0.0000 9999 0 0 0 0
2019/07/14 10:39:01 BASE 3.24 338 4.32 348 -6.3 95 -7.0 0 1 1008.9 NA 0.0000 9999 0 0 0 0
2019/07/14 10:40:01 BASE 2.91 343 4.32 348 -6.3 94 -7.0 0 0 1008.9 NA 0.0000 9999 0 0 0 0
2019/07/14 10:41:01 BASE 2.51 356 4.32 348 -6.2 94 -7.1 0 0 1008.9 NA 0.0000 9999 0 0 0 0
2019/07/14 10:42:01 BASE 2.72 5 4.32 348 -6.2 93 -7.1 0 0 1008.9 NA 0.0000 9999 0 0 0 0
2019/07/14 10:43:01 BASE 2.73 12 4.32 348 -6.2 93 -7.1 0 0 1008.9 NA 0.0000 9999 0 0 0 0
2019/07/14 10:44:01 BASE 2.47 29 4.32 348 -6.2 92 -7.2 0 1 1008.9 NA 0.0000 9999 0 0 0 0
2019/07/14 10:45:01 BASE 2.19 48 3.81 348 -6.2 92 -7.3 0 1 1008.8 NA 0.0000 9999 0 0 0 0
2019/07/14 10:46:01 BASE 2.11 56 3.81 348 -6.2 91 -7.4 0 0 1008.8 NA 0.0000 9999 0 0 0 0
2019/07/14 10:47:01 BASE 2.29 57 3.81 348 -6.2 91 -7.4 0 1 1008.8 NA 0.0000 9999 0 0 0 0
2019/07/14 10:48:01 BASE 2.62 54 3.81 348 -6.2 91 -7.5 0 1 1008.8 NA 0.0000 9999 0 0 0 0
2019/07/14 10:49:01 BASE 3.13 50 3.55 51 -6.2 90 -7.6 0 0 1008.8 NA 0.0000 9999 0 0 0 0
2019/07/14 10:50:01 BASE 3.38 48 3.70 48 -6.2 90 -7.7 0 0 1008.8 NA 0.0000 9999 0 0 0 0
2019/07/14 10:51:01 BASE 3.43 43 3.76 35 -6.3 89 -7.8 0 0 1008.8 NA 0.0000 9999 0 0 0 0
2019/07/14 10:52:01 BASE 3.44 37 3.76 35 -6.4 88 -8.0 0 0 1008.8 NA 0.0000 9999 0 0 0 0
2019/07/14 10:53:01 BASE 3.28 37 3.76 35 -6.5 88 -8.2 0 0 1008.8 NA 0.0000 9999 0 0 0 0
2019/07/14 10:54:01 BASE 3.10 40 3.76 35 -6.5 87 -8.3 0 0 1008.8 NA 0.0000 9999 0 0 0 0
2019/07/14 10:55:01 BASE 3.09 39 3.76 35 -6.6 87 -8.4 0 0 1008.8 NA 0.0000 9999 0 0 0 0
2019/07/14 10:56:01 BASE 3.22 39 3.76 35 -6.6 86 -8.6 0 1 1008.8 NA 0.0000 9999 0 0 0 0
2019/07/14 10:57:01 BASE 3.23 39 3.76 35 -6.6 86 -8.6 0 0 1008.8 NA 0.0000 9999 0 0 0 0
2019/07/14 10:58:01 BASE 3.17 44 3.76 35 -6.6 85 -8.6 0 0 1008.8 NA 0.0000 9999 0 0 0 0
2019/07/14 10:59:01 BASE 3.14 51 3.76 35 -6.5 85 -8.6 0 2 1008.8 NA 0.0000 9999 0 0 0 0
2019/07/14 11:00:01 BASE 2.84 54 3.76 35 -6.5 85 -8.6 0 0 1008.8 NA 0.0000 9999 0 0 0 0
2019/07/14 11:01:01 BASE 2.47 54 3.55 46 -6.4 85 -8.5 0 1 1008.8 NA 0.0000 9999 0 0 0 0
2019/07/14 11:02:01 BASE 2.12 49 3.55 46 -6.3 84 -8.5 0 0 1008.8 NA 0.0000 9999 0 0 0 0
2019/07/14 11:03:01 BASE 1.87 41 3.55 46 -6.2 84 -8.5 0 1 1008.8 NA 0.0000 9999 0 0 0 0
2019/07/14 11:04:01 BASE 1.69 36 3.55 46 -6.1 83 -8.5 0 1 1008.8 NA 0.0000 9999 0 0 0 0
2019/07/14 11:05:01 BASE 1.25 30 3.55 46 -6.1 83 -8.5 0 1 1008.8 NA 0.0000 9999 0 0 0 0
2019/07/14 11:06:01 BASE 0.80 16 3.55 46 -6.0 82 -8.5 0 1 1008.8 NA 0.0000 9999 0 0 0 0
2019/07/14 11:07:01 BASE 0.70 9 3.55 46 -6.0 82 -8.6 0 1 1008.7 NA 0.0000 9999 0 0 0 0
2019/07/14 11:08:01 BASE 0.85 10 3.45 58 -6.0 81 -8.7 0 2 1008.7 NA 0.0000 9999 0 0 0 0
2019/07/14 11:09:01 BASE 0.63 7 2.73 56 -6.0 81 -8.8 0 0 1008.7 NA 0.0000 9999 0 0 0 0
2019/07/14 11:10:01 BASE 0.62 23 2.68 58 -6.0 80 -8.8 0 0 1008.7 NA 0.0000 9999 0 0 0 0
2019/07/14 11:11:01 BASE 0.93 30 2.52 44 -6.0 80 -8.9 0 0 1008.7 NA 0.0000 9999 0 0 0 0
2019/07/14 11:12:01 BASE 0.80 30 2.52 44 -6.0 80 -8.9 0 1 1008.8 NA 0.0000 9999 0 0 0 0
2019/07/14 11:13:01 BASE 0.42 44 2.11 27 -6.0 80 -8.9 0 2 1008.7 NA 0.0000 9999 0 0 0 0
2019/07/14 11:14:01 BASE 0.56 61 2.11 27 -6.0 80 -8.9 0 1 1008.7 NA 0.0000 9999 0 0 0 0
2019/07/14 11:15:01 BASE 0.69 67 2.11 27 -6.0 80 -8.9 0 1 1008.7 NA 0.0000 9999 0 0 0 0
2019/07/14 11:16:01 BASE 0.55 56 2.11 27 -6.0 80 -8.9 0 0 1008.7 NA 0.0000 9999 0 0 0 0
2019/07/14 11:17:01 BASE 0.62 46 2.11 27 -6.0 80 -8.9 0 2 1008.7 NA 0.0000 9999 0 0 0 0
2019/07/14 11:18:01 BASE 0.68 51 1.90 51 -6.0 80 -8.8 0 1 1008.7 NA 0.0000 9999 0 0 0 0
2019/07/14 11:19:01 BASE 0.70 68 1.90 51 -6.0 80 -8.9 0 0 1008.7 NA 0.0000 9999 0 0 0 0
2019/07/14 11:20:01 BASE 0.35 90 1.90 51 -6.0 80 -8.9 0 3 1008.7 NA 0.0000 9999 0 0 0 0
2019/07/14 11:21:01 BASE 0.35 96 1.90 51 -6.0 80 -8.9 0 3 1008.7 NA 0.0000 9999 0 0 0 0
2019/07/14 11:22:01 BASE 0.31 88 1.90 51 -6.0 80 -8.8 0 1 1008.7 NA 0.0000 9999 0 0 0 0
2019/07/14 11:23:01 BASE 0.22 84 1.90 51 -6.0 80 -8.8 0 0 1008.7 NA 0.0000 9999 0 0 0 0
2019/07/14 11:24:01 BASE 0.31 77 1.90 51 -5.9 80 -8.8 0 3 1008.7 NA 0.0000 9999 0 0 0 0
2019/07/14 11:25:01 BASE 0.09 79 1.90 51 -5.9 81 -8.7 0 0 1008.7 NA 0.0000 9999 0 0 0 0
2019/07/14 11:26:01 BASE 0.00 85 1.85 61 -5.8 81 -8.6 0 2 1008.6 NA 0.0000 9999 0 0 0 0
2019/07/14 11:27:01 BASE 0.00 86 1.85 61 -5.8 81 -8.5 0 2 1008.6 NA 0.0000 9999 0 0 0 0
2019/07/14 11:28:01 BASE 0.00 94 1.44 81 -5.7 81 -8.5 0 3 1008.6 NA 0.0000 9999 0 0 0 0
2019/07/14 11:29:01 BASE 0.00 102 1.44 81 -5.6 81 -8.4 0 1 1008.6 NA 0.0000 9999 0 0 0 0
2019/07/14 11:30:01 BASE 0.00 112 1.44 81 -5.6 80 -8.4 0 0 1008.6 NA 0.0000 9999 0 0 0 0
2019/07/14 11:31:00 BASE 0.00 118 1.44 81 -5.6 80 -8.4 0 1 1008.6 NA 0.0000 9999 0 0 0 0
2019/07/14 11:32:00 BASE 0.00 119 1.44 81 -5.6 80 -8.5 0 0 1008.6 NA 0.0000 9999 0 0 0 0
2019/07/14 11:33:00 BASE 0.00 127 1.18 92 -5.7 80 -8.6 0 0 1008.6 NA 0.0000 9999 0 0 0 0
2019/07/14 11:34:00 BASE 0.00 137 M M -5.8 80 -8.6 0 0 1008.6 NA 0.0000 9999 0 0 0 0
2019/07/14 11:35:00 BASE 0.00 152 M M -5.8 80 -8.7 0 0 1008.6 NA 0.0000 9999 0 0 0 0
2019/07/14 11:36:00 BASE 0.24 162 1.29 162 -5.9 80 -8.8 0 0 1008.6 NA 0.0000 9999 0 0 0 0
2019/07/14 11:37:00 BASE 0.96 162 1.54 162 -6.0 80 -8.9 0 1 1008.6 NA 0.0000 9999 0 0 0 0
2019/07/14 11:38:00 BASE 1.52 161 1.65 160 -6.0 80 -8.9 0 0 1008.5 NA 0.0000 9999 0 0 0 0
2019/07/14 11:39:00 BASE 1.63 162 1.75 164 -6.1 80 -9.1 0 1 1008.5 NA 0.0000 9999 0 0 0 0
2019/07/14 11:40:00 BASE 1.61 169 1.75 164 -6.2 80 -9.2 0 0 1008.4 NA 0.0000 9999 0 0 0 0
2019/07/14 11:41:00 BASE 1.61 171 1.95 168 -6.2 80 -9.0 0 0 1008.5 NA 0.0000 9999 0 0 0 0
2019/07/14 11:42:00 BASE 1.84 167 2.11 167 -6.2 81 -8.9 0 0 1008.5 NA 0.0000 9999 0 0 0 0
2019/07/14 11:43:00 BASE 2.12 162 2.47 161 -6.1 81 -8.8 0 1 1008.4 NA 0.0000 9999 0 0 0 0
2019/07/14 11:44:00 BASE 2.31 161 2.52 163 -6.1 81 -8.7 0 1 1008.4 NA 0.0000 9999 0 0 0 0
2019/07/14 11:45:00 BASE 2.43 160 2.73 159 -6.1 81 -8.7 0 0 1008.4 NA 0.0000 9999 0 0 0 0
2019/07/14 11:46:00 BASE 2.57 161 2.93 162 -6.1 81 -8.8 0 0 1008.4 NA 0.0000 9999 0 0 0 0
2019/07/14 11:47:00 BASE 2.48 163 2.93 162 -6.1 81 -8.8 0 3 1008.4 NA 0.0000 9999 0 0 0 0
2019/07/14 11:48:00 BASE 2.03 160 2.93 162 -6.1 82 -8.7 0 0 1008.4 NA 0.0000 9999 0 0 0 0
2019/07/14 11:49:00 BASE 1.67 153 2.93 162 -6.0 82 -8.5 0 0 1008.4 NA 0.0000 9999 0 0 0 0
2019/07/14 11:50:00 BASE 1.51 147 2.93 162 -6.0 83 -8.4 0 0 1008.4 NA 0.0000 9999 0 0 0 0
2019/07/14 11:51:00 BASE 1.35 142 2.93 162 -6.0 83 -8.4 0 0 1008.4 NA 0.0000 9999 0 0 0 0
2019/07/14 11:52:00 BASE 1.45 124 2.93 162 -6.0 83 -8.4 0 2 1008.4 NA 0.0000 9999 0 0 0 0
2019/07/14 11:53:00 BASE 1.59 112 2.93 162 -6.0 83 -8.4 0 3 1008.4 NA 0.0000 9999 0 0 0 0
2019/07/14 11:54:00 BASE 1.35 110 2.93 162 -5.9 83 -8.3 0 0 1008.4 NA 0.0000 9999 0 0 0 0
2019/07/14 11:55:00 BASE 0.57 93 2.93 162 -5.8 84 -8.2 0 0 1008.4 NA 0.0000 9999 0 0 0 0
2019/07/14 11:56:00 BASE 0.24 65 2.68 166 -5.7 84 -8.0 0 2 1008.4 NA 0.0000 9999 0 0 0 0
2019/07/14 11:57:00 BASE 0.57 50 1.95 169 -5.5 84 -7.9 0 1 1008.4 NA 0.0000 9999 0 0 0 0
2019/07/14 11:58:00 BASE 1.08 50 1.90 147 -5.5 83 -7.9 0 0 1008.4 NA 0.0000 9999 0 0 0 0
2019/07/14 11:59:00 BASE 1.31 51 1.85 48 -5.5 83 -7.9 0 3 1008.4 NA 0.0000 9999 0 0 0 0
2019/07/14 12:00:00 BASE 0.56 53 1.85 48 -5.5 82 -8.0 0 0 1008.4 NA 0.0000 9999 0 0 0 0
2019/07/14 12:01:00 BASE 0.00 52 1.85 48 -5.5 82 -8.1 0 0 1008.4 NA 0.0000 9999 0 0 0 0
2019/07/14 12:02:00 BASE 0.00 47 1.85 48 -5.6 82 -8.2 0 1 1008.4 NA 0.0000 9999 0 0 0 0
2019/07/14 12:03:00 BASE 0.51 41 1.85 48 -5.7 83 -8.2 0 0 1008.4 NA 0.0000 9999 0 0 0 0
2019/07/14 12:04:00 BASE 1.29 44 1.85 48 -5.8 83 -8.2 0 0 1008.4 NA 0.0000 9999 0 0 0 0
2019/07/14 12:05:00 BASE 1.51 44 1.85 48 -5.8 84 -8.1 0 1 1008.4 NA 0.0000 9999 0 0 0 0
2019/07/14 12:06:00 BASE 1.59 41 2.11 39 -5.8 84 -8.0 0 0 1008.4 NA 0.0000 9999 0 0 0 0
2019/07/14 12:07:00 BASE 1.79 39 2.11 39 -5.7 85 -7.9 0 0 1008.4 NA 0.0000 9999 0 0 0 0
2019/07/14 12:08:00 BASE 1.75 39 2.11 39 -5.7 85 -7.8 0 2 1008.4 NA 0.0000 9999 0 0 0 0
2019/07/14 12:09:00 BASE 1.83 47 2.42 54 -5.7 85 -7.7 0 0 1008.4 NA 0.0000 9999 0 0 0 0
2019/07/14 12:10:00 BASE 2.05 53 2.42 53 -5.8 85 -7.8 0 0 1008.4 NA 0.0000 9999 0 0 0 0
2019/07/14 12:11:00 BASE 2.16 57 2.42 64 -5.9 86 -7.9 0 0 1008.4 NA 0.0000 9999 0 0 0 0
2019/07/14 12:12:00 BASE 1.83 66 2.42 64 -5.9 86 -7.9 0 0 1008.3 NA 0.0000 9999 0 0 0 0
2019/07/14 12:13:00 BASE 1.79 63 2.73 48 -6.0 86 -7.9 0 3 1008.3 NA 0.0000 9999 0 0 0 0
2019/07/14 12:14:00 BASE 2.26 47 2.73 48 -6.0 86 -7.9 0 0 1008.3 NA 0.0000 9999 0 0 0 0
2019/07/14 12:15:00 BASE 2.27 46 2.73 48 -6.1 87 -7.9 0 0 1008.3 NA 0.0000 9999 0 0 0 0
2019/07/14 12:16:00 BASE 2.16 59 2.73 48 -6.1 87 -7.9 0 3 1008.3 NA 0.0000 9999 0 0 0 0
2019/07/14 12:17:00 BASE 2.24 70 2.88 70 -6.1 87 -7.9 0 0 1008.3 NA 0.0000 9999 0 0 0 0
2019/07/14 12:18:00 BASE 2.23 78 2.88 70 -6.1 87 -7.9 0 3 1008.3 NA 0.0000 9999 0 0 0 0
2019/07/14 12:19:00 BASE 2.08 86 2.88 70 -6.1 88 -7.8 0 0 1008.3 NA 0.0000 9999 0 0 0 0
2019/07/14 12:20:00 BASE 1.99 89 2.88 70 -6.0 88 -7.7 0 0 1008.3 NA 0.0000 9999 0 0 0 0
2019/07/14 12:21:00 BASE 1.91 90 2.88 70 -5.9 88 -7.6 0 3 1008.3 NA 0.0000 9999 0 0 0 0
2019/07/14 12:22:00 BASE 1.89 89 2.88 70 -5.8 88 -7.5 0 0 1008.3 NA 0.0000 9999 0 0 0 0
2019/07/14 12:23:00 BASE 1.68 86 2.88 70 -5.7 87 -7.5 0 0 1008.3 NA 0.0000 9999 0 0 0 0
2019/07/14 12:24:00 BASE 1.42 84 2.88 70 -5.7 87 -7.4 0 3 1008.3 NA 0.0000 9999 0 0 0 0
2019/07/14 12:25:00 BASE 1.34 83 2.88 70 -5.6 87 -7.5 0 0 1008.3 NA 0.0000 9999 0 0 0 0
2019/07/14 12:26:00 BASE 1.23 90 2.88 70 -5.6 87 -7.5 0 0 1008.3 NA 0.0000 9999 0 0 0 0
2019/07/14 12:27:00 BASE 1.06 101 2.21 90 -5.6 86 -7.6 0 3 1008.3 NA 0.0000 9999 0 0 0 0
2019/07/14 12:28:00 BASE 0.48 111 2.21 90 -5.7 86 -7.6 0 0 1008.3 NA 0.0000 9999 0 0 0 0
2019/07/14 12:29:00 BASE 0.00 127 2.21 90 -5.7 86 -7.8 0 0 1008.3 NA 0.0000 9999 0 0 0 0
2019/07/14 12:30:00 BASE 0.04 151 2.06 90 -5.8 85 -7.8 0 0 1008.3 NA 0.0000 9999 0 0 0 0
2019/07/14 12:31:00 BASE 0.04 175 1.95 90 -5.7 85 -7.8 0 0 1008.3 NA 0.0000 9999 0 0 0 0
2019/07/14 12:32:00 BASE 0.00 186 1.80 83 -5.7 85 -7.7 0 0 1008.3 NA 0.0000 9999 0 0 0 0
2019/07/14 12:33:00 BASE 0.00 188 1.75 76 -5.6 86 -7.6 0 2 1008.3 NA 0.0000 9999 0 0 0 0
2019/07/14 12:34:00 BASE 0.00 194 1.59 79 -5.4 86 -7.5 0 0 1008.3 NA 0.0000 9999 0 0 0 0
2019/07/14 12:35:00 BASE 0.00 200 1.49 105 -5.3 86 -7.4 0 0 1008.3 NA 0.0000 9999 0 0 0 0
2019/07/14 12:36:01 BASE 0.00 201 1.29 103 -5.3 85 -7.3 0 0 1008.3 NA 0.0000 9999 0 0 0 0
2019/07/14 12:37:01 BASE 0.00 201 1.03 180 -5.3 85 -7.4 0 0 1008.3 NA 0.0000 9999 0 0 0 0
2019/07/14 12:38:01 BASE 0.04 223 1.03 17 -5.4 85 -7.5 0 1 1008.3 NA 0.0000 9999 0 0 0 0
2019/07/14 12:39:01 BASE 0.32 9 1.18 63 -5.5 85 -7.6 0 0 1008.3 NA 0.0000 9999 0 0 0 0
2019/07/14 12:40:00 BASE 0.28 49 1.18 63 -5.5 84 -7.8 0 2 1008.3 NA 0.0000 9999 0 0 0 0
2019/07/14 12:41:01 BASE 0.00 74 1.18 63 -5.6 84 -7.8 0 2 1008.3 NA 0.0000 9999 0 0 0 0
2019/07/14 12:42:01 BASE 0.00 92 1.18 63 -5.6 84 -7.8 0 0 1008.3 NA 0.0000 9999 0 0 0 0
2019/07/14 12:43:01 BASE 0.00 107 1.18 63 -5.6 85 -7.8 0 0 1008.3 NA 0.0000 9999 0 0 0 0
2019/07/14 12:44:01 BASE 0.00 120 1.18 63 -5.6 85 -7.8 0 2 1008.3 NA 0.0000 9999 0 0 0 0
2019/07/14 12:45:01 BASE 0.00 123 1.18 63 -5.6 85 -7.7 0 0 1008.3 NA 0.0000 9999 0 0 0 0
2019/07/14 12:46:01 BASE 0.00 127 1.18 63 -5.5 85 -7.7 0 0 1008.3 NA 0.0000 9999 0 0 0 0
2019/07/14 12:47:01 BASE 0.00 128 1.18 63 -5.5 84 -7.8 0 0 1008.3 NA 0.0000 9999 0 0 0 0
2019/07/14 12:48:01 BASE 0.54 88 1.70 34 -5.6 84 -7.9 0 0 1008.3 NA 0.0000 9999 0 0 0 0
2019/07/14 12:49:01 BASE 0.74 36 1.70 34 -5.7 83 -8.1 0 0 1008.3 NA 0.0000 9999 0 0 0 0
2019/07/14 12:50:01 BASE 0.20 35 1.70 34 -5.8 83 -8.2 0 3 1008.3 NA 0.0000 9999 0 0 0 0
2019/07/14 12:51:01 BASE 0.33 34 1.70 34 -5.9 82 -8.4 0 3 1008.3 NA 0.0000 9999 0 0 0 0
2019/07/14 12:52:01 BASE 0.98 25 1.70 34 -6.1 82 -8.6 0 0 1008.3 NA 0.0000 9999 0 0 0 0
2019/07/14 12:53:01 BASE 1.19 22 1.70 34 -6.2 82 -8.7 0 0 1008.3 NA 0.0000 9999 0 0 0 0
2019/07/14 12:54:01 BASE 1.30 13 1.70 34 -6.2 82 -8.7 0 0 1008.3 NA 0.0000 9999 0 0 0 0
2019/07/14 12:55:01 BASE 1.57 9 1.80 10 -6.2 83 -8.7 0 0 1008.3 NA 0.0000 9999 0 0 0 0
2019/07/14 12:56:01 BASE 1.62 12 1.80 10 -6.2 83 -8.7 0 0 1008.3 NA 0.0000 9999 0 0 0 0
2019/07/14 12:57:01 BASE 1.57 12 1.80 10 -6.2 83 -8.6 0 0 1008.3 NA 0.0000 9999 0 0 0 0
2019/07/14 12:58:01 BASE 1.34 19 1.80 10 -6.2 83 -8.6 0 0 1008.3 NA 0.0000 9999 0 0 0 0
2019/07/14 12:59:01 BASE 0.57 29 1.80 10 -6.2 84 -8.5 0 0 1008.3 NA 0.0000 9999 0 0 0 0
2019/07/14 13:00:01 BASE 0.00 28 1.80 10 -6.2 84 -8.5 0 2 1008.3 NA 0.0000 9999 0 0 0 0
2019/07/14 13:01:01 BASE 0.00 24 1.80 10 -6.2 84 -8.4 0 2 1008.3 NA 0.0000 9999 0 0 0 0
2019/07/14 13:02:01 BASE 0.10 33 1.80 10 -6.1 84 -8.4 0 2 1008.3 NA 0.0000 9999 0 0 0 0
2019/07/14 13:03:01 BASE 0.26 115 1.80 10 -6.2 84 -8.5 0 1 1008.3 NA 0.0000 9999 0 0 0 0
2019/07/14 13:04:01 BASE 0.15 160 1.80 10 -6.3 84 -8.6 0 2 1008.4 NA 0.0000 9999 0 0 0 0
2019/07/14 13:05:01 BASE 0.04 202 1.70 11 -6.4 84 -8.7 0 0 1008.4 NA 0.0000 9999 0 0 0 0
2019/07/14 13:06:01 BASE 0.64 242 1.65 9 -6.4 84 -8.7 0 3 1008.4 NA 0.0000 9999 0 0 0 0
2019/07/14 13:07:01 BASE 1.22 251 1.39 255 -6.4 84 -8.6 0 3 1008.4 NA 0.0000 9999 0 0 0 0
2019/07/14 13:08:01 BASE 0.85 257 1.39 255 -6.3 85 -8.4 0 2 1008.4 NA 0.0000 9999 0 0 0 0
2019/07/14 13:09:01 BASE 0.84 267 1.39 272 -6.2 85 -8.3 0 2 1008.4 NA 0.0000 9999 0 0 0 0
2019/07/14 13:10:01 BASE 1.32 273 1.54 276 -6.1 85 -8.2 1 3 1008.4 NA 0.0000 9999 0 0 0 0
2019/07/14 13:11:01 BASE 1.49 273 1.65 272 -6.1 85 -8.2 1 3 1008.4 NA 0.0000 9999 0 0 0 0
2019/07/14 13:12:01 BASE 1.47 266 1.65 272 -6.1 85 -8.2 1 3 1008.4 NA 0.0000 9999 0 0 0 0
2019/07/14 13:13:01 BASE 1.45 262 1.65 272 -6.1 85 -8.2 1 3 1008.4 NA 0.0000 9999 0 0 0 0
2019/07/14 13:14:01 BASE 1.44 259 1.65 272 -6.1 86 -8.1 1 0 1008.4 NA 0.0000 9999 0 0 0 0
2019/07/14 13:15:01 BASE 0.81 250 1.65 272 -6.1 86 -8.0 1 3 1008.4 NA 0.0000 9999 0 0 0 0
2019/07/14 13:16:01 BASE 0.23 249 1.65 272 -6.0 86 -7.9 1 3 1008.4 NA 0.0000 9999 0 0 0 0
2019/07/14 13:17:01 BASE 0.09 247 1.65 272 -6.0 87 -7.8 1 3 1008.4 NA 0.0000 9999 0 0 0 0
2019/07/14 13:18:01 BASE 0.00 241 1.65 272 -5.9 87 -7.7 1 3 1008.4 NA 0.0000 9999 0 0 0 0
2019/07/14 13:19:01 BASE 0.00 246 1.65 272 -5.8 87 -7.6 1 3 1008.4 NA 0.0000 9999 0 0 0 0
2019/07/14 13:20:01 BASE 0.00 259 1.65 272 -5.8 87 -7.6 1 0 1008.4 NA 0.0000 9999 0 0 0 0
2019/07/14 13:21:01 BASE 0.00 274 1.59 264 -5.8 87 -7.6 1 3 1008.4 NA 0.0000 9999 0 0 0 0
2019/07/14 13:22:01 BASE 0.34 313 1.59 264 -5.8 87 -7.6 1 2 1008.4 NA 0.0000 9999 0 0 0 0
2019/07/14 13:23:01 BASE 1.18 2 2.01 36 -5.8 87 -7.7 1 2 1008.4 NA 0.0000 9999 0 0 0 0
2019/07/14 13:24:01 BASE 1.84 27 2.16 30 -5.9 87 -7.8 1 3 1008.4 NA 0.0000 9999 0 0 0 0
2019/07/14 13:25:01 BASE 2.03 25 2.21 20 -6.0 87 -7.8 1 3 1008.4 NA 0.0000 9999 0 0 0 0
2019/07/14 13:26:01 BASE 2.03 20 2.21 7 -6.1 87 -7.9 1 0 1008.4 NA 0.0000 9999 0 0 0 0
2019/07/14 13:27:01 BASE 1.82 25 2.21 7 -6.2 87 -8.0 1 1 1008.4 NA 0.0000 9999 0 0 0 0
2019/07/14 13:28:01 BASE 1.69 31 2.21 7 -6.3 87 -8.1 1 1 1008.4 NA 0.0000 9999 0 0 0 0
2019/07/14 13:29:01 BASE 2.04 30 2.57 32 -6.3 87 -8.1 1 0 1008.4 NA 0.0000 9999 0 0 0 0
2019/07/14 13:30:01 BASE 2.46 29 3.19 32 -6.4 88 -8.1 2 2 1008.4 NA 0.0000 9999 0 0 0 0
2019/07/14 13:31:01 BASE 2.90 25 3.34 17 -6.5 88 -8.2 2 0 1008.4 NA 0.0000 9999 0 0 0 0
2019/07/14 13:32:01 BASE 3.20 21 3.34 16 -6.6 88 -8.2 2 2 1008.4 NA 0.0000 9999 0 0 0 0
2019/07/14 13:33:01 BASE 3.22 20 3.34 16 -6.6 88 -8.3 2 1 1008.4 NA 0.0000 9999 0 0 0 0
2019/07/14 13:34:01 BASE 3.19 24 3.34 16 -6.7 88 -8.3 2 0 1008.4 NA 0.0000 9999 0 0 0 0
2019/07/14 13:35:01 BASE 3.22 27 3.45 27 -6.7 88 -8.3 2 2 1008.4 NA 0.0000 9999 0 0 0 0
2019/07/14 13:36:01 BASE 3.34 28 3.55 32 -6.7 89 -8.2 2 0 1008.4 NA 0.0000 9999 0 0 0 0
2019/07/14 13:37:01 BASE 3.46 32 3.86 37 -6.6 89 -8.1 2 0 1008.4 NA 0.0000 9999 0 0 0 0
2019/07/14 13:38:01 BASE 3.39 38 3.86 37 -6.6 90 -8.1 2 1 1008.4 NA 0.0000 9999 0 0 0 0
2019/07/14 13:39:01 BASE 3.15 41 3.86 37 -6.7 90 -8.1 2 3 1008.4 NA 0.0000 9999 0 0 0 0
2019/07/14 13:40:01 BASE 2.97 41 3.86 37 -6.7 90 -8.1 2 0 1008.4 NA 0.0000 9999 0 0 0 0
2019/07/14 13:41:01 BASE 2.68 44 3.86 37 -6.7 90 -8.0 3 0 1008.4 NA 0.0000 9999 0 0 0 0
2019/07/14 13:42:01 BASE 2.45 49 3.86 37 -6.7 90 -8.0 3 2 1008.4 NA 0.0000 9999 0 0 0 0
2019/07/14 13:43:01 BASE 2.33 52 3.86 37 -6.6 91 -7.9 3 0 1008.4 NA 0.0000 9999 0 0 0 0
2019/07/14 13:44:01 BASE 2.06 46 3.86 37 -6.6 91 -7.8 3 0 1008.4 NA 0.0000 9999 0 0 0 0
2019/07/14 13:45:01 BASE 1.93 47 3.86 37 -6.4 91 -7.7 3 0 1008.4 NA 0.0000 9999 0 0 0 0
2019/07/14 13:46:01 BASE 1.83 52 3.86 37 -6.4 91 -7.6 3 2 1008.4 NA 0.0000 9999 0 0 0 0
2019/07/14 13:47:01 BASE 1.66 52 3.45 42 -6.3 91 -7.6 3 0 1008.4 NA 0.0000 9999 0 0 0 0
2019/07/14 13:48:01 BASE 1.86 59 3.24 38 -6.3 90 -7.6 3 3 1008.4 NA 0.0000 9999 0 0 0 0
2019/07/14 13:49:01 BASE 1.98 64 3.19 37 -6.2 90 -7.6 4 0 1008.3 NA 0.0000 9999 0 0 0 0
2019/07/14 13:50:01 BASE 2.00 68 2.68 65 -6.2 90 -7.6 4 0 1008.3 NA 0.0000 9999 0 0 0 0
2019/07/14 13:51:01 BASE 2.12 66 2.68 65 -6.2 90 -7.6 4 0 1008.3 NA 0.0000 9999 0 0 0 0
2019/07/14 13:52:01 BASE 1.91 56 2.68 65 -6.1 89 -7.6 4 3 1008.3 NA 0.0000 9999 0 0 0 0
2019/07/14 13:53:01 BASE 1.70 47 2.68 65 -6.1 89 -7.6 4 0 1008.3 NA 0.0000 9999 0 0 0 0
2019/07/14 13:54:01 BASE 1.82 44 2.68 65 -6.0 89 -7.5 4 0 1008.3 NA 0.0000 9999 0 0 0 0
2019/07/14 13:55:01 BASE 1.88 44 2.68 65 -6.0 89 -7.5 4 3 1008.2 NA 0.0000 9999 0 0 0 0
2019/07/14 13:56:01 BASE 1.71 42 2.68 65 -6.0 89 -7.6 5 0 1008.2 NA 0.0000 9999 0 0 0 0
2019/07/14 13:57:01 BASE 1.53 37 2.68 65 -6.0 88 -7.6 5 0 1008.2 NA 0.0000 9999 0 0 0 0
2019/07/14 13:58:01 BASE 1.26 37 2.68 65 -6.0 88 -7.6 5 0 1008.2 NA 0.0000 9999 0 0 0 0
2019/07/14 13:59:01 BASE 0.57 43 2.68 65 -6.0 88 -7.7 5 0 1008.2 NA 0.0000 9999 0 0 0 0
2019/07/14 14:00:01 BASE 0.05 39 2.37 61 -5.9 88 -7.6 5 0 1008.2 NA 0.0000 9999 0 0 0 0
2019/07/14 14:01:01 BASE 0.00 24 2.21 42 -5.9 88 -7.6 5 2 1008.1 NA 0.0000 9999 0 0 0 0
2019/07/14 14:02:01 BASE 0.32 20 2.21 42 -5.8 87 -7.5 5 0 1008.0 NA 0.0000 9999 0 0 0 0
2019/07/14 14:03:01 BASE 0.95 25 2.21 42 -5.7 87 -7.5 6 0 1008.0 NA 0.0000 9999 0 0 0 0
2019/07/14 14:04:01 BASE 1.55 29 2.31 42 -5.7 87 -7.5 6 2 1008.0 NA 0.0000 9999 0 0 0 0
2019/07/14 14:05:01 BASE 2.06 39 2.68 43 -5.7 87 -7.6 6 0 1008.0 NA 0.0000 9999 0 0 0 0
2019/07/14 14:06:01 BASE 1.94 42 2.68 43 -5.7 86 -7.6 6 0 1007.9 NA 0.0000 9999 0 0 0 0
2019/07/14 14:07:00 BASE 1.34 33 2.68 43 -5.7 86 -7.7 6 3 1008.0 NA 0.0000 9999 0 0 0 0
2019/07/14 14:08:01 BASE 1.30 33 2.68 43 -5.8 86 -7.8 6 3 1008.0 NA 0.0000 9999 0 0 0 0
2019/07/14 14:09:01 BASE 1.49 41 2.68 43 -5.8 86 -7.8 7 0 1008.0 NA 0.0000 9999 0 0 0 0
2019/07/14 14:10:01 BASE 1.26 46 2.68 43 -5.8 86 -7.8 7 0 1008.0 NA 0.0000 9999 0 0 0 0
2019/07/14 14:11:00 BASE 1.06 48 2.68 43 -5.8 86 -7.8 7 0 1007.9 NA 0.0000 9999 0 0 0 0
2019/07/14 14:12:01 BASE 1.10 40 2.68 43 -5.9 86 -7.8 7 2 1007.9 NA 0.0000 9999 0 0 0 0
2019/07/14 14:13:00 BASE 1.48 44 2.68 43 -5.9 86 -7.9 7 3 1007.9 NA 0.0000 9999 0 0 0 0
2019/07/14 14:14:01 BASE 1.62 59 2.68 43 -5.9 86 -7.8 8 2 1007.9 NA 0.0000 9999 0 0 0 0
2019/07/14 14:15:01 BASE 0.98 57 2.16 50 -5.9 86 -7.8 8 3 1007.9 NA 0.0000 9999 0 0 0 0
2019/07/14 14:16:01 BASE 0.93 52 2.06 58 -5.9 87 -7.8 8 0 1007.9 NA 0.0000 9999 0 0 0 0
2019/07/14 14:17:00 BASE 1.83 53 2.78 54 -5.9 87 -7.8 8 2 1007.9 NA 0.0000 9999 0 0 0 0
2019/07/14 14:18:01 BASE 2.66 54 3.19 57 -6.0 87 -7.8 9 1 1007.9 NA 0.0000 9999 0 0 0 0
2019/07/14 14:19:00 BASE 2.88 57 3.24 59 -6.0 87 -7.8 9 1 1007.8 NA 0.0000 9999 0 0 0 0
2019/07/14 14:20:01 BASE 2.35 66 3.24 59 -6.0 87 -7.8 9 0 1007.8 NA 0.0000 9999 0 0 0 0
2019/07/14 14:21:00 BASE 1.84 77 3.24 59 -6.0 87 -7.8 9 0 1007.8 NA 0.0000 9999 0 0 0 0
2019/07/14 14:22:01 BASE 1.74 82 3.24 59 -6.0 88 -7.7 9 0 1007.8 NA 0.0000 9999 0 0 0 0
2019/07/14 14:23:01 BASE 1.73 91 3.24 59 -6.0 88 -7.7 10 1 1007.8 NA 0.0000 9999 0 0 0 0
2019/07/14 14:24:01 BASE 1.52 99 3.24 59 -6.0 88 -7.6 10 0 1007.8 NA 0.0000 9999 0 0 0 0
2019/07/14 14:25:01 BASE 1.44 99 3.24 59 -5.9 88 -7.6 10 0 1007.8 NA 0.0000 9999 0 0 0 0
2019/07/14 14:26:01 BASE 1.50 101 3.24 59 -5.8 88 -7.5 10 0 1007.8 NA 0.0000 9999 0 0 0 0
2019/07/14 14:27:00 BASE 1.48 106 3.24 59 -5.7 88 -7.3 10 1 1007.7 NA 0.0000 9999 0 0 0 0
2019/07/14 14:28:01 BASE 1.64 105 3.24 59 -5.6 89 -7.2 11 0 1007.7 NA 0.0000 9999 0 0 0 0
2019/07/14 14:29:00 BASE 1.68 105 2.31 79 -5.5 89 -7.0 11 1 1007.7 NA 0.0000 9999 0 0 0 0
2019/07/14 14:30:00 BASE 1.12 110 2.31 79 -5.4 89 -6.9 11 2 1007.7 NA 0.0000 9999 0 0 0 0
2019/07/14 14:31:00 BASE 0.30 117 2.16 73 -5.3 89 -6.8 11 0 1007.7 NA 0.0000 9999 0 0 0 0
2019/07/14 14:32:01 BASE 0.00 118 1.95 98 -5.3 89 -6.8 11 2 1007.7 NA 0.0000 9999 0 0 0 0
2019/07/14 14:33:00 BASE 0.00 110 1.95 98 -5.2 89 -6.7 12 2 1007.7 NA 0.0000 9999 0 0 0 0
2019/07/14 14:34:01 BASE 0.00 97 1.95 98 -5.2 89 -6.7 12 1 1007.7 NA 0.0000 9999 0 0 0 0
2019/07/14 14:35:00 BASE 0.00 87 1.95 98 -5.2 89 -6.7 12 2 1007.7 NA 0.0000 9999 0 0 0 0
2019/07/14 14:36:00 BASE 0.23 74 1.95 98 -5.2 89 -6.7 12 3 1007.7 NA 0.0000 9999 0 0 0 0
2019/07/14 14:37:00 BASE 0.86 62 1.95 98 -5.2 89 -6.7 12 0 1007.7 NA 0.0000 9999 0 0 0 0
2019/07/14 14:38:00 BASE 1.54 67 2.16 75 -5.2 89 -6.7 13 3 1007.7 NA 0.0000 9999 0 0 0 0
2019/07/14 14:39:00 BASE 2.17 75 3.24 75 -5.2 89 -6.7 13 3 1007.7 NA 0.0000 9999 0 0 0 0
2019/07/14 14:40:00 BASE 2.68 77 3.29 77 -5.2 89 -6.8 13 0 1007.7 NA 0.0000 9999 0 0 0 0
2019/07/14 14:41:01 BASE 2.60 77 3.29 77 -5.1 88 -6.8 13 0 1007.7 NA 0.0000 9999 0 0 0 0
2019/07/14 14:42:01 BASE 2.07 83 3.29 77 -5.1 88 -6.7 13 3 1007.7 NA 0.0000 9999 0 0 0 0
2019/07/14 14:43:00 BASE 1.70 85 3.29 77 -5.0 88 -6.7 14 3 1007.7 NA 0.0000 9999 0 0 0 0
2019/07/14 14:44:00 BASE 1.12 86 3.29 77 -5.0 88 -6.7 14 0 1007.6 NA 0.0000 9999 0 0 0 0
2019/07/14 14:45:01 BASE 0.59 84 3.29 77 -5.0 87 -6.8 14 3 1007.6 NA 0.0000 9999 0 0 0 0
2019/07/14 14:46:00 BASE 1.08 78 3.29 77 -5.1 87 -7.0 14 3 1007.6 NA 0.0000 9999 0 0 0 0
2019/07/14 14:47:00 BASE 2.23 76 3.29 77 -5.2 86 -7.2 14 0 1007.7 NA 0.0000 9999 0 0 0 0
2019/07/14 14:48:00 BASE 3.04 77 3.55 68 -5.4 86 -7.4 14 3 1007.7 NA 0.0000 9999 0 0 0 0
2019/07/14 14:49:00 BASE 2.57 95 3.55 68 -5.4 86 -7.4 15 0 1007.7 NA 0.0000 9999 0 0 0 0
2019/07/14 14:50:00 BASE 1.84 135 3.55 68 -5.5 86 -7.5 15 2 1007.7 NA 0.0000 9999 0 0 0 0
2019/07/14 14:51:00 BASE 1.69 159 3.55 68 -5.6 86 -7.6 15 2 1007.7 NA 0.0000 9999 0 0 0 0
2019/07/14 14:52:00 BASE 1.46 164 3.55 68 -5.6 87 -7.5 15 0 1007.6 NA 0.0000 9999 0 0 0 0
2019/07/14 14:53:00 BASE 1.30 162 3.55 68 -5.6 87 -7.4 15 2 1007.6 NA 0.0000 9999 0 0 0 0
2019/07/14 14:54:00 BASE 1.48 152 3.55 68 -5.5 88 -7.3 15 2 1007.6 NA 0.0000 9999 0 0 0 0
2019/07/14 14:55:00 BASE 1.87 143 3.55 68 -5.4 88 -7.0 15 2 1007.6 NA 0.0000 9999 0 0 0 0
2019/07/14 14:56:00 BASE 2.08 143 3.55 68 -5.3 89 -6.8 15 0 1007.6 NA 0.0000 9999 0 0 0 0
2019/07/14 14:57:00 BASE 2.18 140 3.55 68 -5.2 89 -6.7 15 2 1007.6 NA 0.0000 9999 0 0 0 0
2019/07/14 14:58:00 BASE 2.29 131 2.62 116 -5.2 89 -6.7 15 2 1007.6 NA 0.0000 9999 0 0 0 0
2019/07/14 14:59:00 BASE 2.36 121 2.83 113 -5.2 89 -6.7 15 2 1007.6 NA 0.0000 9999 0 0 0 0
2019/07/14 15:00:00 BASE 1.99 118 2.83 113 -5.1 89 -6.6 15 0 1007.6 NA 0.0000 9999 6000 0 0 0
2019/07/14 15:01:00 BASE 1.77 122 2.83 113 -5.1 89 -6.6 15 1 1007.6 NA 0.0000 9999 5970 0 0 0
2019/07/14 15:02:00 BASE 1.97 123 2.83 113 -5.2 89 -6.7 16 1 1007.7 NA 0.0000 9999 5910 0 0 0
2019/07/14 15:03:00 BASE 2.02 122 2.83 113 -5.2 89 -6.7 16 0 1007.6 NA 0.0000 9999 5870 0 0 0
2019/07/14 15:04:00 BASE 1.81 123 2.83 113 -5.2 89 -6.7 16 0 1007.7 NA 0.0000 9999 5910 0 0 0
2019/07/14 15:05:00 BASE 0.88 119 2.83 113 -5.4 89 -6.9 16 2 1007.7 NA 0.0000 9999 5910 0 0 0
2019/07/14 15:06:00 BASE 1.12 120 2.83 113 -5.5 89 -7.0 16 2 1007.7 NA 0.0000 9999 5910 0 0 0
2019/07/14 15:07:00 BASE 2.22 128 2.83 132 -5.7 89 -7.2 16 0 1007.7 NA 0.0000 9999 5810 0 0 0
2019/07/14 15:08:00 BASE 2.08 139 2.83 132 -5.8 89 -7.4 17 1 1007.7 NA 0.0000 9999 5810 0 0 0
2019/07/14 15:09:00 BASE 1.55 150 2.83 132 -5.9 88 -7.5 17 2 1007.7 NA 0.0000 9999 5840 0 0 0
2019/07/14 15:10:00 BASE 1.73 148 2.83 132 -6.0 88 -7.6 16 2 1007.7 NA 0.0000 9999 5840 0 0 0
2019/07/14 15:11:00 BASE 1.79 138 2.83 132 -6.0 88 -7.6 16 0 1007.7 NA 0.0000 9999 5810 0 0 0
2019/07/14 15:12:00 BASE 0.83 141 2.83 132 -6.0 88 -7.6 16 1 1007.7 NA 0.0000 9999 5840 0 0 0
2019/07/14 15:13:00 BASE 0.32 191 2.83 132 -6.0 88 -7.6 16 1 1007.7 NA 0.0000 9999 5770 0 0 0
2019/07/14 15:14:00 BASE 0.97 233 2.83 132 -5.9 88 -7.6 15 1 1007.7 NA 0.0000 9999 5910 0 0 0
2019/07/14 15:15:00 BASE 1.69 212 2.83 132 -5.9 88 -7.5 15 1 1007.7 NA 0.0000 9999 5840 0 0 0
2019/07/14 15:16:00 BASE 2.00 188 2.83 132 -5.8 88 -7.4 15 1 1007.7 NA 0.0000 9999 5840 0 0 0
2019/07/14 15:17:00 BASE 2.11 172 2.98 169 -5.6 88 -7.2 15 0 1007.7 NA 0.0000 9999 5870 0 0 0
2019/07/14 15:18:00 BASE 1.97 172 3.19 178 -5.5 88 -7.1 15 0 1007.7 NA 0.0000 9999 5840 0 0 0
2019/07/14 15:19:00 BASE 1.15 169 3.19 178 -5.4 88 -7.0 14 2 1007.7 NA 0.0000 9999 0 0 0 0
2019/07/14 15:20:00 BASE 1.20 160 3.19 178 -5.3 88 -7.0 14 0 1007.7 NA 0.0000 9999 5870 0 0 0
2019/07/14 15:21:00 BASE 1.57 152 3.19 178 -5.3 87 -7.1 14 1 1007.7 NA 0.0000 9999 5870 0 0 0
2019/07/14 15:22:00 BASE 0.64 121 3.19 178 -5.2 87 -7.0 14 0 1007.7 NA 0.0000 9999 5710 0 0 0
2019/07/14 15:23:00 BASE 0.05 54 3.19 178 -5.1 87 -6.9 14 3 1007.7 NA 0.0000 9999 0 0 0 0
2019/07/14 15:24:00 BASE 0.11 18 3.19 178 -5.0 87 -6.9 14 2 1007.7 NA 0.0000 9999 5810 0 0 0
2019/07/14 15:25:00 BASE 1.22 14 3.29 18 -4.9 86 -6.8 14 0 1007.7 NA 0.0000 9999 5740 0 0 0
2019/07/14 15:26:00 BASE 2.92 14 3.86 11 -4.9 86 -6.9 14 2 1007.7 NA 0.0000 9999 5640 0 0 0
2019/07/14 15:27:00 BASE 3.52 359 3.96 348 -5.0 85 -7.2 14 0 1007.7 NA 0.0000 9999 5810 0 0 0
2019/07/14 15:28:00 BASE 3.49 345 3.96 350 -5.2 85 -7.4 14 0 1007.7 NA 0.0000 9999 5810 0 0 0
2019/07/14 15:29:00 BASE 3.48 343 3.96 350 -5.4 85 -7.5 14 0 1007.7 NA 0.0000 9999 5810 0 0 0
2019/07/14 15:30:00 BASE 3.39 339 3.96 350 -5.6 86 -7.6 14 0 1007.7 NA 0.0000 9999 0 0 0 0
2019/07/14 15:31:00 BASE 3.20 339 3.96 350 -5.5 87 -7.4 14 0 1007.7 NA 0.0000 9999 5810 0 0 0
2019/07/14 15:32:00 BASE 2.92 341 3.96 350 -5.4 88 -7.1 14 0 1007.7 NA 0.0000 9999 5840 0 0 0
2019/07/14 15:33:00 BASE 3.01 348 3.96 350 -5.3 89 -6.9 14 0 1007.7 NA 0.0000 9999 0 0 0 0
2019/07/14 15:34:00 BASE 3.40 348 3.96 350 -5.3 89 -6.8 14 0 1007.7 NA 0.0000 9999 5840 0 0 0
2019/07/14 15:35:00 BASE 3.22 344 3.96 350 -5.3 89 -6.9 14 0 1007.7 NA 0.0000 9999 5710 0 0 0
2019/07/14 15:36:00 BASE 2.75 350 3.96 350 -5.4 89 -6.9 14 0 1007.7 NA 0.0000 9999 5770 0 0 0
2019/07/14 15:37:00 BASE 2.77 359 3.96 350 -5.5 89 -7.0 15 0 1007.7 NA 0.0000 9999 0 0 0 0
2019/07/14 15:38:00 BASE 2.99 3 3.91 339 -5.5 89 -7.0 15 0 1007.7 NA 0.0000 9999 5810 0 0 0
2019/07/14 15:39:00 BASE 2.91 5 3.91 339 -5.6 89 -7.0 15 0 1007.7 NA 0.0000 9999 5810 0 0 0
2019/07/14 15:40:00 BASE 2.61 10 3.91 339 -5.5 90 -6.9 15 2 1007.7 NA 0.0000 9999 5740 0 0 0
2019/07/14 15:41:00 BASE 2.64 15 3.91 339 -5.5 90 -6.8 15 2 1007.7 NA 0.0000 9999 0 0 0 0
2019/07/14 15:42:00 BASE 2.95 14 3.91 339 -5.5 91 -6.8 15 0 1007.7 NA 0.0000 9999 5840 0 0 0
2019/07/14 15:43:00 BASE 2.95 11 3.91 339 -5.5 91 -6.8 15 2 1007.7 NA 0.0000 9999 5840 0 0 0
2019/07/14 15:44:00 BASE 2.70 11 3.50 8 -5.6 91 -6.8 15 3 1007.7 NA 0.0000 9999 0 0 0 0
2019/07/14 15:45:00 BASE 2.74 14 3.50 8 -5.6 91 -6.8 15 2 1007.7 NA 0.0000 9999 0 0 0 0
2019/07/14 15:46:00 BASE 2.82 17 3.50 8 -5.6 91 -6.8 15 0 1007.7 NA 0.0000 9999 0 0 0 0
2019/07/14 15:47:00 BASE 2.59 25 3.50 8 -5.6 91 -6.8 16 2 1007.7 NA 0.0000 9999 0 0 0 0
2019/07/14 15:48:00 BASE 2.37 34 3.50 8 -5.6 91 -6.8 16 3 1007.7 NA 0.0000 9999 0 0 0 0
2019/07/14 15:49:00 BASE 2.33 37 3.50 8 -5.6 91 -6.8 16 2 1007.7 NA 0.0000 9999 0 0 0 0
2019/07/14 15:50:00 BASE 2.33 43 3.50 8 -5.5 91 -6.8 16 0 1007.7 NA 0.0000 9999 0 0 0 0
2019/07/14 15:51:00 BASE 2.11 51 3.50 8 -5.5 91 -6.7 16 1 1007.7 NA 0.0000 9999 0 0 0 0
2019/07/14 15:52:00 BASE 1.71 53 3.24 8 -5.4 91 -6.7 16 1 1007.6 NA 0.0000 9999 0 0 0 0
2019/07/14 15:53:00 BASE 1.51 47 3.24 8 -5.3 91 -6.6 16 1 1007.6 NA 0.0000 9999 0 0 0 0
2019/07/14 15:54:00 BASE 1.76 44 3.24 8 -5.2 91 -6.5 17 0 1007.6 NA 0.0000 9999 0 0 0 0
2019/07/14 15:55:00 BASE 2.20 52 3.24 8 -5.2 91 -6.5 17 0 1007.6 NA 0.0000 9999 0 0 0 0
2019/07/14 15:56:00 BASE 2.28 58 2.78 62 -5.1 90 -6.5 17 0 1007.6 NA 0.0000 9999 0 0 0 0
2019/07/14 15:57:00 BASE 2.44 70 3.14 70 -5.2 90 -6.6 17 0 1007.6 NA 0.0000 9999 0 0 0 0
2019/07/14 15:58:00 BASE 2.43 69 3.14 70 -5.3 90 -6.7 17 0 1007.6 NA 0.0000 9999 6000 0 0 0
2019/07/14 15:59:00 BASE 1.99 57 3.14 70 -5.3 90 -6.7 17 1 1007.6 NA 0.0000 9999 5940 0 0 0
2019/07/14 16:00:01 BASE 1.29 55 3.14 70 -5.3 90 -6.7 17 0 1007.5 NA 0.0000 9999 5970 0 0 0
2019/07/14 16:01:00 BASE 0.68 54 3.14 70 -5.3 90 -6.7 17 0 1007.5 NA 0.0000 9999 5940 0 0 0
2019/07/14 16:02:00 BASE 1.30 52 3.14 70 -5.2 90 -6.6 17 0 1007.5 NA 0.0000 9999 6000 0 0 0
2019/07/14 16:03:00 BASE 2.04 45 3.14 70 -5.1 90 -6.5 17 0 1007.5 NA 0.0000 9999 5970 0 0 0
2019/07/14 16:04:01 BASE 1.94 35 3.14 70 -5.0 90 -6.4 17 0 1007.5 NA 0.0000 9999 5970 0 0 0
2019/07/14 16:05:01 BASE 1.43 25 3.14 70 -5.0 90 -6.4 17 0 1007.5 NA 0.0000 9999 5970 0 0 0
2019/07/14 16:06:01 BASE 1.05 29 3.14 70 -5.0 90 -6.4 16 0 1007.5 NA 0.0000 9999 5970 0 0 0
2019/07/14 16:07:01 BASE 1.47 38 2.62 40 -5.0 90 -6.4 16 0 1007.5 NA 0.0000 9999 6000 0 0 0
2019/07/14 16:08:01 BASE 2.07 39 2.62 40 -5.0 90 -6.4 16 0 1007.4 NA 0.0000 9999 0 0 0 0
2019/07/14 16:09:01 BASE 2.26 36 2.62 40 -5.1 90 -6.5 16 0 1007.4 NA 0.0000 9999 0 0 0 0
2019/07/14 16:10:01 BASE 2.26 37 2.62 40 -5.1 90 -6.5 16 0 1007.3 NA 0.0000 9999 0 0 0 0
2019/07/14 16:11:01 BASE 2.45 40 2.88 48 -5.1 90 -6.5 16 1 1007.3 NA 0.0000 9999 0 0 0 0
2019/07/14 16:12:01 BASE 2.64 39 2.98 40 -5.1 90 -6.5 16 0 1007.3 NA 0.0000 9999 0 0 0 0
2019/07/14 16:13:01 BASE 2.40 32 2.98 40 -5.2 90 -6.5 16 0 1007.3 NA 0.0000 9999 0 0 0 0
2019/07/14 16:14:01 BASE 2.07 26 2.98 40 -5.2 90 -6.5 16 0 1007.3 NA 0.0000 9999 0 0 0 0
2019/07/14 16:15:01 BASE 2.16 28 2.98 40 -5.3 90 -6.6 16 0 1007.3 NA 0.0000 9999 0 0 0 0
2019/07/14 16:16:01 BASE 2.37 29 2.98 40 -5.3 91 -6.6 16 0 1007.3 NA 0.0000 9999 0 0 0 0
2019/07/14 16:17:01 BASE 2.31 27 2.98 40 -5.4 91 -6.6 16 0 1007.3 NA 0.0000 9999 0 0 0 0
2019/07/14 16:18:01 BASE 2.21 24 2.98 40 -5.4 91 -6.7 16 0 1007.3 NA 0.0000 9999 0 0 0 0
2019/07/14 16:19:01 BASE 2.30 27 2.98 48 -5.5 91 -6.7 16 0 1007.3 NA 0.0000 9999 0 0 0 0
2019/07/14 16:20:01 BASE 2.58 36 2.98 48 -5.5 91 -6.7 16 0 1007.3 NA 0.0000 9999 0 0 0 0
2019/07/14 16:21:01 BASE 2.80 34 3.19 30 -5.5 91 -6.7 16 2 1007.3 NA 0.0000 9999 0 0 0 0
2019/07/14 16:22:01 BASE 2.81 31 3.19 30 -5.6 92 -6.7 16 0 1007.3 NA 0.0000 9999 5910 0 0 0
2019/07/14 16:23:01 BASE 2.71 31 3.19 30 -5.6 92 -6.7 17 0 1007.3 NA 0.0000 9999 5910 0 0 0
2019/07/14 16:24:01 BASE 2.74 27 3.19 22 -5.6 92 -6.6 17 0 1007.3 NA 0.0000 9999 5910 0 0 0
2019/07/14 16:25:01 BASE 3.07 24 3.40 21 -5.6 93 -6.6 17 0 1007.3 NA 0.0000 9999 5840 0 0 0
2019/07/14 16:26:01 BASE 3.20 21 3.40 21 -5.6 93 -6.6 17 0 1007.3 NA 0.0000 9999 5840 0 0 0
2019/07/14 16:27:01 BASE 2.99 27 3.45 35 -5.5 93 -6.5 17 1 1007.3 NA 0.0000 9999 5910 0 0 0
2019/07/14 16:28:01 BASE 2.89 36 3.50 36 -5.5 93 -6.4 17 0 1007.3 NA 0.0000 9999 5940 0 0 0
2019/07/14 16:29:01 BASE 2.80 38 3.50 36 -5.4 94 -6.3 18 0 1007.4 NA 0.0000 9999 5740 0 0 0
2019/07/14 16:30:01 BASE 2.46 35 3.50 36 -5.4 94 -6.2 17 0 1007.5 NA 0.0000 9999 5970 0 0 0
2019/07/14 16:31:01 BASE 2.22 26 3.50 36 -5.3 94 -6.2 17 0 1007.5 NA 0.0000 9999 5770 0 0 0
2019/07/14 16:32:01 BASE 2.18 21 3.50 36 -5.4 93 -6.3 18 0 1007.5 NA 0.0000 9999 5740 0 0 0
2019/07/14 16:33:01 BASE 2.44 22 3.50 36 -5.4 93 -6.3 18 0 1007.5 NA 0.0000 9999 5740 0 0 0
2019/07/14 16:34:01 BASE 2.83 23 3.50 36 -5.4 93 -6.3 18 0 1007.5 NA 0.0000 9999 5710 0 0 0
2019/07/14 16:35:01 BASE 3.05 23 3.50 36 -5.4 93 -6.3 18 0 1007.5 NA 0.0000 9999 5710 0 0 0
2019/07/14 16:36:01 BASE 3.27 27 3.70 35 -5.3 94 -6.2 18 3 1007.5 NA 0.0000 9999 5710 0 0 0
2019/07/14 16:37:01 BASE 3.04 37 3.70 35 -5.3 94 -6.1 18 0 1007.5 NA 0.0000 9999 5680 0 0 0
2019/07/14 16:38:01 BASE 2.71 44 3.70 35 -5.2 94 -6.1 18 2 1007.5 NA 0.0000 9999 5680 0 0 0
2019/07/14 16:39:01 BASE 2.65 43 3.70 35 -5.1 93 -6.0 18 0 1007.5 NA 0.0000 9999 5680 22110 0 0
2019/07/14 16:40:01 BASE 2.77 40 3.70 35 -5.1 93 -6.0 18 0 1007.5 NA 0.0000 9999 5680 0 0 0
2019/07/14 16:41:01 BASE 2.62 41 3.70 35 -5.0 93 -6.0 19 1 1007.5 NA 0.0000 9999 5640 0 0 0
2019/07/14 16:42:01 BASE 2.70 48 3.70 35 -5.0 93 -5.9 20 0 1007.5 NA 0.0000 9999 5640 0 0 0
2019/07/14 16:43:01 BASE 3.04 51 3.70 35 -4.9 93 -5.9 21 0 1007.5 NA 0.0000 9999 5640 0 0 0
2019/07/14 16:44:01 BASE 2.85 51 3.70 35 -4.9 93 -5.9 22 0 1007.5 NA 0.0000 9999 5640 0 0 0
2019/07/14 16:45:01 BASE 2.55 46 3.70 35 -4.9 93 -5.8 23 0 1007.4 NA 0.0000 9999 5640 0 0 0
2019/07/14 16:46:01 BASE 2.54 35 3.55 40 -4.8 93 -5.7 23 0 1007.3 NA 0.0000 9999 5680 0 0 0
2019/07/14 16:47:01 BASE 2.60 29 3.55 40 -4.7 93 -5.6 23 1 1007.3 NA 0.0000 9999 5680 0 0 0
2019/07/14 16:48:01 BASE 2.41 25 3.55 40 -4.6 93 -5.6 23 1 1007.3 NA 0.0000 9999 5740 0 0 0
2019/07/14 16:49:01 BASE 2.20 22 3.55 40 -4.5 93 -5.5 22 0 1007.3 NA 0.0000 9999 5810 0 0 0
2019/07/14 16:50:01 BASE 2.04 20 3.55 40 -4.5 93 -5.4 22 0 1007.3 NA 0.0000 9999 5770 0 0 0
2019/07/14 16:51:01 BASE 1.79 23 3.55 40 -4.5 93 -5.4 22 1 1007.3 NA 0.0000 9999 5740 0 0 0
2019/07/14 16:52:01 BASE 1.59 28 3.55 40 -4.5 93 -5.4 22 0 1007.3 NA 0.0000 9999 5810 0 0 0
2019/07/14 16:53:01 BASE 1.59 26 3.14 52 -4.4 93 -5.4 22 0 1007.3 NA 0.0000 9999 5740 0 0 0
2019/07/14 16:54:01 BASE 1.56 17 3.04 23 -4.4 93 -5.4 22 0 1007.3 NA 0.0000 9999 5870 0 0 0
2019/07/14 16:55:01 BASE 1.65 10 3.04 23 -4.4 93 -5.4 22 0 1007.3 NA 0.0000 9999 5740 0 0 0
2019/07/14 16:56:01 BASE 1.79 8 2.88 24 -4.4 93 -5.4 21 0 1007.3 NA 0.0000 9999 5810 0 0 0
2019/07/14 16:57:01 BASE 1.68 7 2.68 16 -4.4 93 -5.4 21 0 1007.3 NA 0.0000 9999 0 0 0 0
2019/07/14 16:58:01 BASE 1.44 5 2.31 27 -4.4 93 -5.3 21 0 1007.2 NA 0.0000 9999 5840 0 0 0
2019/07/14 16:59:01 BASE 0.98 358 2.16 16 -4.4 93 -5.3 20 0 1007.2 NA 0.0000 9999 5870 0 0 0
2019/07/14 17:00:01 BASE 0.68 358 1.95 7 -4.3 93 -5.3 20 0 1007.2 NA 0.0000 9999 5940 0 0 0
2019/07/14 17:01:01 BASE 0.37 10 1.95 7 -4.3 93 -5.3 20 2 1007.2 NA 0.0000 9999 5940 0 0 0
2019/07/14 17:02:01 BASE 0.21 26 1.95 7 -4.3 93 -5.3 20 0 1007.2 NA 0.0000 9999 0 0 0 0
2019/07/14 17:03:01 BASE 0.93 37 1.95 7 -4.3 92 -5.3 20 0 1007.2 NA 0.0000 9999 0 0 0 0
2019/07/14 17:04:01 BASE 1.47 34 1.95 7 -4.2 92 -5.3 19 0 1007.2 NA 0.0000 9999 5940 0 0 0
2019/07/14 17:05:01 BASE 1.71 32 2.31 39 -4.2 92 -5.3 20 1 1007.2 NA 0.0000 9999 0 0 0 0
2019/07/14 17:06:01 BASE 2.08 36 2.37 36 -4.2 92 -5.3 20 0 1007.2 NA 0.0000 9999 6040 0 0 0
2019/07/14 17:07:00 BASE 2.11 38 2.37 36 -4.3 92 -5.4 20 0 1007.2 NA 0.0000 9999 5970 0 0 0
2019/07/14 17:08:01 BASE 1.92 45 2.37 36 -4.3 92 -5.4 20 2 1007.2 NA 0.0000 9999 5970 0 0 0
2019/07/14 17:09:00 BASE 1.76 51 2.37 36 -4.3 92 -5.3 20 0 1007.2 NA 0.0000 9999 6000 0 0 0
2019/07/14 17:10:00 BASE 1.64 46 2.37 36 -4.2 92 -5.3 20 2 1007.2 NA 0.0000 9999 5970 0 0 0
2019/07/14 17:11:00 BASE 1.67 42 2.37 36 -4.2 93 -5.2 20 2 1007.2 NA 0.0000 9999 6000 0 0 0
2019/07/14 17:12:01 BASE 1.79 51 2.37 36 -4.1 93 -5.2 20 3 1007.1 NA 0.0000 9999 6000 0 0 0
2019/07/14 17:13:00 BASE 2.03 64 2.37 36 -4.1 93 -5.1 19 1 1007.1 NA 0.0000 9999 6000 0 0 0
2019/07/14 17:14:00 BASE 2.10 73 2.37 36 -4.1 92 -5.2 19 0 1007.1 NA 0.0000 9999 5910 0 0 0
2019/07/14 17:15:00 BASE 1.96 84 2.37 36 -4.1 92 -5.2 19 2 1007.0 NA 0.0000 9999 5870 0 0 0
2019/07/14 17:16:00 BASE 1.82 98 2.26 74 -4.1 92 -5.2 18 0 1007.0 NA 0.0000 9999 5940 0 0 0
2019/07/14 17:17:00 BASE 1.78 111 2.26 74 -4.0 92 -5.1 18 1 1007.0 NA 0.0000 9999 5910 0 0 0
2019/07/14 17:18:00 BASE 2.00 123 2.42 131 -4.0 92 -5.1 17 1 1007.0 NA 0.0000 9999 5970 0 0 0
2019/07/14 17:19:00 BASE 2.41 131 3.09 134 -4.2 92 -5.3 17 2 1007.0 NA 0.0000 9999 5970 0 0 0
2019/07/14 17:20:01 BASE 2.94 133 3.40 131 -4.4 92 -5.5 17 1 1007.0 NA 0.0000 9999 0 0 0 0
2019/07/14 17:21:01 BASE 3.40 135 3.81 138 -4.5 92 -5.6 16 0 1007.0 NA 0.0000 9999 6100 0 0 0
2019/07/14 17:22:00 BASE 3.79 134 4.37 131 -4.7 92 -5.7 16 0 1007.0 NA 0.0000 9999 6000 0 0 0
2019/07/14 17:23:00 BASE 4.11 127 4.63 125 -4.8 93 -5.8 15 2 1007.1 NA 0.0000 9999 0 0 0 0
2019/07/14 17:24:00 BASE 4.04 125 4.63 125 -4.8 93 -5.8 15 2 1007.0 NA 0.0000 9999 6000 0 0 0
2019/07/14 17:25:00 BASE 3.72 126 4.63 125 -4.8 94 -5.6 14 2 1007.0 NA 0.0000 9999 6040 0 0 0
2019/07/14 17:26:00 BASE 3.55 132 4.63 125 -4.8 94 -5.6 14 2 1007.0 NA 0.0000 9999 6100 0 0 0
2019/07/14 17:27:00 BASE 4.26 142 5.61 147 -4.8 95 -5.5 14 2 1006.9 NA 0.0000 9999 0 0 0 0
2019/07/14 17:28:01 BASE 5.41 147 6.17 153 -4.9 95 -5.6 13 0 1006.9 NA 0.0000 9999 0 0 0 0
2019/07/14 17:29:00 BASE 5.78 151 6.17 153 -5.0 95 -5.7 13 2 1006.8 NA 0.0000 9999 0 0 0 0
2019/07/14 17:30:00 BASE 5.85 149 6.38 145 -5.1 95 -5.8 13 2 1006.7 NA 0.0000 9999 0 0 0 0
2019/07/14 17:31:00 BASE 6.25 142 6.79 128 -5.3 95 -6.0 13 2 1006.7 NA 0.0000 9999 0 0 0 0
2019/07/14 17:32:01 BASE 6.65 133 7.31 129 -5.4 95 -6.0 13 2 1006.7 NA 0.0000 9999 0 0 0 0
2019/07/14 17:33:00 BASE 6.48 129 7.31 129 -5.4 96 -5.9 13 0 1006.8 NA 0.0000 9999 7050 0 0 0
2019/07/14 17:34:00 BASE 6.28 131 7.31 129 -5.3 97 -5.7 12 0 1006.8 NA 0.0000 9999 7090 0 0 0
2019/07/14 17:35:00 BASE 5.65 127 7.31 129 -5.2 97 -5.5 12 0 1006.7 NA 0.0000 9999 6990 0 0 0
2019/07/14 17:36:00 BASE 4.73 119 7.31 129 -5.1 98 -5.4 12 0 1006.7 NA 0.0000 9999 6860 0 0 0
2019/07/14 17:37:00 BASE 4.59 113 7.31 129 -4.9 98 -5.2 12 0 1006.7 NA 0.0000 9999 6890 0 0 0
2019/07/14 17:38:00 BASE 4.30 110 7.31 129 -4.9 98 -5.2 12 0 1006.7 NA 0.0000 9999 6860 0 0 0
2019/07/14 17:39:00 BASE 3.95 115 7.31 129 -4.9 98 -5.2 12 0 1006.7 NA 0.0000 9999 6860 0 0 0
2019/07/14 17:40:00 BASE 4.06 125 7.31 129 -4.9 98 -5.2 12 0 1006.6 NA 0.0000 9999 6790 0 0 0
2019/07/14 17:41:00 BASE 4.33 132 7.31 129 -5.0 98 -5.3 11 0 1006.7 NA 0.0000 9999 6790 0 0 0
2019/07/14 17:42:00 BASE 4.36 125 7.25 125 -5.2 98 -5.5 11 1 1006.7 NA 0.0000 9999 6790 0 0 0
2019/07/14 17:43:00 BASE 4.02 117 7.25 125 -5.4 97 -5.7 11 0 1006.6 NA 0.0000 9999 6760 0 0 0
2019/07/14 17:44:00 BASE 3.88 119 5.92 132 -5.6 97 -5.9 11 0 1006.6 NA 0.0000 9999 6730 0 0 0
2019/07/14 17:45:00 BASE 4.02 120 5.20 108 -5.7 97 -6.0 11 0 1006.6 NA 0.0000 9999 6760 0 0 0
2019/07/14 17:46:00 BASE 4.21 113 5.20 108 -5.7 98 -6.0 10 0 1006.6 NA 0.0000 9999 6790 0 0 0
2019/07/14 17:47:00 BASE 4.55 106 5.20 107 -5.6 98 -5.8 10 0 1006.6 NA 0.0000 9999 6790 0 0 0
2019/07/14 17:48:00 BASE 4.78 106 5.20 107 -5.5 99 -5.7 10 2 1006.6 NA 0.0000 9999 6790 0 0 0
2019/07/14 17:49:00 BASE 4.49 107 5.20 107 -5.4 99 -5.6 10 1 1006.6 NA 0.0000 9999 6820 0 0 0
2019/07/14 17:50:00 BASE 3.67 112 5.20 107 -5.3 99 -5.5 10 0 1006.6 NA 0.0000 9999 6820 0 0 0
2019/07/14 17:51:00 BASE 3.10 127 5.20 107 -5.2 98 -5.4 10 0 1006.2 NA 0.0000 9999 6760 0 0 0
2019/07/14 17:52:00 BASE 2.51 137 5.20 107 -5.2 98 -5.4 9 2 1006.1 NA 0.0000 9999 6860 0 0 0
2019/07/14 17:53:00 BASE 1.87 121 5.20 107 -5.2 98 -5.5 9 0 1006.7 NA 0.0000 9999 6460 0 0 0
2019/07/14 17:54:00 BASE 1.88 91 5.20 107 -5.2 97 -5.5 9 2 1006.7 NA 0.0000 9999 6790 0 0 0
2019/07/14 17:55:00 BASE 1.79 87 5.20 107 -5.1 97 -5.5 9 0 1006.6 NA 0.0000 9999 6890 0 0 0
2019/07/14 17:56:00 BASE 1.89 114 5.20 107 -5.1 97 -5.5 9 0 1006.6 NA 0.0000 9999 6820 0 0 0
2019/07/14 17:57:00 BASE 2.62 134 5.14 105 -5.0 97 -5.4 9 0 1006.6 NA 0.0000 9999 6890 0 0 0
2019/07/14 17:58:00 BASE 2.90 133 4.68 110 -4.9 96 -5.3 8 2 1006.6 NA 0.0000 9999 6860 0 0 0
2019/07/14 17:59:00 BASE 2.72 119 3.76 134 -4.8 96 -5.4 8 2 1006.6 NA 0.0000 9999 6860 0 0 0
2019/07/14 18:00:00 BASE 2.52 105 3.76 134 -4.9 95 -5.5 8 0 1006.6 NA 0.0000 9999 6860 0 0 0
2019/07/14 18:01:00 BASE 2.53 113 3.76 134 -5.0 95 -5.6 8 0 1006.6 NA 0.0000 9999 6760 0 0 0
2019/07/14 18:02:00 BASE 3.05 127 3.76 134 -5.1 95 -5.8 8 1 1006.6 NA 0.0000 9999 6730 0 0 0
2019/07/14 18:03:00 BASE 3.30 135 3.76 134 -5.2 94 -5.9 8 0 1006.6 NA 0.0000 9999 6790 0 0 0
2019/07/14 18:04:00 BASE 2.23 140 3.76 134 -5.3 94 -6.1 8 2 1006.6 NA 0.0000 9999 0 0 0 0
2019/07/14 18:05:00 BASE 1.36 138 3.76 134 -5.3 94 -6.0 8 0 1006.6 NA 0.0000 9999 6890 0 0 0
2019/07/14 18:06:00 BASE 0.93 132 3.76 134 -5.3 94 -6.0 8 1 1006.6 NA 0.0000 9999 6820 0 0 0
2019/07/14 18:07:00 BASE 1.13 144 3.76 134 -5.2 95 -5.9 8 1 1006.6 NA 0.0000 9999 5870 6820 0 0
2019/07/14 18:08:00 BASE 1.98 155 3.70 130 -5.1 95 -5.8 8 2 1006.6 NA 0.0000 9999 6890 0 0 0
2019/07/14 18:09:00 BASE 2.04 153 3.70 130 -5.0 95 -5.7 8 0 1006.6 NA 0.0000 9999 6990 0 0 0
2019/07/14 18:10:00 BASE 2.02 150 3.70 130 -4.9 94 -5.7 8 0 1006.6 NA 0.0000 9999 6990 0 0 0
2019/07/14 18:11:00 BASE 2.22 139 3.70 130 -4.9 94 -5.7 8 1 1006.6 NA 0.0000 9999 5870 6920 0 0
2019/07/14 18:12:00 BASE 2.63 127 3.65 132 -4.9 93 -5.8 8 1 1006.6 NA 0.0000 9999 6920 0 0 0
2019/07/14 18:13:00 BASE 2.87 115 3.81 119 -4.9 93 -5.8 8 0 1006.6 NA 0.0000 9999 5680 6860 0 0
2019/07/14 18:14:00 BASE 2.59 106 3.81 119 -4.8 93 -5.8 8 2 1006.6 NA 0.0000 9999 6960 0 0 0
2019/07/14 18:15:00 BASE 2.57 114 3.81 119 -4.8 93 -5.8 8 2 1006.6 NA 0.0000 9999 6820 0 0 0
2019/07/14 18:16:00 BASE 2.84 137 3.81 119 -4.8 92 -5.9 8 0 1006.5 NA 0.0000 9999 5680 6820 0 0
2019/07/14 18:17:01 BASE 2.42 136 3.81 119 -4.8 92 -5.9 8 2 1006.5 NA 0.0000 9999 6730 0 0 0
2019/07/14 18:18:00 BASE 2.45 116 3.81 119 -4.9 91 -6.1 8 0 1006.6 NA 0.0000 9999 5580 0 0 0
2019/07/14 18:19:00 BASE 3.02 105 3.81 119 -5.0 91 -6.3 7 0 1006.6 NA 0.0000 9999 5610 6820 0 0
2019/07/14 18:20:00 BASE 3.23 103 3.81 123 -5.1 90 -6.5 7 2 1006.6 NA 0.0000 9999 5540 6790 0 0
2019/07/14 18:21:00 BASE 3.39 114 3.81 130 -5.2 90 -6.5 7 1 1006.6 NA 0.0000 9999 5510 0 0 0
2019/07/14 18:22:00 BASE 2.89 125 3.81 130 -5.1 90 -6.5 7 0 1006.5 NA 0.0000 9999 6790 0 0 0
2019/07/14 18:23:00 BASE 2.59 138 3.81 130 -5.1 90 -6.4 7 2 1006.4 NA 0.0000 9999 6760 0 0 0
2019/07/14 18:24:00 BASE 2.84 145 3.81 130 -5.0 90 -6.4 7 1 1006.2 NA 0.0000 9999 5450 6890 0 0
2019/07/14 18:25:00 BASE 2.81 150 3.81 130 -4.9 90 -6.3 6 2 1006.4 NA 0.0000 9999 5870 6760 0 0
2019/07/14 18:26:00 BASE 2.68 146 3.81 130 -4.9 90 -6.3 6 1 1006.4 NA 0.0000 9999 5680 6760 0 0
2019/07/14 18:27:00 BASE 2.44 137 3.81 130 -4.9 90 -6.2 6 0 1006.4 NA 0.0000 9999 5540 6790 0 0
2019/07/14 18:28:00 BASE 2.46 134 3.81 130 -4.8 90 -6.2 6 1 1006.3 NA 0.0000 9999 5540 0 0 0
2019/07/14 18:29:00 BASE 2.42 138 3.81 130 -4.8 90 -6.2 6 1 1006.3 NA 0.0000 9999 5480 0 0 0
2019/07/14 18:30:00 BASE 2.13 137 3.81 130 -4.7 90 -6.1 5 1 1006.3 NA 0.0000 9999 5580 0 0 0
2019/07/14 18:31:00 BASE 2.06 121 3.29 128 -4.6 90 -6.0 5 2 1006.3 NA 0.0000 9999 5580 0 0 0
2019/07/14 18:32:00 BASE 1.80 98 3.29 128 -4.5 91 -5.8 5 0 1006.3 NA 0.0000 9999 5680 6860 0 0
2019/07/14 18:33:00 BASE 1.63 102 3.29 128 -4.4 91 -5.7 5 1 1006.2 NA 0.0000 9999 0 0 0 0
2019/07/14 18:34:00 BASE 1.89 133 3.29 128 -4.3 91 -5.6 4 2 1006.1 NA 0.0000 9999 0 0 0 0
2019/07/14 18:35:00 BASE 1.93 150 3.29 128 -4.2 91 -5.5 4 2 1006.1 NA 0.0000 9999 0 0 0 0
2019/07/14 18:36:00 BASE 0.86 137 3.29 128 -4.2 90 -5.5 4 0 1006.2 NA 0.0000 9999 0 0 0 0
2019/07/14 18:37:00 BASE 0.76 46 3.29 128 -4.2 90 -5.6 4 0 1006.2 NA 0.0000 9999 0 0 0 0
2019/07/14 18:38:00 BASE 1.24 355 2.52 153 -4.3 89 -5.8 4 2 1006.1 NA 0.0000 9999 0 0 0 0
2019/07/14 18:39:00 BASE 0.48 22 2.47 124 -4.4 89 -6.0 4 2 1006.1 NA 0.0000 9999 5380 0 0 0
2019/07/14 18:40:00 BASE 0.00 49 2.37 160 -4.5 89 -6.1 4 2 1006.1 NA 0.0000 9999 5320 0 0 0
2019/07/14 18:41:00 BASE 0.80 5 2.37 160 -4.6 89 -6.2 4 2 1006.1 NA 0.0000 9999 5120 6890 0 0
2019/07/14 18:42:00 BASE 1.92 336 2.52 333 -4.7 89 -6.2 4 0 1006.1 NA 0.0000 9999 5220 6920 0 0
2019/07/14 18:43:00 BASE 2.11 327 2.52 333 -4.7 89 -6.1 3 2 1006.1 NA 0.0000 9999 5090 6990 0 0
2019/07/14 18:44:00 BASE 2.21 323 2.78 329 -4.6 90 -6.0 3 0 1006.1 NA 0.0000 9999 5180 6960 0 0
2019/07/14 18:45:00 BASE 2.93 332 3.81 3 -4.6 90 -6.0 3 0 1006.1 NA 0.0000 9999 5250 0 0 0
2019/07/14 18:46:00 BASE 3.76 335 4.78 326 -4.7 90 -6.0 3 0 1006.1 NA 0.0000 9999 5220 0 0 0
2019/07/14 18:47:00 BASE 4.02 325 4.78 326 -4.7 91 -6.0 3 0 1006.1 NA 0.0000 9999 5180 0 0 0
2019/07/14 18:48:00 BASE 3.49 325 4.78 326 -4.8 91 -6.0 3 0 1006.2 NA 0.0000 9999 5280 0 0 0
2019/07/14 18:49:00 BASE 3.25 338 4.78 326 -4.8 92 -5.9 3 0 1006.3 NA 0.0000 9999 5090 0 0 0
2019/07/14 18:50:00 BASE 3.92 342 5.81 331 -4.8 93 -5.8 2 0 1006.2 NA 0.0000 9999 5090 0 0 0
2019/07/14 18:51:00 BASE 5.27 334 6.38 332 -4.8 94 -5.7 2 0 1006.1 NA 0.0000 9999 5180 0 0 0
2019/07/14 18:52:00 BASE 5.94 332 6.38 332 -4.8 95 -5.5 2 0 1006.1 NA 0.0000 9999 5220 0 0 0
2019/07/14 18:53:00 BASE 5.26 335 6.38 332 -4.8 96 -5.4 2 0 1006.2 NA 0.0000 9999 5150 0 0 0
2019/07/14 18:54:00 BASE 4.76 339 6.38 332 -4.8 96 -5.3 2 0 1006.3 NA 0.0000 9999 5180 0 0 0
2019/07/14 18:55:00 BASE 5.14 345 6.38 332 -4.7 97 -5.1 2 0 1006.3 NA 0.0000 9999 5250 0 0 0
2019/07/14 18:56:00 BASE 5.54 345 6.38 332 -4.7 97 -5.0 2 0 1006.2 NA 0.0000 9999 5150 0 0 0
2019/07/14 18:57:00 BASE 4.84 348 6.38 332 -4.7 98 -4.9 2 0 1006.2 NA 0.0000 9999 5250 0 0 0
2019/07/14 18:58:00 BASE 4.07 353 6.38 332 -4.6 98 -4.9 2 0 1006.3 NA 0.0000 9999 5150 0 0 0
2019/07/14 18:59:00 BASE 4.45 355 6.38 332 -4.6 99 -4.8 2 0 1006.3 NA 0.0000 9999 5250 0 0 0
2019/07/14 19:00:00 BASE 4.63 353 6.38 332 -4.6 99 -4.7 1 0 1006.3 NA 0.0000 9999 5320 0 0 0
2019/07/14 19:01:00 BASE 4.16 351 6.22 344 -4.5 99 -4.7 1 0 1006.3 NA 0.0000 9999 5250 0 0 0
2019/07/14 19:02:00 BASE 3.35 359 6.22 344 -4.5 99 -4.6 1 0 1006.3 NA 0.0000 9999 5220 0 0 0
2019/07/14 19:03:00 BASE 2.26 14 6.22 344 -4.5 99 -4.6 1 0 1006.3 NA 0.0000 9999 5350 0 0 0
2019/07/14 19:04:00 BASE 1.33 35 6.22 344 -4.5 99 -4.6 1 0 1006.3 NA 0.0000 9999 5380 0 0 0
2019/07/14 19:05:00 BASE 0.83 25 6.22 344 -4.5 99 -4.6 1 0 1006.3 NA 0.0000 9999 5250 0 0 0
2019/07/14 19:06:00 BASE 1.02 355 5.04 355 -4.5 99 -4.6 1 0 1006.3 NA 0.0000 9999 5280 0 0 0
2019/07/14 19:07:00 BASE 0.80 342 5.04 355 -4.5 99 -4.6 1 0 1006.3 NA 0.0000 9999 5280 0 0 0
2019/07/14 19:08:00 BASE 0.75 346 5.04 355 -4.5 99 -4.6 1 0 1006.3 NA 0.0000 9999 5120 0 0 0
2019/07/14 19:09:00 BASE 1.41 4 4.89 349 -4.5 99 -4.6 1 0 1006.3 NA 0.0000 9999 5280 0 0 0
2019/07/14 19:10:00 BASE 1.94 5 4.68 351 -4.4 99 -4.6 1 0 1006.3 NA 0.0000 9999 5180 0 0 0
2019/07/14 19:11:00 BASE 2.09 8 3.60 360 -4.4 98 -4.6 1 0 1006.3 NA 0.0000 9999 5150 0 0 0
2019/07/14 19:12:00 BASE 2.36 18 3.34 1 -4.4 98 -4.6 1 0 1006.3 NA 0.0000 9999 5220 0 0 0
2019/07/14 19:13:00 BASE 2.82 10 3.34 1 -4.3 98 -4.6 1 0 1006.2 NA 0.0000 9999 5150 0 0 0
2019/07/14 19:14:00 BASE 2.71 0 3.34 1 -4.3 98 -4.6 1 0 1006.1 NA 0.0000 9999 5150 0 0 0
2019/07/14 19:15:00 BASE 1.82 1 3.34 1 -4.2 97 -4.6 1 0 1006.1 NA 0.0000 9999 5320 0 0 0
2019/07/14 19:16:00 BASE 1.00 5 3.34 1 -4.2 97 -4.7 1 0 1006.1 NA 0.0000 9999 5320 0 0 0
2019/07/14 19:17:00 BASE 1.11 12 3.34 1 -4.2 96 -4.7 1 0 1006.1 NA 0.0000 9999 5180 0 0 0
2019/07/14 19:18:00 BASE 0.72 14 3.34 1 -4.2 96 -4.7 1 0 1006.1 NA 0.0000 9999 5320 0 0 0
2019/07/14 19:19:00 BASE 0.85 7 3.34 1 -4.2 96 -4.8 1 0 1006.1 NA 0.0000 9999 5280 0 0 0
2019/07/14 19:20:00 BASE 2.09 1 3.34 1 -4.1 95 -4.8 1 0 1006.1 NA 0.0000 9999 5350 0 0 0
2019/07/14 19:21:00 BASE 2.62 359 3.34 1 -4.1 95 -4.8 0 0 1006.2 NA 0.0000 9999 5380 0 0 0
2019/07/14 19:22:00 BASE 2.40 353 3.19 5 -4.1 95 -4.9 0 0 1006.2 NA 0.0000 9999 5450 0 0 0
2019/07/14 19:23:00 BASE 1.98 348 3.04 351 -4.1 94 -4.9 0 0 1006.1 NA 0.0000 9999 5380 0 0 0
2019/07/14 19:24:00 BASE 1.74 344 3.04 351 -4.1 94 -4.9 0 0 1006.1 NA 0.0000 9999 5410 0 0 0
2019/07/14 19:25:00 BASE 2.51 346 3.60 349 -4.1 94 -4.9 0 0 1006.1 NA 0.0000 9999 5450 0 0 0
2019/07/14 19:26:00 BASE 3.38 359 3.60 11 -4.1 94 -4.9 0 0 1006.1 NA 0.0000 9999 5410 0 0 0
2019/07/14 19:27:00 BASE 3.38 10 3.60 13 -4.1 94 -5.0 0 0 1006.1 NA 0.0000 9999 5480 0 0 0
2019/07/14 19:28:00 BASE 2.84 10 3.60 13 -4.1 93 -5.0 0 0 1006.1 NA 0.0000 9999 5510 0 0 0
2019/07/14 19:29:00 BASE 2.16 1 3.60 13 -4.1 93 -5.1 0 0 1006.1 NA 0.0000 9999 5480 0 0 0
2019/07/14 19:30:00 BASE 2.11 4 3.60 13 -4.1 93 -5.1 0 0 1006.1 NA 0.0000 9999 5480 0 0 0
2019/07/14 19:31:00 BASE 2.53 24 3.60 13 -4.2 93 -5.1 0 0 1006.1 NA 0.0000 9999 5580 0 0 0
2019/07/14 19:32:00 BASE 2.22 34 3.60 13 -4.2 93 -5.2 0 0 1006.1 NA 0.0000 9999 5480 0 0 0
2019/07/14 19:33:00 BASE 1.27 356 3.60 13 -4.2 93 -5.1 0 0 1006.1 NA 0.0000 9999 5610 0 0 0
2019/07/14 19:34:00 BASE 1.38 330 3.60 13 -4.2 93 -5.1 0 0 1006.1 NA 0.0000 9999 5510 0 0 0
2019/07/14 19:35:00 BASE 1.82 352 3.60 13 -4.2 94 -5.1 0 0 1006.1 NA 0.0000 9999 5540 0 0 0
2019/07/14 19:36:00 BASE 1.41 359 3.60 13 -4.2 94 -5.0 0 0 1006.1 NA 0.0000 9999 5510 0 0 0
2019/07/14 19:37:00 BASE 0.56 3 2.78 40 -4.1 94 -5.0 0 0 1005.9 NA 0.0000 9999 5580 0 0 0
2019/07/14 19:38:00 BASE 0.29 324 2.78 40 -4.0 94 -4.9 0 0 1005.9 NA 0.0000 9999 5540 0 0 0
2019/07/14 19:39:00 BASE 0.29 309 2.78 40 -4.0 93 -4.9 0 0 1005.9 NA 0.0000 9999 5540 0 0 0
2019/07/14 19:40:00 BASE 0.00 344 2.78 40 -3.9 93 -4.9 0 0 1005.9 NA 0.0000 9999 5480 0 0 0
2019/07/14 19:41:00 BASE 0.66 1 2.68 340 -3.8 92 -5.0 0 0 1005.9 NA 0.0000 9999 5480 0 0 0
2019/07/14 19:42:00 BASE 1.10 22 2.68 340 -3.8 91 -5.0 0 0 1005.9 NA 0.0000 9999 5610 0 0 0
2019/07/14 19:43:00 BASE 0.84 359 2.68 340 -3.8 91 -5.1 0 0 1005.9 NA 0.0000 9999 5640 0 0 0
2019/07/14 19:44:00 BASE 1.27 316 2.26 360 -3.8 90 -5.2 0 0 1005.9 NA 0.0000 9999 5640 0 0 0
2019/07/14 19:45:00 BASE 1.48 340 1.95 315 -3.8 89 -5.3 0 0 1005.9 NA 0.0000 9999 5680 0 0 0
2019/07/14 19:46:00 BASE 1.24 36 2.06 52 -3.8 89 -5.3 0 0 1005.9 NA 0.0000 9999 5610 0 0 0
2019/07/14 19:47:00 BASE 1.09 58 2.16 232 -3.8 89 -5.4 0 0 1005.8 NA 0.0000 9999 5540 0 0 0
2019/07/14 19:48:00 BASE 1.38 224 2.21 229 -3.7 88 -5.4 0 0 1005.7 NA 0.0000 9999 5640 0 0 0
2019/07/14 19:49:00 BASE 1.22 182 2.21 229 -3.8 88 -5.5 0 0 1005.8 NA 0.0000 9999 5640 0 0 0
2019/07/14 19:50:00 BASE 0.35 140 2.21 229 -3.8 88 -5.5 0 0 1005.8 NA 0.0000 9999 5610 0 0 0
2019/07/14 19:51:00 BASE 0.47 150 2.21 229 -3.8 88 -5.5 0 0 1005.8 NA 0.0000 9999 5640 0 0 0
2019/07/14 19:52:00 BASE 1.50 154 2.73 153 -3.8 88 -5.5 0 0 1005.8 NA 0.0000 9999 5640 0 0 0
2019/07/14 19:53:00 BASE 2.46 158 2.98 174 -3.8 88 -5.6 0 0 1005.8 NA 0.0000 9999 5680 0 0 0
2019/07/14 19:54:00 BASE 2.34 170 2.98 174 -3.9 88 -5.6 0 0 1005.8 NA 0.0000 9999 5680 0 0 0
2019/07/14 19:55:00 BASE 1.42 143 2.98 174 -3.9 88 -5.6 0 0 1005.8 NA 0.0000 9999 5640 0 0 0
2019/07/14 19:56:00 BASE 1.04 107 2.98 174 -3.9 88 -5.6 0 0 1005.7 NA 0.0000 9999 5680 0 0 0
2019/07/14 19:57:00 BASE 1.05 136 2.98 174 -3.9 88 -5.5 0 0 1005.7 NA 0.0000 9999 5640 0 0 0
2019/07/14 19:58:00 BASE 1.31 169 2.98 174 -3.9 88 -5.5 0 0 1005.6 NA 0.0000 9999 5680 0 0 0
2019/07/14 19:59:00 BASE 2.21 179 3.09 183 -3.8 88 -5.5 0 0 1005.6 NA 0.0000 9999 5680 0 0 0
2019/07/14 20:00:00 BASE 2.95 181 3.34 170 -3.7 88 -5.4 0 0 1005.6 NA 0.0000 9999 5680 0 0 0
2019/07/14 20:01:00 BASE 2.98 165 3.40 154 -3.7 88 -5.5 0 0 1005.6 NA 0.0000 9999 5580 0 0 0
2019/07/14 20:02:00 BASE 2.37 166 3.40 154 -3.7 87 -5.5 0 0 1005.6 NA 0.0000 9999 5680 0 0 0
2019/07/14 20:03:00 BASE 1.78 197 3.40 154 -3.6 87 -5.5 0 0 1005.6 NA 0.0000 9999 5710 0 0 0
2019/07/14 20:04:00 BASE 1.40 223 3.40 154 -3.6 87 -5.5 0 0 1005.5 NA 0.0000 9999 5640 0 0 0
2019/07/14 20:05:00 BASE 1.34 229 3.40 154 -3.5 87 -5.4 0 0 1005.6 NA 0.0000 9999 5680 0 0 0
2019/07/14 20:06:00 BASE 2.04 230 3.40 154 -3.5 87 -5.4 0 0 1005.6 NA 0.0000 9999 5710 0 0 0
2019/07/14 20:07:00 BASE 2.79 233 3.40 154 -3.5 87 -5.4 0 0 1005.6 NA 0.0000 9999 5710 0 0 0
2019/07/14 20:08:00 BASE 2.97 242 3.40 154 -3.5 87 -5.4 0 0 1005.6 NA 0.0000 9999 5740 0 0 0
2019/07/14 20:09:00 BASE 3.45 270 4.53 288 -3.6 88 -5.3 0 0 1005.6 NA 0.0000 9999 5710 0 0 0
2019/07/14 20:10:00 BASE 4.21 296 4.68 302 -3.7 89 -5.3 0 0 1005.7 NA 0.0000 9999 5710 0 0 0
2019/07/14 20:11:00 BASE 4.35 302 4.68 302 -3.8 90 -5.2 0 0 1005.7 NA 0.0000 9999 5740 0 0 0
2019/07/14 20:12:00 BASE 4.31 303 4.68 302 -3.8 91 -5.0 0 0 1005.7 NA 0.0000 9999 5770 0 0 0
2019/07/14 20:13:00 BASE 4.19 299 4.68 302 -3.8 93 -4.8 0 0 1005.7 NA 0.0000 9999 5810 0 0 0
2019/07/14 20:14:00 BASE 4.12 297 4.68 302 -3.8 94 -4.6 0 0 1005.7 NA 0.0000 9999 5770 0 0 0
2019/07/14 20:15:00 BASE 4.14 312 4.68 302 -3.8 96 -4.4 0 0 1005.8 NA 0.0000 9999 5770 0 0 0
2019/07/14 20:16:00 BASE 3.99 328 4.68 302 -3.8 97 -4.2 0 0 1005.8 NA 0.0000 9999 5770 0 0 0
2019/07/14 20:17:00 BASE 4.05 336 4.68 340 -3.8 98 -4.0 0 0 1005.9 NA 0.0000 9999 5870 0 0 0
2019/07/14 20:18:00 BASE 4.35 341 4.89 339 -3.8 99 -3.9 0 0 1005.8 NA 0.0000 9999 5810 0 0 0
2019/07/14 20:19:00 BASE 4.71 340 5.71 337 -3.8 99 -3.9 0 0 1005.8 NA 0.0000 9999 5910 0 0 0
2019/07/14 20:20:00 BASE 5.33 341 6.02 337 -3.9 100 -3.9 0 0 1005.8 NA 0.0000 9999 5870 0 0 0
2019/07/14 20:21:00 BASE 5.55 343 6.02 341 -3.9 100 -3.9 0 0 1005.8 NA 0.0000 9999 5970 0 0 0
2019/07/14 20:22:00 BASE 5.45 340 6.02 341 -4.0 100 -4.0 0 0 1005.8 NA 0.0000 9999 6040 0 0 0
2019/07/14 20:23:00 BASE 5.27 340 6.02 341 -4.0 100 -4.0 0 0 1005.8 NA 0.0000 9999 6040 0 0 0
2019/07/14 20:24:00 BASE 4.54 353 6.02 341 -4.0 100 -4.0 0 0 1005.8 NA 0.0000 9999 6170 0 0 0
2019/07/14 20:25:00 BASE 4.32 357 6.02 341 -4.0 100 -4.0 0 0 1005.8 NA 0.0000 9999 6140 0 0 0
2019/07/14 20:26:00 BASE 4.86 349 6.02 341 -4.0 100 -4.0 0 0 1005.7 NA 0.0000 9999 6000 0 0 0
2019/07/14 20:27:00 BASE 4.96 348 6.02 341 -3.9 100 -3.9 0 0 1005.7 NA 0.0000 9999 5910 0 0 0
2019/07/14 20:28:00 BASE 4.93 346 6.02 341 -3.9 100 -3.9 0 0 1005.7 NA 0.0000 9999 5840 0 0 0
2019/07/14 20:29:00 BASE 5.21 343 6.12 341 -3.9 100 -3.9 0 0 1005.7 NA 0.0000 9999 5970 0 0 0
2019/07/14 20:30:00 BASE 5.72 341 6.33 337 -3.8 100 -3.8 0 0 1005.7 NA 0.0000 9999 5970 0 0 0
2019/07/14 20:31:00 BASE 5.80 341 6.33 337 -3.8 100 -3.8 0 0 1005.6 NA 0.0000 9999 5870 0 0 0
2019/07/14 20:32:00 BASE 5.00 351 6.33 337 -3.8 100 -3.8 0 0 1005.6 NA 0.0000 9999 5970 0 0 0
2019/07/14 20:33:00 BASE 3.96 1 6.33 337 -3.8 100 -3.8 0 0 1005.7 NA 0.0000 9999 5940 0 0 0
2019/07/14 20:34:00 BASE 2.98 7 6.33 337 -3.8 100 -3.8 0 0 1005.7 NA 0.0000 9999 5970 0 0 0
2019/07/14 20:35:00 BASE 2.11 13 6.33 337 -3.8 100 -3.8 0 0 1005.7 NA 0.0000 9999 5970 0 0 0
2019/07/14 20:36:00 BASE 0.96 32 6.33 337 -3.8 100 -3.8 0 0 1005.7 NA 0.0000 9999 5970 0 0 0
2019/07/14 20:37:00 BASE 0.22 54 6.33 337 -3.8 100 -3.8 0 0 1005.7 NA 0.0000 9999 6040 0 0 0
2019/07/14 20:38:00 BASE 0.77 55 6.33 337 -3.7 100 -3.7 0 0 1005.6 NA 0.0000 9999 6040 0 0 0
2019/07/14 20:39:00 BASE 1.79 41 6.33 337 -3.7 100 -3.7 0 0 1005.6 NA 0.0000 9999 5970 0 0 0
2019/07/14 20:40:00 BASE 2.34 28 6.02 341 -3.7 100 -3.7 0 0 1005.6 NA 0.0000 9999 5970 0 0 0
2019/07/14 20:41:00 BASE 2.56 20 5.14 352 -3.6 100 -3.6 0 0 1005.6 NA 0.0000 9999 6000 0 0 0
2019/07/14 20:42:00 BASE 2.48 15 3.76 5 -3.6 100 -3.6 0 0 1005.6 NA 0.0000 9999 6000 0 0 0
2019/07/14 20:43:00 BASE 2.01 16 3.09 2 -3.5 99 -3.6 0 0 1005.6 NA 0.0000 9999 6040 0 0 0
2019/07/14 20:44:00 BASE 0.95 29 2.98 12 -3.5 99 -3.7 0 0 1005.6 NA 0.0000 9999 6140 0 0 0
2019/07/14 20:45:00 BASE 0.09 13 2.98 12 -3.5 98 -3.8 0 0 1005.6 NA 0.0000 9999 6000 0 0 0
2019/07/14 20:46:00 BASE 0.42 330 2.98 12 -3.5 97 -3.9 0 0 1005.6 NA 0.0000 9999 6000 0 0 0
2019/07/14 20:47:00 BASE 1.15 328 2.98 12 -3.4 96 -4.0 0 0 1005.6 NA 0.0000 9999 6100 0 0 0
2019/07/14 20:48:00 BASE 1.72 331 2.98 12 -3.4 95 -4.1 0 0 1005.6 NA 0.0000 9999 6140 0 0 0
2019/07/14 20:49:00 BASE 2.25 326 2.98 12 -3.4 94 -4.2 0 0 1005.5 NA 0.0000 9999 6140 0 0 0
2019/07/14 20:50:00 BASE 2.62 333 2.98 12 -3.3 93 -4.3 0 0 1005.5 NA 0.0000 9999 6230 0 0 0
2019/07/14 20:51:01 BASE 2.70 353 2.88 333 -3.4 93 -4.3 0 0 1005.5 NA 0.0000 9999 6040 0 0 0
2019/07/14 20:52:00 BASE 2.55 4 2.88 333 -3.4 93 -4.4 0 0 1005.4 NA 0.0000 9999 6270 0 0 0
2019/07/14 20:53:00 BASE 2.17 1 2.88 333 -3.4 94 -4.3 0 0 1005.4 NA 0.0000 9999 6230 0 0 0
2019/07/14 20:54:00 BASE 1.96 350 2.88 333 -3.4 95 -4.1 0 0 1005.3 NA 0.0000 9999 6300 0 0 0
2019/07/14 20:55:00 BASE 2.25 340 2.88 333 -3.4 95 -4.0 0 0 1005.3 NA 0.0000 9999 6270 0 0 0
2019/07/14 20:56:00 BASE 2.71 342 3.09 350 -3.3 95 -4.0 0 0 1005.3 NA 0.0000 9999 6170 0 0 0
2019/07/14 20:57:00 BASE 2.79 347 3.34 343 -3.3 95 -4.0 0 0 1005.3 NA 0.0000 9999 6230 0 0 0
2019/07/14 20:58:00 BASE 2.25 353 3.34 343 -3.3 95 -4.0 0 0 1005.3 NA 0.0000 9999 6170 0 0 0
2019/07/14 20:59:00 BASE 1.58 349 3.34 343 -3.3 94 -4.1 0 0 1005.3 NA 0.0000 9999 6100 0 0 0
2019/07/14 21:00:00 BASE 1.10 343 3.34 343 -3.3 94 -4.1 0 0 1005.3 NA 0.0000 9999 6170 0 0 0
2019/07/14 21:01:00 BASE 1.12 354 3.34 343 -3.4 94 -4.1 0 0 1005.3 NA 0.0000 9999 6300 0 0 0
2019/07/14 21:02:00 BASE 1.82 4 3.34 343 -3.4 95 -4.1 0 0 1005.3 NA 0.0000 9999 6200 0 0 0
2019/07/14 21:03:00 BASE 2.53 11 3.34 343 -3.4 95 -4.1 0 0 1005.3 NA 0.0000 9999 6200 0 0 0
2019/07/14 21:04:00 BASE 3.04 17 3.76 12 -3.4 95 -4.0 0 0 1005.3 NA 0.0000 9999 6230 0 0 0
2019/07/14 21:05:00 BASE 3.26 18 3.76 12 -3.4 95 -4.0 0 0 1005.3 NA 0.0000 9999 6270 0 0 0
2019/07/14 21:06:00 BASE 2.94 21 3.76 12 -3.4 95 -4.0 0 0 1005.3 NA 0.0000 9999 6270 0 0 0
2019/07/14 21:07:00 BASE 2.58 24 3.76 12 -3.3 95 -4.0 0 0 1005.3 NA 0.0000 9999 6300 0 0 0
2019/07/14 21:08:00 BASE 2.66 21 3.76 12 -3.3 95 -4.0 0 0 1005.3 NA 0.0000 9999 6300 0 0 0
2019/07/14 21:09:00 BASE 2.91 18 3.76 12 -3.3 94 -4.1 0 0 1005.3 NA 0.0000 9999 6300 0 0 0
2019/07/14 21:10:00 BASE 3.11 17 3.76 12 -3.3 94 -4.1 0 0 1005.2 NA 0.0000 9999 6300 0 0 0
2019/07/14 21:11:00 BASE 3.43 17 3.91 19 -3.3 94 -4.2 0 0 1005.2 NA 0.0000 9999 6300 0 0 0
2019/07/14 21:12:00 BASE 3.71 18 3.96 21 -3.3 93 -4.2 0 0 1005.2 NA 0.0000 9999 6300 0 0 0
2019/07/14 21:13:00 BASE 3.71 23 3.96 21 -3.3 93 -4.3 0 0 1005.2 NA 0.0000 9999 6270 0 0 0
2019/07/14 21:14:00 BASE 3.71 22 4.01 15 -3.3 92 -4.4 0 0 1005.2 NA 0.0000 9999 6300 0 0 0
2019/07/14 21:15:00 BASE 3.71 18 4.01 18 -3.2 92 -4.4 0 0 1005.2 NA 0.0000 9999 6330 0 0 0
2019/07/14 21:16:00 BASE 3.68 16 4.01 18 -3.2 91 -4.5 0 0 1005.2 NA 0.0000 9999 6330 0 0 0
2019/07/14 21:17:00 BASE 3.76 16 4.01 21 -3.2 91 -4.5 0 0 1005.2 NA 0.0000 9999 6430 0 0 0
2019/07/14 21:18:00 BASE 3.78 19 4.01 21 -3.2 90 -4.6 0 0 1005.1 NA 0.0000 9999 6370 0 0 0
2019/07/14 21:19:00 BASE 4.04 12 5.09 354 -3.2 90 -4.6 0 0 1005.1 NA 0.0000 9999 6370 0 0 0
2019/07/14 21:20:00 BASE 4.41 2 5.09 354 -3.2 90 -4.6 0 0 1005.1 NA 0.0000 9999 6270 0 0 0
2019/07/14 21:21:00 BASE 4.24 14 5.09 354 -3.2 90 -4.6 0 0 1005.1 NA 0.0000 9999 6330 0 0 0
2019/07/14 21:22:00 BASE 3.79 24 5.09 354 -3.2 90 -4.6 0 0 1005.1 NA 0.0000 9999 6270 0 0 0
2019/07/14 21:23:00 BASE 3.47 21 5.09 354 -3.2 90 -4.6 0 0 1005.1 NA 0.0000 9999 6230 0 0 0
2019/07/14 21:24:00 BASE 3.57 27 5.09 354 -3.1 90 -4.6 0 0 1005.1 NA 0.0000 9999 6200 0 0 0
2019/07/14 21:25:00 BASE 3.41 36 5.09 354 -3.1 90 -4.5 0 0 1005.1 NA 0.0000 9999 6230 0 0 0
2019/07/14 21:26:00 BASE 2.89 33 5.09 354 -3.0 90 -4.5 0 0 1005.1 NA 0.0000 9999 6170 0 0 0
2019/07/14 21:27:00 BASE 2.45 25 5.09 354 -2.9 89 -4.5 0 0 1005.1 NA 0.0000 9999 6230 0 0 0
2019/07/14 21:28:00 BASE 2.13 18 5.09 354 -2.8 88 -4.5 0 0 1005.1 NA 0.0000 9999 6270 0 0 0
2019/07/14 21:29:00 BASE 2.08 2 4.78 16 -2.7 87 -4.5 0 0 1005.1 NA 0.0000 9999 6270 0 0 0
2019/07/14 21:30:00 BASE 2.44 349 4.32 26 -2.5 86 -4.5 0 0 1005.1 NA 0.0000 9999 6300 0 0 0
2019/07/14 21:31:00 BASE 2.75 351 4.22 27 -2.4 85 -4.6 0 0 1005.1 NA 0.0000 9999 6200 0 0 0
2019/07/14 21:32:00 BASE 2.76 356 4.06 29 -2.4 84 -4.7 0 0 1005.1 NA 0.0000 9999 5220 6200 0 0
2019/07/14 21:33:00 BASE 2.94 4 4.06 29 -2.3 83 -4.7 0 0 1005.1 NA 0.0000 9999 5350 6230 0 0
2019/07/14 21:34:00 BASE 3.43 11 4.22 12 -2.3 82 -4.9 0 0 1005.1 NA 0.0000 9999 6170 0 0 0
2019/07/14 21:35:00 BASE 3.80 8 4.22 4 -2.3 82 -4.9 0 0 1005.1 NA 0.0000 9999 5120 6200 0 0
2019/07/14 21:36:00 BASE 3.28 4 4.22 4 -2.3 81 -5.0 0 0 1005.1 NA 0.0000 9999 5150 0 0 0
2019/07/14 21:37:00 BASE 2.48 6 4.22 4 -2.3 81 -5.0 0 0 1005.1 NA 0.0000 9999 4920 0 0 0
2019/07/14 21:38:00 BASE 2.76 355 4.22 4 -2.2 81 -5.0 0 0 1005.1 NA 0.0000 9999 5050 0 0 0
2019/07/14 21:39:00 BASE 3.68 336 4.37 331 -2.1 81 -5.0 0 0 1004.9 NA 0.0000 9999 5580 0 0 0
2019/07/14 21:40:00 BASE 3.66 324 4.37 331 -2.0 80 -5.0 0 0 1004.9 NA 0.0000 9999 5680 0 0 0
2019/07/14 21:41:00 BASE 2.93 347 4.37 331 -2.0 80 -5.0 0 0 1004.9 NA 0.0000 9999 5680 0 0 0
2019/07/14 21:42:00 BASE 2.41 6 4.37 331 -1.9 80 -5.0 0 0 1004.9 NA 0.0000 9999 6300 0 0 0
2019/07/14 21:43:00 BASE 2.24 341 4.37 331 -1.8 79 -5.0 0 0 1004.9 NA 0.0000 9999 4690 5870 0 0
2019/07/14 21:44:00 BASE 2.09 327 4.37 331 -1.8 79 -5.0 0 0 1004.9 NA 0.0000 9999 4820 5870 0 0
2019/07/14 21:45:00 BASE 2.01 332 4.37 331 -1.8 79 -5.0 0 0 1004.9 NA 0.0000 9999 4920 5480 0 0
2019/07/14 21:46:00 BASE 2.64 337 4.37 331 -1.8 79 -5.0 0 0 1004.9 NA 0.0000 9999 4890 0 0 0
2019/07/14 21:47:00 BASE 2.80 336 4.37 331 -1.8 79 -5.0 0 0 1004.9 NA 0.0000 9999 4790 0 0 0
2019/07/14 21:48:00 BASE 2.19 329 4.37 331 -1.9 79 -5.0 0 0 1005.0 NA 0.0000 9999 4920 0 0 0
2019/07/14 21:49:00 BASE 2.14 320 3.81 321 -2.0 80 -5.0 0 0 1005.1 NA 0.0000 9999 5090 0 0 0
2019/07/14 21:50:00 BASE 2.28 314 3.65 336 -2.1 80 -5.0 0 0 1005.1 NA 0.0000 9999 5150 0 0 0
2019/07/14 21:51:00 BASE 2.19 318 3.65 336 -2.1 81 -4.9 0 0 1005.1 NA 0.0000 9999 5020 0 0 0
2019/07/14 21:52:00 BASE 1.92 332 3.65 336 -2.2 82 -4.9 0 0 1005.1 NA 0.0000 9999 4990 0 0 0
2019/07/14 21:53:00 BASE 1.28 337 3.65 336 -2.3 83 -4.8 0 0 1005.1 NA 0.0000 9999 5090 0 0 0
2019/07/14 21:54:00 BASE 0.75 343 3.65 336 -2.3 84 -4.7 0 0 1005.0 NA 0.0000 9999 5120 0 0 0
2019/07/14 21:55:00 BASE 1.32 346 3.65 336 -2.3 85 -4.5 0 0 1004.9 NA 0.0000 9999 5120 0 0 0
2019/07/14 21:56:00 BASE 2.23 342 2.98 312 -2.2 85 -4.4 0 0 1004.9 NA 0.0000 9999 5090 0 0 0
2019/07/14 21:57:00 BASE 2.11 340 2.98 312 -2.1 85 -4.3 0 0 1004.9 NA 0.0000 9999 5050 6140 0 0
2019/07/14 21:58:00 BASE 2.19 335 3.09 323 -2.1 85 -4.2 0 0 1004.9 NA 0.0000 9999 5050 0 0 0
2019/07/14 21:59:00 BASE 2.42 326 3.09 323 -2.0 85 -4.2 0 0 1004.8 NA 0.0000 9999 5050 0 0 0
2019/07/14 22:00:00 BASE 1.99 325 3.09 323 -1.9 84 -4.2 0 0 1004.8 NA 0.0000 9999 5150 0 0 0
2019/07/14 22:01:00 BASE 1.61 328 3.09 323 -1.9 84 -4.3 0 0 1004.8 NA 0.0000 9999 5120 0 0 0
2019/07/14 22:02:00 BASE 1.64 329 3.09 323 -1.9 84 -4.3 0 0 1004.8 NA 0.0000 9999 5150 0 0 0
2019/07/14 22:03:00 BASE 1.99 332 3.09 323 -1.9 83 -4.4 0 0 1004.8 NA 0.0000 9999 5120 5940 0 0
2019/07/14 22:04:00 BASE 2.24 332 3.09 323 -2.0 83 -4.4 0 0 1004.7 NA 0.0000 9999 5220 0 0 0
2019/07/14 22:05:00 BASE 2.39 329 3.09 323 -2.0 83 -4.4 0 0 1004.7 NA 0.0000 9999 5150 0 0 0
2019/07/14 22:06:00 BASE 2.24 328 3.09 323 -2.0 84 -4.4 0 0 1004.7 NA 0.0000 9999 5180 0 0 0
2019/07/14 22:07:00 BASE 2.02 330 3.09 323 -2.1 84 -4.4 0 0 1004.7 NA 0.0000 9999 5320 0 0 0
2019/07/14 22:08:00 BASE 1.83 333 2.62 330 -2.1 85 -4.4 0 0 1004.7 NA 0.0000 9999 5250 6100 0 0
2019/07/14 22:09:00 BASE 1.98 340 2.62 330 -2.2 85 -4.3 0 0 1004.7 NA 0.0000 9999 5350 0 0 0
2019/07/14 22:10:00 BASE 2.63 348 3.34 351 -2.2 86 -4.3 0 0 1004.8 NA 0.0000 9999 5350 0 0 0
2019/07/14 22:11:00 BASE 3.08 356 3.45 354 -2.2 86 -4.2 0 0 1004.8 NA 0.0000 9999 5350 0 0 0
2019/07/14 22:12:00 BASE 2.87 6 3.45 354 -2.2 86 -4.2 0 0 1004.8 NA 0.0000 9999 5710 6300 0 0
2019/07/14 22:13:00 BASE 2.60 5 3.45 354 -2.2 87 -4.1 0 0 1004.7 NA 0.0000 9999 5680 0 0 0
2019/07/14 22:14:00 BASE 2.59 353 3.45 354 -2.2 87 -4.1 0 0 1004.7 NA 0.0000 9999 5510 0 0 0
2019/07/14 22:15:00 BASE 2.12 351 3.45 354 -2.2 87 -4.0 0 0 1004.7 NA 0.0000 9999 5480 0 0 0
2019/07/14 22:16:00 BASE 1.49 1 3.45 354 -2.1 87 -4.1 0 0 1004.7 NA 0.0000 9999 5480 0 0 0
2019/07/14 22:17:00 BASE 1.40 15 3.45 354 -2.1 87 -4.1 0 0 1004.7 NA 0.0000 9999 5510 6140 0 0
2019/07/14 22:18:00 BASE 1.81 18 3.45 354 -2.1 86 -4.1 0 0 1004.7 NA 0.0000 9999 5510 0 0 0
2019/07/14 22:19:00 BASE 2.37 7 3.45 354 -2.0 86 -4.1 0 0 1004.7 NA 0.0000 9999 5540 0 0 0
2019/07/14 22:20:00 BASE 2.73 356 3.45 354 -2.0 85 -4.2 0 0 1004.7 NA 0.0000 9999 5510 0 0 0
2019/07/14 22:21:00 BASE 3.01 354 3.40 354 -1.9 84 -4.2 0 0 1004.7 NA 0.0000 9999 5610 0 0 0
2019/07/14 22:22:00 BASE 3.15 359 3.40 354 -1.9 83 -4.3 0 0 1004.7 NA 0.0000 9999 5610 0 0 0
2019/07/14 22:23:00 BASE 2.88 3 3.40 354 -1.8 82 -4.4 0 0 1004.7 NA 0.0000 9999 5740 0 0 0
2019/07/14 22:24:00 BASE 2.54 8 3.40 354 -1.7 81 -4.5 0 0 1004.7 NA 0.0000 9999 5680 0 0 0
2019/07/14 22:25:00 BASE 2.18 15 3.40 354 -1.7 80 -4.6 0 0 1004.7 NA 0.0000 9999 5640 0 0 0
2019/07/14 22:26:00 BASE 1.83 17 3.40 354 -1.7 79 -4.8 0 0 1004.7 NA 0.0000 9999 5510 0 0 0
2019/07/14 22:27:00 BASE 1.74 11 3.40 354 -1.7 79 -4.8 0 0 1004.7 NA 0.0000 9999 5610 0 0 0
2019/07/14 22:28:00 BASE 1.66 7 3.40 354 -1.7 79 -4.8 0 0 1004.7 NA 0.0000 9999 5680 0 0 0
2019/07/14 22:29:00 BASE 1.80 2 3.40 354 -1.6 79 -4.8 0 0 1004.6 NA 0.0000 9999 5410 0 0 0
2019/07/14 22:30:00 BASE 2.13 5 3.40 354 -1.5 78 -4.8 0 0 1004.6 NA 0.0000 9999 5410 0 0 0
2019/07/14 22:31:00 BASE 2.16 13 3.29 1 -1.4 78 -4.8 0 0 1004.6 NA 0.0000 9999 5380 0 0 0
2019/07/14 22:32:00 BASE 1.52 19 2.83 2 -1.3 76 -4.9 0 0 1004.6 NA 0.0000 9999 5380 0 0 0
2019/07/14 22:33:00 BASE 0.82 18 2.68 13 -1.2 75 -5.0 0 0 1004.6 NA 0.0000 9999 5410 0 0 0
2019/07/14 22:34:00 BASE 0.48 17 2.52 1 -1.2 74 -5.1 0 0 1004.6 NA 0.0000 9999 5480 0 0 0
2019/07/14 22:35:00 BASE 0.15 19 2.52 1 -1.1 74 -5.2 0 0 1004.6 NA 0.0000 9999 5450 0 0 0
2019/07/14 22:36:00 BASE 0.66 220 2.52 1 -1.1 73 -5.4 0 0 1004.6 NA 0.0000 9999 5480 0 0 0
2019/07/14 22:37:00 BASE 1.22 197 2.52 1 -1.1 71 -5.6 0 0 1004.5 NA 0.0000 9999 5280 6270 0 0
2019/07/14 22:38:00 BASE 1.32 195 2.52 1 -1.1 71 -5.8 0 0 1004.5 NA 0.0000 9999 5410 0 0 0
2019/07/14 22:39:00 BASE 1.67 200 2.52 1 -1.2 70 -5.9 0 0 1004.5 NA 0.0000 9999 5410 0 0 0
2019/07/14 22:40:00 BASE 2.08 188 2.62 176 -1.3 70 -6.0 0 0 1004.5 NA 0.0000 9999 5380 0 0 0
2019/07/14 22:41:00 BASE 2.30 170 2.62 176 -1.4 71 -6.1 0 0 1004.5 NA 0.0000 9999 5320 6040 0 0
2019/07/14 22:42:00 BASE 1.97 153 2.62 176 -1.6 72 -6.0 0 0 1004.5 NA 0.0000 9999 5350 0 0 0
2019/07/14 22:43:00 BASE 1.15 136 2.62 176 -1.7 73 -5.9 0 0 1004.5 NA 0.0000 9999 5320 0 0 0
2019/07/14 22:44:00 BASE 0.30 112 2.62 176 -1.8 74 -5.8 0 0 1004.5 NA 0.0000 9999 5410 0 0 0
2019/07/14 22:45:00 BASE 0.00 67 2.62 176 -1.9 76 -5.6 0 0 1004.5 NA 0.0000 9999 5540 0 0 0
2019/07/14 22:46:00 BASE 0.68 40 2.62 176 -1.8 77 -5.4 0 0 1004.5 NA 0.0000 9999 5350 0 0 0
2019/07/14 22:47:00 BASE 1.20 42 2.62 176 -1.7 77 -5.2 0 0 1004.5 NA 0.0000 9999 5710 0 0 0
2019/07/14 22:48:00 BASE 0.61 63 2.62 176 -1.5 76 -5.3 0 0 1004.5 NA 0.0000 9999 5580 6100 0 0
2019/07/14 22:49:00 BASE 0.13 95 2.62 176 -1.4 74 -5.4 0 0 1004.5 NA 0.0000 9999 6270 0 0 0
2019/07/14 22:50:00 BASE 0.38 103 2.47 164 -1.3 73 -5.6 0 0 1004.5 NA 0.0000 9999 6000 0 0 0
2019/07/14 22:51:00 BASE 1.18 82 2.21 56 -1.2 71 -5.8 0 0 1004.5 NA 0.0000 9999 5810 6560 0 0
2019/07/14 22:52:00 BASE 2.09 58 2.68 42 -1.2 70 -6.0 0 0 1004.5 NA 0.0000 9999 6760 0 0 0
2019/07/14 22:53:00 BASE 2.80 41 3.40 29 -1.2 69 -6.1 0 0 1004.4 NA 0.0000 9999 5740 0 0 0
2019/07/14 22:54:00 BASE 3.39 32 3.81 29 -1.2 69 -6.2 0 0 1004.4 NA 0.0000 9999 5770 0 0 0
2019/07/14 22:55:00 BASE 3.50 30 3.81 29 -1.2 69 -6.2 0 0 1004.4 NA 0.0000 9999 5710 0 0 0
2019/07/14 22:56:00 BASE 3.25 35 3.81 29 -1.2 69 -6.3 0 0 1004.4 NA 0.0000 9999 5710 6300 0 0
2019/07/14 22:57:00 BASE 3.09 45 3.81 29 -1.3 69 -6.2 0 0 1004.4 NA 0.0000 9999 5710 0 0 0
2019/07/14 22:58:00 BASE 3.04 53 3.81 29 -1.3 70 -6.1 0 0 1004.4 NA 0.0000 9999 5540 0 0 0
2019/07/14 22:59:00 BASE 3.22 56 3.81 29 -1.2 70 -6.0 0 0 1004.3 NA 0.0000 9999 5450 0 0 0
2019/07/14 23:00:00 BASE 3.54 58 4.01 57 -1.1 69 -6.0 0 0 1004.3 NA 0.0000 9999 5410 0 0 0
2019/07/14 23:01:00 BASE 3.92 58 4.22 57 -1.0 69 -6.0 0 0 1004.3 NA 0.0000 9999 5380 5910 0 0
2019/07/14 23:02:00 BASE 3.87 57 4.22 57 -0.9 68 -6.0 0 0 1004.2 NA 0.0000 9999 5910 0 0 0
2019/07/14 23:03:00 BASE 3.33 53 4.22 57 -0.8 67 -6.1 0 0 1004.2 NA 0.0000 9999 5510 0 0 0
2019/07/14 23:04:00 BASE 3.13 44 4.22 57 -0.8 67 -6.2 0 0 1004.2 NA 0.0000 9999 5480 0 0 0
2019/07/14 23:05:00 BASE 3.37 38 4.22 57 -0.9 67 -6.2 0 0 1004.2 NA 0.0000 9999 5320 0 0 0
2019/07/14 23:06:00 BASE 3.68 35 4.22 57 -1.0 68 -6.2 0 0 1004.2 NA 0.0000 9999 5540 0 0 0
2019/07/14 23:07:00 BASE 3.73 27 4.22 57 -1.1 68 -6.2 0 0 1004.2 NA 0.0000 9999 5510 0 0 0
2019/07/14 23:08:00 BASE 3.52 25 4.22 57 -1.2 69 -6.2 0 0 1004.2 NA 0.0000 9999 5510 0 0 0
2019/07/14 23:09:00 BASE 3.13 27 4.22 57 -1.3 70 -6.2 0 0 1004.2 NA 0.0000 9999 5220 0 0 0
2019/07/14 23:10:00 BASE 2.48 26 4.22 57 -1.4 70 -6.1 0 0 1004.1 NA 0.0000 9999 5090 0 0 0
2019/07/14 23:11:00 BASE 2.03 27 4.01 32 -1.4 71 -6.0 0 0 1004.1 NA 0.0000 9999 5150 0 0 0
2019/07/14 23:12:00 BASE 1.93 24 4.01 32 -1.4 71 -6.0 0 0 1004.1 NA 0.0000 9999 5250 0 0 0
2019/07/14 23:13:00 BASE 2.02 15 4.01 32 -1.3 71 -5.9 0 0 1004.1 NA 0.0000 9999 5320 5710 0 0
2019/07/14 23:14:00 BASE 2.08 10 4.01 32 -1.1 70 -5.9 0 0 1004.0 NA 0.0000 9999 5250 0 0 0
2019/07/14 23:15:00 BASE 1.87 13 4.01 32 -0.8 68 -6.0 0 0 1004.1 NA 0.0000 9999 5050 0 0 0
2019/07/14 23:16:00 BASE 1.76 19 3.86 26 -0.7 66 -6.2 0 0 1004.0 NA 0.0000 9999 5090 0 0 0
2019/07/14 23:17:00 BASE 1.91 20 3.76 24 -0.5 64 -6.4 0 0 1004.0 NA 0.0000 9999 5090 5540 0 0
2019/07/14 23:18:00 BASE 2.52 12 3.65 345 -0.3 62 -6.6 0 0 1004.0 NA 0.0000 9999 5610 0 0 0
2019/07/14 23:19:00 BASE 3.34 358 4.06 347 -0.4 61 -6.9 0 0 1004.0 NA 0.0000 9999 5250 5910 0 0
2019/07/14 23:20:00 BASE 3.00 359 4.06 347 -0.6 62 -6.9 0 0 1004.0 NA 0.0000 9999 5410 0 0 0
2019/07/14 23:21:00 BASE 2.00 359 4.06 347 -0.8 64 -6.8 0 0 1004.0 NA 0.0000 9999 5610 0 0 0
2019/07/14 23:22:00 BASE 1.69 350 4.06 347 -1.1 66 -6.6 0 0 1004.0 NA 0.0000 9999 5380 0 0 0
2019/07/14 23:23:00 BASE 1.93 354 4.06 347 -1.3 68 -6.4 0 0 1004.0 NA 0.0000 9999 5380 6170 0 0
2019/07/14 23:24:00 BASE 2.19 10 4.06 347 -1.4 70 -6.1 0 0 1004.0 NA 0.0000 9999 5220 0 0 0
2019/07/14 23:25:00 BASE 2.28 29 4.06 347 -1.4 71 -6.0 0 0 1004.0 NA 0.0000 9999 5350 6000 0 0
2019/07/14 23:26:00 BASE 2.07 35 4.06 347 -1.3 71 -5.9 0 0 1004.0 NA 0.0000 9999 5710 0 0 0
2019/07/14 23:27:00 BASE 1.59 16 4.06 347 -1.2 71 -5.9 0 0 1004.0 NA 0.0000 9999 5320 5940 0 0
2019/07/14 23:28:00 BASE 1.63 352 4.06 347 -1.2 70 -5.9 0 0 1004.0 NA 0.0000 9999 5480 0 0 0
2019/07/14 23:29:00 BASE 2.06 340 2.98 5 -1.2 70 -6.0 0 0 1004.0 NA 0.0000 9999 5350 0 0 0
2019/07/14 23:30:00 BASE 2.43 332 2.93 331 -1.1 69 -6.0 0 0 1004.0 NA 0.0000 9999 5970 0 0 0
2019/07/14 23:31:00 BASE 2.95 330 4.01 337 -1.2 69 -6.1 0 0 1004.0 NA 0.0000 9999 5710 0 0 0
2019/07/14 23:32:00 BASE 3.30 333 4.01 337 -1.2 69 -6.1 0 0 1004.0 NA 0.0000 9999 5540 0 0 0
2019/07/14 23:33:00 BASE 3.49 334 4.01 337 -1.3 70 -6.1 0 0 1004.0 NA 0.0000 9999 5180 5710 0 0
2019/07/14 23:34:00 BASE 3.57 334 4.01 337 -1.4 71 -6.0 0 0 1004.0 NA 0.0000 9999 5910 0 0 0
2019/07/14 23:35:00 BASE 3.42 336 4.01 337 -1.5 72 -5.9 0 0 1004.0 NA 0.0000 9999 5910 0 0 0
2019/07/14 23:36:00 BASE 3.21 340 4.01 337 -1.6 73 -5.7 0 0 1003.9 NA 0.0000 9999 5250 0 0 0
2019/07/14 23:37:00 BASE 2.72 344 4.01 337 -1.6 74 -5.6 0 0 1003.9 NA 0.0000 9999 5350 6070 0 0
2019/07/14 23:38:00 BASE 2.19 348 4.01 337 -1.6 75 -5.4 0 0 1003.9 NA 0.0000 9999 5540 6100 0 0
2019/07/14 23:39:00 BASE 2.12 348 4.01 337 -1.6 76 -5.3 0 0 1003.9 NA 0.0000 9999 5050 0 0 0
2019/07/14 23:40:00 BASE 2.18 347 4.01 337 -1.6 77 -5.1 0 0 1003.8 NA 0.0000 9999 6100 0 0 0
2019/07/14 23:41:00 BASE 2.11 346 3.86 330 -1.5 77 -5.1 0 0 1003.8 NA 0.0000 9999 6000 0 0 0
2019/07/14 23:42:00 BASE 1.27 346 3.86 330 -1.5 77 -5.1 0 0 1003.8 NA 0.0000 9999 6100 0 0 0
2019/07/14 23:43:00 BASE 0.22 343 3.86 330 -1.5 76 -5.1 0 0 1003.8 NA 0.0000 9999 6140 0 0 0
2019/07/14 23:44:00 BASE 0.61 346 3.55 335 -1.6 76 -5.2 0 0 1003.8 NA 0.0000 9999 6140 0 0 0
2019/07/14 23:45:00 BASE 1.80 353 3.55 335 -1.6 77 -5.2 0 0 1003.7 NA 0.0000 9999 6000 0 0 0
2019/07/14 23:46:00 BASE 2.35 343 2.78 335 -1.6 77 -5.2 0 0 1003.6 NA 0.0000 9999 5740 0 0 0
2019/07/14 23:47:00 BASE 2.00 342 2.78 335 -1.6 77 -5.0 0 0 1003.7 NA 0.0000 9999 5940 0 0 0
2019/07/14 23:48:00 BASE 1.54 358 2.78 335 -1.5 77 -4.9 0 0 1003.7 NA 0.0000 9999 5380 0 0 0
2019/07/14 23:49:00 BASE 1.13 1 2.78 335 -1.2 76 -5.0 0 0 1003.6 NA 0.0000 9999 5280 0 0 0
2019/07/14 23:50:00 BASE 0.43 359 2.78 335 -1.1 74 -5.1 0 0 1003.6 NA 0.0000 9999 5540 0 0 0
2019/07/14 23:51:00 BASE 0.00 1 2.78 335 -0.9 72 -5.3 0 0 1003.6 NA 0.0000 9999 5320 0 0 0
2019/07/14 23:52:00 BASE 0.00 0 2.78 335 -0.7 70 -5.6 0 0 1003.6 NA 0.0000 9999 5740 0 0 0
2019/07/14 23:53:00 BASE 0.00 357 2.78 335 -0.6 67 -5.9 0 0 1003.6 NA 0.0000 9999 5740 0 0 0
2019/07/14 23:54:00 BASE 0.46 344 2.78 335 -0.5 66 -6.1 0 0 1003.6 NA 0.0000 9999 5740 0 0 0
2019/07/14 23:55:00 BASE 0.46 339 2.78 335 -0.4 65 -6.2 0 0 1003.6 NA 0.0000 9999 5740 0 0 0
2019/07/14 23:56:00 BASE 0.23 337 1.85 337 -0.3 63 -6.4 0 0 1003.6 NA 0.0000 9999 5710 0 0 0
2019/07/14 23:57:00 BASE 0.62 321 1.65 5 -0.3 63 -6.6 0 0 1003.6 NA 0.0000 9999 5740 0 0 0
2019/07/14 23:58:00 BASE 0.77 336 1.59 18 -0.5 63 -6.6 0 0 1003.6 NA 0.0000 9999 5740 0 0 0
2019/07/14 23:59:00 BASE 1.26 11 1.85 26 -0.8 65 -6.6 0 0 1003.6 NA 0.0000 9999 5680 0 0 0